<?xml version="1.0" encoding="UTF-8" standalone="no" ?>
<gpx xmlns="http://www.topografix.com/GPX/1/1" xmlns:xsi="http://www.w3.org/2001/XMLSchema-instance" xsi:schemaLocation="http://www.topografix.com/GPX/1/1 http://www.topografix.com/GPX/1/1/gpx.xsd" version="1.1" creator="VisuGPX - https://www.visugpx.com">
  <metadata>
    <name>Limerzel_Templiers_Trevolo_20+-22km</name>
    <desc><![CDATA[gnerando idor:8319516_9686623_9744769]]></desc>
  </metadata>
  <trk>
    <name><![CDATA[Limerzel_ 2boucles_20.6km-8319516]]></name>
    <extensions>
      <line xmlns="http://www.topografix.com/GPX/gpx_style/0/2">
        <color>0000FF</color>
        <width>4</width>
      </line>
    </extensions>
    <trkseg>
      <trkpt lat="47.63779" lon="-2.35627">
        <ele>76</ele>
        <time>2023-11-05T10:43:47Z</time>
      </trkpt>
      <trkpt lat="47.63964" lon="-2.35908">
        <ele>77</ele>
        <time>2023-11-05T10:49:40Z</time>
      </trkpt>
      <trkpt lat="47.6384" lon="-2.35961">
        <ele>79</ele>
        <time>2023-11-05T10:52:32Z</time>
      </trkpt>
      <trkpt lat="47.63826" lon="-2.35999">
        <ele>77</ele>
        <time>2023-11-05T10:53:11Z</time>
      </trkpt>
      <trkpt lat="47.63627" lon="-2.35877">
        <ele>52</ele>
        <time>2023-11-05T10:57:59Z</time>
      </trkpt>
      <trkpt lat="47.63613" lon="-2.35944">
        <ele>49</ele>
        <time>2023-11-05T10:59:02Z</time>
      </trkpt>
      <trkpt lat="47.63469" lon="-2.36025">
        <ele>39</ele>
        <time>2023-11-05T11:02:27Z</time>
      </trkpt>
      <trkpt lat="47.63338" lon="-2.36255">
        <ele>39</ele>
        <time>2023-11-05T11:06:58Z</time>
      </trkpt>
      <trkpt lat="47.63266" lon="-2.36566">
        <ele>30</ele>
        <time>2023-11-05T11:11:54Z</time>
      </trkpt>
      <trkpt lat="47.63163" lon="-2.36781">
        <ele>24</ele>
        <time>2023-11-05T11:15:51Z</time>
      </trkpt>
      <trkpt lat="47.63129" lon="-2.36954">
        <ele>28</ele>
        <time>2023-11-05T11:18:33Z</time>
      </trkpt>
      <trkpt lat="47.63087" lon="-2.36939">
        <ele>29</ele>
        <time>2023-11-05T11:19:31Z</time>
      </trkpt>
      <trkpt lat="47.63094" lon="-2.36765">
        <ele>29</ele>
        <time>2023-11-05T11:22:08Z</time>
      </trkpt>
      <trkpt lat="47.63067" lon="-2.36597">
        <ele>24</ele>
        <time>2023-11-05T11:24:43Z</time>
      </trkpt>
      <trkpt lat="47.62867" lon="-2.36418">
        <ele>39</ele>
        <time>2023-11-05T11:29:55Z</time>
      </trkpt>
      <trkpt lat="47.62272" lon="-2.36561">
        <ele>66</ele>
        <time>2023-11-05T11:43:19Z</time>
      </trkpt>
      <trkpt lat="47.62234" lon="-2.36918">
        <ele>72</ele>
        <time>2023-11-05T11:48:44Z</time>
      </trkpt>
      <trkpt lat="47.62231" lon="-2.37128">
        <ele>70</ele>
        <time>2023-11-05T11:51:53Z</time>
      </trkpt>
      <trkpt lat="47.62248" lon="-2.37174">
        <ele>67</ele>
        <time>2023-11-05T11:52:40Z</time>
      </trkpt>
      <trkpt lat="47.62231" lon="-2.37255">
        <ele>61</ele>
        <time>2023-11-05T11:53:56Z</time>
      </trkpt>
      <trkpt lat="47.62086" lon="-2.37296">
        <ele>66</ele>
        <time>2023-11-05T11:57:13Z</time>
      </trkpt>
      <trkpt lat="47.62038" lon="-2.37362">
        <ele>66</ele>
        <time>2023-11-05T11:58:41Z</time>
      </trkpt>
      <trkpt lat="47.62081" lon="-2.37477">
        <ele>68</ele>
        <time>2023-11-05T12:00:39Z</time>
      </trkpt>
      <trkpt lat="47.62071" lon="-2.3752">
        <ele>69</ele>
        <time>2023-11-05T12:01:20Z</time>
      </trkpt>
      <trkpt lat="47.62018" lon="-2.37564">
        <ele>75</ele>
        <time>2023-11-05T12:02:41Z</time>
      </trkpt>
      <trkpt lat="47.62042" lon="-2.37713">
        <ele>74</ele>
        <time>2023-11-05T12:04:59Z</time>
      </trkpt>
      <trkpt lat="47.62062" lon="-2.37899">
        <ele>76</ele>
        <time>2023-11-05T12:07:48Z</time>
      </trkpt>
      <trkpt lat="47.62141" lon="-2.38168">
        <ele>79</ele>
        <time>2023-11-05T12:12:12Z</time>
      </trkpt>
      <trkpt lat="47.62165" lon="-2.38232">
        <ele>79</ele>
        <time>2023-11-05T12:13:18Z</time>
      </trkpt>
      <trkpt lat="47.6226" lon="-2.382">
        <ele>73</ele>
        <time>2023-11-05T12:15:28Z</time>
      </trkpt>
      <trkpt lat="47.62267" lon="-2.3829">
        <ele>78</ele>
        <time>2023-11-05T12:16:49Z</time>
      </trkpt>
      <trkpt lat="47.62347" lon="-2.38265">
        <ele>64</ele>
        <time>2023-11-05T12:18:39Z</time>
      </trkpt>
      <trkpt lat="47.62391" lon="-2.38449">
        <ele>69</ele>
        <time>2023-11-05T12:21:34Z</time>
      </trkpt>
      <trkpt lat="47.6242" lon="-2.38536">
        <ele>73</ele>
        <time>2023-11-05T12:23:01Z</time>
      </trkpt>
      <trkpt lat="47.62406" lon="-2.38615">
        <ele>77</ele>
        <time>2023-11-05T12:24:15Z</time>
      </trkpt>
      <trkpt lat="47.62464" lon="-2.38817">
        <ele>86</ele>
        <time>2023-11-05T12:27:32Z</time>
      </trkpt>
      <trkpt lat="47.62462" lon="-2.38896">
        <ele>86</ele>
        <time>2023-11-05T12:28:43Z</time>
      </trkpt>
      <trkpt lat="47.62685" lon="-2.39286">
        <ele>93</ele>
        <time>2023-11-05T12:36:23Z</time>
      </trkpt>
      <trkpt lat="47.62822" lon="-2.38994">
        <ele>72</ele>
        <time>2023-11-05T12:41:43Z</time>
      </trkpt>
      <trkpt lat="47.62783" lon="-2.38824">
        <ele>73</ele>
        <time>2023-11-05T12:44:25Z</time>
      </trkpt>
      <trkpt lat="47.62861" lon="-2.38734">
        <ele>71</ele>
        <time>2023-11-05T12:46:37Z</time>
      </trkpt>
      <trkpt lat="47.62919" lon="-2.3885">
        <ele>70</ele>
        <time>2023-11-05T12:48:47Z</time>
      </trkpt>
      <trkpt lat="47.62955" lon="-2.38593">
        <ele>76</ele>
        <time>2023-11-05T12:52:43Z</time>
      </trkpt>
      <trkpt lat="47.6307" lon="-2.38445">
        <ele>71</ele>
        <time>2023-11-05T12:56:06Z</time>
      </trkpt>
      <trkpt lat="47.63082" lon="-2.38301">
        <ele>69</ele>
        <time>2023-11-05T12:58:16Z</time>
      </trkpt>
      <trkpt lat="47.63152" lon="-2.38232">
        <ele>54</ele>
        <time>2023-11-05T13:00:09Z</time>
      </trkpt>
      <trkpt lat="47.63228" lon="-2.3833">
        <ele>46</ele>
        <time>2023-11-05T13:02:23Z</time>
      </trkpt>
      <trkpt lat="47.63359" lon="-2.38384">
        <ele>39</ele>
        <time>2023-11-05T13:05:24Z</time>
      </trkpt>
      <trkpt lat="47.63422" lon="-2.38611">
        <ele>42</ele>
        <time>2023-11-05T13:09:05Z</time>
      </trkpt>
      <trkpt lat="47.63425" lon="-2.38716">
        <ele>40</ele>
        <time>2023-11-05T13:10:40Z</time>
      </trkpt>
      <trkpt lat="47.63495" lon="-2.38785">
        <ele>47</ele>
        <time>2023-11-05T13:12:32Z</time>
      </trkpt>
      <trkpt lat="47.63534" lon="-2.3907">
        <ele>53</ele>
        <time>2023-11-05T13:16:53Z</time>
      </trkpt>
      <trkpt lat="47.63666" lon="-2.392">
        <ele>49</ele>
        <time>2023-11-05T13:20:25Z</time>
      </trkpt>
      <trkpt lat="47.63726" lon="-2.39391">
        <ele>48</ele>
        <time>2023-11-05T13:23:34Z</time>
      </trkpt>
      <trkpt lat="47.63809" lon="-2.39496">
        <ele>46</ele>
        <time>2023-11-05T13:26:00Z</time>
      </trkpt>
      <trkpt lat="47.63889" lon="-2.39283">
        <ele>58</ele>
        <time>2023-11-05T13:29:39Z</time>
      </trkpt>
      <trkpt lat="47.63952" lon="-2.3883">
        <ele>74</ele>
        <time>2023-11-05T13:36:35Z</time>
      </trkpt>
      <trkpt lat="47.63909" lon="-2.38651">
        <ele>68</ele>
        <time>2023-11-05T13:39:26Z</time>
      </trkpt>
      <trkpt lat="47.63882" lon="-2.38388">
        <ele>61</ele>
        <time>2023-11-05T13:43:25Z</time>
      </trkpt>
      <trkpt lat="47.64011" lon="-2.38312">
        <ele>80</ele>
        <time>2023-11-05T13:46:30Z</time>
      </trkpt>
      <trkpt lat="47.63948" lon="-2.38066">
        <ele>82</ele>
        <time>2023-11-05T13:50:27Z</time>
      </trkpt>
      <trkpt lat="47.63909" lon="-2.38027">
        <ele>83</ele>
        <time>2023-11-05T13:51:30Z</time>
      </trkpt>
      <trkpt lat="47.63855" lon="-2.37882">
        <ele>82</ele>
        <time>2023-11-05T13:53:59Z</time>
      </trkpt>
      <trkpt lat="47.63848" lon="-2.37655">
        <ele>81</ele>
        <time>2023-11-05T13:57:23Z</time>
      </trkpt>
      <trkpt lat="47.63763" lon="-2.37356">
        <ele>83</ele>
        <time>2023-11-05T14:02:15Z</time>
      </trkpt>
      <trkpt lat="47.63661" lon="-2.37251">
        <ele>75</ele>
        <time>2023-11-05T14:05:00Z</time>
      </trkpt>
      <trkpt lat="47.63622" lon="-2.37175">
        <ele>70</ele>
        <time>2023-11-05T14:06:26Z</time>
      </trkpt>
      <trkpt lat="47.63593" lon="-2.37146">
        <ele>65</ele>
        <time>2023-11-05T14:07:13Z</time>
      </trkpt>
      <trkpt lat="47.63556" lon="-2.37186">
        <ele>60</ele>
        <time>2023-11-05T14:08:14Z</time>
      </trkpt>
      <trkpt lat="47.6358" lon="-2.37067">
        <ele>65</ele>
        <time>2023-11-05T14:10:06Z</time>
      </trkpt>
      <trkpt lat="47.63525" lon="-2.36984">
        <ele>60</ele>
        <time>2023-11-05T14:11:50Z</time>
      </trkpt>
      <trkpt lat="47.635" lon="-2.36699">
        <ele>72</ele>
        <time>2023-11-05T14:16:09Z</time>
      </trkpt>
      <trkpt lat="47.63452" lon="-2.36529">
        <ele>71</ele>
        <time>2023-11-05T14:18:55Z</time>
      </trkpt>
      <trkpt lat="47.63452" lon="-2.36399">
        <ele>70</ele>
        <time>2023-11-05T14:20:51Z</time>
      </trkpt>
      <trkpt lat="47.63561" lon="-2.36208">
        <ele>72</ele>
        <time>2023-11-05T14:24:37Z</time>
      </trkpt>
      <trkpt lat="47.63632" lon="-2.36067">
        <ele>64</ele>
        <time>2023-11-05T14:27:15Z</time>
      </trkpt>
      <trkpt lat="47.63695" lon="-2.36067">
        <ele>71</ele>
        <time>2023-11-05T14:28:39Z</time>
      </trkpt>
      <trkpt lat="47.63777" lon="-2.36107">
        <ele>77</ele>
        <time>2023-11-05T14:30:34Z</time>
      </trkpt>
      <trkpt lat="47.63839" lon="-2.36039">
        <ele>76</ele>
        <time>2023-11-05T14:32:17Z</time>
      </trkpt>
      <trkpt lat="47.63837" lon="-2.3599">
        <ele>77</ele>
        <time>2023-11-05T14:33:01Z</time>
      </trkpt>
      <trkpt lat="47.63974" lon="-2.35896">
        <ele>77</ele>
        <time>2023-11-05T14:36:22Z</time>
      </trkpt>
      <trkpt lat="47.63835" lon="-2.35691">
        <ele>79</ele>
        <time>2023-11-05T14:40:44Z</time>
      </trkpt>
      <trkpt lat="47.63813" lon="-2.3556">
        <ele>78</ele>
        <time>2023-11-05T14:42:45Z</time>
      </trkpt>
      <trkpt lat="47.6383" lon="-2.35515">
        <ele>79</ele>
        <time>2023-11-05T14:43:32Z</time>
      </trkpt>
      <trkpt lat="47.63734" lon="-2.35347">
        <ele>72</ele>
        <time>2023-11-05T14:46:50Z</time>
      </trkpt>
      <trkpt lat="47.63847" lon="-2.35178">
        <ele>61</ele>
        <time>2023-11-05T14:50:24Z</time>
      </trkpt>
      <trkpt lat="47.63827" lon="-2.35071">
        <ele>58</ele>
        <time>2023-11-05T14:52:04Z</time>
      </trkpt>
      <trkpt lat="47.63696" lon="-2.34923">
        <ele>49</ele>
        <time>2023-11-05T14:55:43Z</time>
      </trkpt>
      <trkpt lat="47.63638" lon="-2.34811">
        <ele>42</ele>
        <time>2023-11-05T14:57:50Z</time>
      </trkpt>
      <trkpt lat="47.63651" lon="-2.34653">
        <ele>51</ele>
        <time>2023-11-05T15:00:14Z</time>
      </trkpt>
      <trkpt lat="47.63479" lon="-2.33989">
        <ele>35</ele>
        <time>2023-11-05T15:10:53Z</time>
      </trkpt>
      <trkpt lat="47.63589" lon="-2.33821">
        <ele>38</ele>
        <time>2023-11-05T15:14:24Z</time>
      </trkpt>
      <trkpt lat="47.6372" lon="-2.33754">
        <ele>45</ele>
        <time>2023-11-05T15:17:29Z</time>
      </trkpt>
      <trkpt lat="47.63823" lon="-2.33627">
        <ele>49</ele>
        <time>2023-11-05T15:20:28Z</time>
      </trkpt>
      <trkpt lat="47.63954" lon="-2.33606">
        <ele>46</ele>
        <time>2023-11-05T15:23:23Z</time>
      </trkpt>
      <trkpt lat="47.64164" lon="-2.33668">
        <ele>48</ele>
        <time>2023-11-05T15:28:09Z</time>
      </trkpt>
      <trkpt lat="47.64198" lon="-2.33856">
        <ele>56</ele>
        <time>2023-11-05T15:31:04Z</time>
      </trkpt>
      <trkpt lat="47.64308" lon="-2.33882">
        <ele>56</ele>
        <time>2023-11-05T15:33:33Z</time>
      </trkpt>
      <trkpt lat="47.64367" lon="-2.3406">
        <ele>66</ele>
        <time>2023-11-05T15:36:31Z</time>
      </trkpt>
      <trkpt lat="47.64449" lon="-2.34081">
        <ele>68</ele>
        <time>2023-11-05T15:38:22Z</time>
      </trkpt>
      <trkpt lat="47.64528" lon="-2.34009">
        <ele>63</ele>
        <time>2023-11-05T15:40:26Z</time>
      </trkpt>
      <trkpt lat="47.64961" lon="-2.34132">
        <ele>67</ele>
        <time>2023-11-05T15:50:14Z</time>
      </trkpt>
      <trkpt lat="47.64979" lon="-2.34336">
        <ele>70</ele>
        <time>2023-11-05T15:53:19Z</time>
      </trkpt>
      <trkpt lat="47.65102" lon="-2.34341">
        <ele>66</ele>
        <time>2023-11-05T15:56:03Z</time>
      </trkpt>
      <trkpt lat="47.65185" lon="-2.34938">
        <ele>67</ele>
        <time>2023-11-05T16:05:11Z</time>
      </trkpt>
      <trkpt lat="47.65254" lon="-2.3501">
        <ele>61</ele>
        <time>2023-11-05T16:07:04Z</time>
      </trkpt>
      <trkpt lat="47.6526" lon="-2.35148">
        <ele>67</ele>
        <time>2023-11-05T16:09:08Z</time>
      </trkpt>
      <trkpt lat="47.65302" lon="-2.35367">
        <ele>70</ele>
        <time>2023-11-05T16:12:33Z</time>
      </trkpt>
      <trkpt lat="47.65285" lon="-2.35637">
        <ele>66</ele>
        <time>2023-11-05T16:16:37Z</time>
      </trkpt>
      <trkpt lat="47.65044" lon="-2.35637">
        <ele>83</ele>
        <time>2023-11-05T16:21:58Z</time>
      </trkpt>
      <trkpt lat="47.65037" lon="-2.35806">
        <ele>84</ele>
        <time>2023-11-05T16:24:30Z</time>
      </trkpt>
      <trkpt lat="47.65102" lon="-2.36046">
        <ele>85</ele>
        <time>2023-11-05T16:28:23Z</time>
      </trkpt>
      <trkpt lat="47.65199" lon="-2.36092">
        <ele>78</ele>
        <time>2023-11-05T16:30:39Z</time>
      </trkpt>
      <trkpt lat="47.6546" lon="-2.36954">
        <ele>75</ele>
        <time>2023-11-05T16:44:48Z</time>
      </trkpt>
      <trkpt lat="47.65267" lon="-2.37138">
        <ele>84</ele>
        <time>2023-11-05T16:49:55Z</time>
      </trkpt>
      <trkpt lat="47.6523" lon="-2.37066">
        <ele>84</ele>
        <time>2023-11-05T16:51:16Z</time>
      </trkpt>
      <trkpt lat="47.65144" lon="-2.37138">
        <ele>88</ele>
        <time>2023-11-05T16:53:28Z</time>
      </trkpt>
      <trkpt lat="47.65071" lon="-2.36939">
        <ele>86</ele>
        <time>2023-11-05T16:56:51Z</time>
      </trkpt>
      <trkpt lat="47.65051" lon="-2.36822">
        <ele>87</ele>
        <time>2023-11-05T16:58:40Z</time>
      </trkpt>
      <trkpt lat="47.64831" lon="-2.36816">
        <ele>85</ele>
        <time>2023-11-05T17:03:34Z</time>
      </trkpt>
      <trkpt lat="47.64666" lon="-2.3676">
        <ele>84</ele>
        <time>2023-11-05T17:07:19Z</time>
      </trkpt>
      <trkpt lat="47.64415" lon="-2.36429">
        <ele>80</ele>
        <time>2023-11-05T17:14:47Z</time>
      </trkpt>
      <trkpt lat="47.64305" lon="-2.36398">
        <ele>78</ele>
        <time>2023-11-05T17:17:17Z</time>
      </trkpt>
      <trkpt lat="47.64291" lon="-2.36281">
        <ele>79</ele>
        <time>2023-11-05T17:19:04Z</time>
      </trkpt>
      <trkpt lat="47.63937" lon="-2.36275">
        <ele>78</ele>
        <time>2023-11-05T17:26:56Z</time>
      </trkpt>
      <trkpt lat="47.63899" lon="-2.36306">
        <ele>80</ele>
        <time>2023-11-05T17:27:54Z</time>
      </trkpt>
      <trkpt lat="47.63823" lon="-2.36071">
        <ele>75</ele>
        <time>2023-11-05T17:31:48Z</time>
      </trkpt>
      <trkpt lat="47.63828" lon="-2.35975">
        <ele>78</ele>
        <time>2023-11-05T17:33:15Z</time>
      </trkpt>
      <trkpt lat="47.63911" lon="-2.35931">
        <ele>78</ele>
        <time>2023-11-05T17:35:13Z</time>
      </trkpt>
      <trkpt lat="47.63964" lon="-2.35891">
        <ele>77</ele>
        <time>2023-11-05T17:36:32Z</time>
      </trkpt>
    </trkseg>
  </trk>
  <trk>
    <name><![CDATA[Limerzel_Templiers_22.8km-9686623]]></name>
    <extensions>
      <line xmlns="http://www.topografix.com/GPX/gpx_style/0/2">
        <color>00FF00</color>
        <width>4</width>
      </line>
    </extensions>
    <trkseg>
      <trkpt lat="47.64088" lon="-2.36275">
        <ele>76</ele>
        <time>2023-11-05T10:43:32Z</time>
      </trkpt>
      <trkpt lat="47.64084" lon="-2.36277">
        <ele>76</ele>
        <time>2023-11-05T10:43:38Z</time>
      </trkpt>
      <trkpt lat="47.64068" lon="-2.36272">
        <ele>76</ele>
        <time>2023-11-05T10:43:59Z</time>
      </trkpt>
      <trkpt lat="47.63999" lon="-2.36262">
        <ele>75</ele>
        <time>2023-11-05T10:45:32Z</time>
      </trkpt>
      <trkpt lat="47.63969" lon="-2.36261">
        <ele>77</ele>
        <time>2023-11-05T10:46:12Z</time>
      </trkpt>
      <trkpt lat="47.63954" lon="-2.36264">
        <ele>77</ele>
        <time>2023-11-05T10:46:32Z</time>
      </trkpt>
      <trkpt lat="47.63909" lon="-2.36281">
        <ele>79</ele>
        <time>2023-11-05T10:47:34Z</time>
      </trkpt>
      <trkpt lat="47.63901" lon="-2.36289">
        <ele>79</ele>
        <time>2023-11-05T10:47:47Z</time>
      </trkpt>
      <trkpt lat="47.63887" lon="-2.36335">
        <ele>80</ele>
        <time>2023-11-05T10:48:32Z</time>
      </trkpt>
      <trkpt lat="47.63868" lon="-2.36367">
        <ele>81</ele>
        <time>2023-11-05T10:49:11Z</time>
      </trkpt>
      <trkpt lat="47.63858" lon="-2.36376">
        <ele>81</ele>
        <time>2023-11-05T10:49:26Z</time>
      </trkpt>
      <trkpt lat="47.63822" lon="-2.36392">
        <ele>83</ele>
        <time>2023-11-05T10:50:17Z</time>
      </trkpt>
      <trkpt lat="47.63807" lon="-2.36396">
        <ele>83</ele>
        <time>2023-11-05T10:50:37Z</time>
      </trkpt>
      <trkpt lat="47.637" lon="-2.36389">
        <ele>85</ele>
        <time>2023-11-05T10:53:00Z</time>
      </trkpt>
      <trkpt lat="47.63692" lon="-2.36383">
        <ele>85</ele>
        <time>2023-11-05T10:53:12Z</time>
      </trkpt>
      <trkpt lat="47.63686" lon="-2.36361">
        <ele>84</ele>
        <time>2023-11-05T10:53:33Z</time>
      </trkpt>
      <trkpt lat="47.63681" lon="-2.36357">
        <ele>84</ele>
        <time>2023-11-05T10:53:41Z</time>
      </trkpt>
      <trkpt lat="47.63616" lon="-2.36342">
        <ele>83</ele>
        <time>2023-11-05T10:55:08Z</time>
      </trkpt>
      <trkpt lat="47.63586" lon="-2.36331">
        <ele>83</ele>
        <time>2023-11-05T10:55:50Z</time>
      </trkpt>
      <trkpt lat="47.63569" lon="-2.36333">
        <ele>82</ele>
        <time>2023-11-05T10:56:12Z</time>
      </trkpt>
      <trkpt lat="47.63547" lon="-2.36356">
        <ele>80</ele>
        <time>2023-11-05T10:56:48Z</time>
      </trkpt>
      <trkpt lat="47.63545" lon="-2.36363">
        <ele>80</ele>
        <time>2023-11-05T10:56:55Z</time>
      </trkpt>
      <trkpt lat="47.63521" lon="-2.36385">
        <ele>79</ele>
        <time>2023-11-05T10:57:33Z</time>
      </trkpt>
      <trkpt lat="47.63512" lon="-2.36413">
        <ele>80</ele>
        <time>2023-11-05T10:58:01Z</time>
      </trkpt>
      <trkpt lat="47.63498" lon="-2.36436">
        <ele>80</ele>
        <time>2023-11-05T10:58:29Z</time>
      </trkpt>
      <trkpt lat="47.63494" lon="-2.36452">
        <ele>80</ele>
        <time>2023-11-05T10:58:44Z</time>
      </trkpt>
      <trkpt lat="47.63494" lon="-2.36479">
        <ele>80</ele>
        <time>2023-11-05T10:59:08Z</time>
      </trkpt>
      <trkpt lat="47.63499" lon="-2.36516">
        <ele>81</ele>
        <time>2023-11-05T10:59:42Z</time>
      </trkpt>
      <trkpt lat="47.63501" lon="-2.36664">
        <ele>74</ele>
        <time>2023-11-05T11:01:55Z</time>
      </trkpt>
      <trkpt lat="47.63521" lon="-2.36784">
        <ele>71</ele>
        <time>2023-11-05T11:03:46Z</time>
      </trkpt>
      <trkpt lat="47.63532" lon="-2.36832">
        <ele>69</ele>
        <time>2023-11-05T11:04:32Z</time>
      </trkpt>
      <trkpt lat="47.63538" lon="-2.36849">
        <ele>69</ele>
        <time>2023-11-05T11:04:49Z</time>
      </trkpt>
      <trkpt lat="47.63538" lon="-2.36861">
        <ele>68</ele>
        <time>2023-11-05T11:05:00Z</time>
      </trkpt>
      <trkpt lat="47.63534" lon="-2.36865">
        <ele>67</ele>
        <time>2023-11-05T11:05:07Z</time>
      </trkpt>
      <trkpt lat="47.63539" lon="-2.36887">
        <ele>67</ele>
        <time>2023-11-05T11:05:27Z</time>
      </trkpt>
      <trkpt lat="47.63536" lon="-2.36959">
        <ele>63</ele>
        <time>2023-11-05T11:06:32Z</time>
      </trkpt>
      <trkpt lat="47.63532" lon="-2.36987">
        <ele>61</ele>
        <time>2023-11-05T11:06:58Z</time>
      </trkpt>
      <trkpt lat="47.63534" lon="-2.3701">
        <ele>61</ele>
        <time>2023-11-05T11:07:19Z</time>
      </trkpt>
      <trkpt lat="47.63538" lon="-2.37023">
        <ele>61</ele>
        <time>2023-11-05T11:07:32Z</time>
      </trkpt>
      <trkpt lat="47.63552" lon="-2.37046">
        <ele>62</ele>
        <time>2023-11-05T11:08:00Z</time>
      </trkpt>
      <trkpt lat="47.6356" lon="-2.37071">
        <ele>62</ele>
        <time>2023-11-05T11:08:24Z</time>
      </trkpt>
      <trkpt lat="47.63576" lon="-2.3709">
        <ele>64</ele>
        <time>2023-11-05T11:08:52Z</time>
      </trkpt>
      <trkpt lat="47.63589" lon="-2.37112">
        <ele>65</ele>
        <time>2023-11-05T11:09:18Z</time>
      </trkpt>
      <trkpt lat="47.63593" lon="-2.37113">
        <ele>66</ele>
        <time>2023-11-05T11:09:24Z</time>
      </trkpt>
      <trkpt lat="47.63599" lon="-2.37142">
        <ele>66</ele>
        <time>2023-11-05T11:09:51Z</time>
      </trkpt>
      <trkpt lat="47.63617" lon="-2.3717">
        <ele>69</ele>
        <time>2023-11-05T11:10:26Z</time>
      </trkpt>
      <trkpt lat="47.63624" lon="-2.37189">
        <ele>70</ele>
        <time>2023-11-05T11:10:45Z</time>
      </trkpt>
      <trkpt lat="47.63663" lon="-2.37264">
        <ele>75</ele>
        <time>2023-11-05T11:12:10Z</time>
      </trkpt>
      <trkpt lat="47.6367" lon="-2.37273">
        <ele>75</ele>
        <time>2023-11-05T11:12:23Z</time>
      </trkpt>
      <trkpt lat="47.63675" lon="-2.37286">
        <ele>75</ele>
        <time>2023-11-05T11:12:36Z</time>
      </trkpt>
      <trkpt lat="47.63684" lon="-2.37297">
        <ele>76</ele>
        <time>2023-11-05T11:12:52Z</time>
      </trkpt>
      <trkpt lat="47.63709" lon="-2.37318">
        <ele>78</ele>
        <time>2023-11-05T11:13:30Z</time>
      </trkpt>
      <trkpt lat="47.63725" lon="-2.3734">
        <ele>80</ele>
        <time>2023-11-05T11:13:59Z</time>
      </trkpt>
      <trkpt lat="47.63748" lon="-2.37361">
        <ele>82</ele>
        <time>2023-11-05T11:14:35Z</time>
      </trkpt>
      <trkpt lat="47.63767" lon="-2.37403">
        <ele>83</ele>
        <time>2023-11-05T11:15:21Z</time>
      </trkpt>
      <trkpt lat="47.63792" lon="-2.37481">
        <ele>81</ele>
        <time>2023-11-05T11:16:38Z</time>
      </trkpt>
      <trkpt lat="47.63807" lon="-2.37539">
        <ele>80</ele>
        <time>2023-11-05T11:17:34Z</time>
      </trkpt>
      <trkpt lat="47.63837" lon="-2.37623">
        <ele>81</ele>
        <time>2023-11-05T11:19:00Z</time>
      </trkpt>
      <trkpt lat="47.63848" lon="-2.37636">
        <ele>81</ele>
        <time>2023-11-05T11:19:18Z</time>
      </trkpt>
      <trkpt lat="47.63851" lon="-2.37645">
        <ele>81</ele>
        <time>2023-11-05T11:19:27Z</time>
      </trkpt>
      <trkpt lat="47.63856" lon="-2.37693">
        <ele>82</ele>
        <time>2023-11-05T11:20:11Z</time>
      </trkpt>
      <trkpt lat="47.6386" lon="-2.37704">
        <ele>82</ele>
        <time>2023-11-05T11:20:22Z</time>
      </trkpt>
      <trkpt lat="47.6385" lon="-2.37697">
        <ele>81</ele>
        <time>2023-11-05T11:20:37Z</time>
      </trkpt>
      <trkpt lat="47.63854" lon="-2.37708">
        <ele>82</ele>
        <time>2023-11-05T11:20:48Z</time>
      </trkpt>
      <trkpt lat="47.63854" lon="-2.37736">
        <ele>82</ele>
        <time>2023-11-05T11:21:14Z</time>
      </trkpt>
      <trkpt lat="47.6385" lon="-2.37768">
        <ele>82</ele>
        <time>2023-11-05T11:21:43Z</time>
      </trkpt>
      <trkpt lat="47.63848" lon="-2.37826">
        <ele>81</ele>
        <time>2023-11-05T11:22:35Z</time>
      </trkpt>
      <trkpt lat="47.63852" lon="-2.37861">
        <ele>81</ele>
        <time>2023-11-05T11:23:07Z</time>
      </trkpt>
      <trkpt lat="47.63858" lon="-2.37887">
        <ele>82</ele>
        <time>2023-11-05T11:23:32Z</time>
      </trkpt>
      <trkpt lat="47.63871" lon="-2.37925">
        <ele>83</ele>
        <time>2023-11-05T11:24:10Z</time>
      </trkpt>
      <trkpt lat="47.63916" lon="-2.38025">
        <ele>84</ele>
        <time>2023-11-05T11:25:58Z</time>
      </trkpt>
      <trkpt lat="47.63925" lon="-2.38034">
        <ele>83</ele>
        <time>2023-11-05T11:26:13Z</time>
      </trkpt>
      <trkpt lat="47.63942" lon="-2.38033">
        <ele>83</ele>
        <time>2023-11-05T11:26:35Z</time>
      </trkpt>
      <trkpt lat="47.63947" lon="-2.38039">
        <ele>83</ele>
        <time>2023-11-05T11:26:44Z</time>
      </trkpt>
      <trkpt lat="47.6397" lon="-2.38115">
        <ele>82</ele>
        <time>2023-11-05T11:27:59Z</time>
      </trkpt>
      <trkpt lat="47.63985" lon="-2.38192">
        <ele>81</ele>
        <time>2023-11-05T11:29:11Z</time>
      </trkpt>
      <trkpt lat="47.63993" lon="-2.38213">
        <ele>81</ele>
        <time>2023-11-05T11:29:33Z</time>
      </trkpt>
      <trkpt lat="47.63996" lon="-2.38233">
        <ele>81</ele>
        <time>2023-11-05T11:29:51Z</time>
      </trkpt>
      <trkpt lat="47.64007" lon="-2.3827">
        <ele>81</ele>
        <time>2023-11-05T11:30:27Z</time>
      </trkpt>
      <trkpt lat="47.64007" lon="-2.38276">
        <ele>81</ele>
        <time>2023-11-05T11:30:33Z</time>
      </trkpt>
      <trkpt lat="47.64002" lon="-2.38284">
        <ele>80</ele>
        <time>2023-11-05T11:30:43Z</time>
      </trkpt>
      <trkpt lat="47.63985" lon="-2.38298">
        <ele>78</ele>
        <time>2023-11-05T11:31:08Z</time>
      </trkpt>
      <trkpt lat="47.63977" lon="-2.38299">
        <ele>78</ele>
        <time>2023-11-05T11:31:19Z</time>
      </trkpt>
      <trkpt lat="47.63974" lon="-2.38296">
        <ele>77</ele>
        <time>2023-11-05T11:31:24Z</time>
      </trkpt>
      <trkpt lat="47.63968" lon="-2.38295">
        <ele>77</ele>
        <time>2023-11-05T11:31:32Z</time>
      </trkpt>
      <trkpt lat="47.63956" lon="-2.38304">
        <ele>75</ele>
        <time>2023-11-05T11:31:50Z</time>
      </trkpt>
      <trkpt lat="47.63944" lon="-2.38304">
        <ele>74</ele>
        <time>2023-11-05T11:32:06Z</time>
      </trkpt>
      <trkpt lat="47.63905" lon="-2.38286">
        <ele>70</ele>
        <time>2023-11-05T11:33:01Z</time>
      </trkpt>
      <trkpt lat="47.63897" lon="-2.38279">
        <ele>70</ele>
        <time>2023-11-05T11:33:13Z</time>
      </trkpt>
      <trkpt lat="47.63893" lon="-2.38279">
        <ele>69</ele>
        <time>2023-11-05T11:33:18Z</time>
      </trkpt>
      <trkpt lat="47.6388" lon="-2.38287">
        <ele>66</ele>
        <time>2023-11-05T11:33:37Z</time>
      </trkpt>
      <trkpt lat="47.63879" lon="-2.38293">
        <ele>65</ele>
        <time>2023-11-05T11:33:43Z</time>
      </trkpt>
      <trkpt lat="47.63901" lon="-2.38329">
        <ele>66</ele>
        <time>2023-11-05T11:34:26Z</time>
      </trkpt>
      <trkpt lat="47.63904" lon="-2.3834">
        <ele>66</ele>
        <time>2023-11-05T11:34:37Z</time>
      </trkpt>
      <trkpt lat="47.63904" lon="-2.3835">
        <ele>66</ele>
        <time>2023-11-05T11:34:46Z</time>
      </trkpt>
      <trkpt lat="47.63889" lon="-2.38394">
        <ele>63</ele>
        <time>2023-11-05T11:35:30Z</time>
      </trkpt>
      <trkpt lat="47.63901" lon="-2.38449">
        <ele>65</ele>
        <time>2023-11-05T11:36:22Z</time>
      </trkpt>
      <trkpt lat="47.63906" lon="-2.38512">
        <ele>67</ele>
        <time>2023-11-05T11:37:19Z</time>
      </trkpt>
      <trkpt lat="47.63904" lon="-2.38556">
        <ele>68</ele>
        <time>2023-11-05T11:37:59Z</time>
      </trkpt>
      <trkpt lat="47.63911" lon="-2.38598">
        <ele>70</ele>
        <time>2023-11-05T11:38:38Z</time>
      </trkpt>
      <trkpt lat="47.6391" lon="-2.38609">
        <ele>69</ele>
        <time>2023-11-05T11:38:48Z</time>
      </trkpt>
      <trkpt lat="47.63914" lon="-2.38642">
        <ele>69</ele>
        <time>2023-11-05T11:39:18Z</time>
      </trkpt>
      <trkpt lat="47.63937" lon="-2.38737">
        <ele>71</ele>
        <time>2023-11-05T11:40:49Z</time>
      </trkpt>
      <trkpt lat="47.63967" lon="-2.38819">
        <ele>76</ele>
        <time>2023-11-05T11:42:13Z</time>
      </trkpt>
      <trkpt lat="47.63965" lon="-2.3884">
        <ele>76</ele>
        <time>2023-11-05T11:42:32Z</time>
      </trkpt>
      <trkpt lat="47.63955" lon="-2.38885">
        <ele>75</ele>
        <time>2023-11-05T11:43:14Z</time>
      </trkpt>
      <trkpt lat="47.6394" lon="-2.3892">
        <ele>74</ele>
        <time>2023-11-05T11:43:52Z</time>
      </trkpt>
      <trkpt lat="47.63924" lon="-2.3898">
        <ele>71</ele>
        <time>2023-11-05T11:44:50Z</time>
      </trkpt>
      <trkpt lat="47.6391" lon="-2.39048">
        <ele>70</ele>
        <time>2023-11-05T11:45:54Z</time>
      </trkpt>
      <trkpt lat="47.63905" lon="-2.39086">
        <ele>69</ele>
        <time>2023-11-05T11:46:28Z</time>
      </trkpt>
      <trkpt lat="47.63896" lon="-2.3923">
        <ele>61</ele>
        <time>2023-11-05T11:48:38Z</time>
      </trkpt>
      <trkpt lat="47.6389" lon="-2.39287">
        <ele>58</ele>
        <time>2023-11-05T11:49:30Z</time>
      </trkpt>
      <trkpt lat="47.63868" lon="-2.39358">
        <ele>54</ele>
        <time>2023-11-05T11:50:41Z</time>
      </trkpt>
      <trkpt lat="47.6384" lon="-2.39437">
        <ele>49</ele>
        <time>2023-11-05T11:52:01Z</time>
      </trkpt>
      <trkpt lat="47.63827" lon="-2.39467">
        <ele>47</ele>
        <time>2023-11-05T11:52:33Z</time>
      </trkpt>
      <trkpt lat="47.6381" lon="-2.3948">
        <ele>46</ele>
        <time>2023-11-05T11:52:58Z</time>
      </trkpt>
      <trkpt lat="47.63799" lon="-2.39482">
        <ele>46</ele>
        <time>2023-11-05T11:53:13Z</time>
      </trkpt>
      <trkpt lat="47.63794" lon="-2.39473">
        <ele>46</ele>
        <time>2023-11-05T11:53:24Z</time>
      </trkpt>
      <trkpt lat="47.6379" lon="-2.39473">
        <ele>46</ele>
        <time>2023-11-05T11:53:29Z</time>
      </trkpt>
      <trkpt lat="47.6378" lon="-2.39464">
        <ele>46</ele>
        <time>2023-11-05T11:53:45Z</time>
      </trkpt>
      <trkpt lat="47.63777" lon="-2.39453">
        <ele>47</ele>
        <time>2023-11-05T11:53:55Z</time>
      </trkpt>
      <trkpt lat="47.63769" lon="-2.39442">
        <ele>47</ele>
        <time>2023-11-05T11:54:10Z</time>
      </trkpt>
      <trkpt lat="47.63751" lon="-2.39434">
        <ele>47</ele>
        <time>2023-11-05T11:54:35Z</time>
      </trkpt>
      <trkpt lat="47.63733" lon="-2.3942">
        <ele>47</ele>
        <time>2023-11-05T11:55:02Z</time>
      </trkpt>
      <trkpt lat="47.63722" lon="-2.39401">
        <ele>48</ele>
        <time>2023-11-05T11:55:25Z</time>
      </trkpt>
      <trkpt lat="47.63712" lon="-2.39317">
        <ele>50</ele>
        <time>2023-11-05T11:56:41Z</time>
      </trkpt>
      <trkpt lat="47.63697" lon="-2.3928">
        <ele>50</ele>
        <time>2023-11-05T11:57:20Z</time>
      </trkpt>
      <trkpt lat="47.63685" lon="-2.3923">
        <ele>50</ele>
        <time>2023-11-05T11:58:08Z</time>
      </trkpt>
      <trkpt lat="47.63672" lon="-2.39205">
        <ele>50</ele>
        <time>2023-11-05T11:58:36Z</time>
      </trkpt>
      <trkpt lat="47.63662" lon="-2.3919">
        <ele>50</ele>
        <time>2023-11-05T11:58:55Z</time>
      </trkpt>
      <trkpt lat="47.63644" lon="-2.39178">
        <ele>50</ele>
        <time>2023-11-05T11:59:22Z</time>
      </trkpt>
      <trkpt lat="47.63637" lon="-2.39177">
        <ele>50</ele>
        <time>2023-11-05T11:59:31Z</time>
      </trkpt>
      <trkpt lat="47.6363" lon="-2.39182">
        <ele>50</ele>
        <time>2023-11-05T11:59:41Z</time>
      </trkpt>
      <trkpt lat="47.63627" lon="-2.39181">
        <ele>50</ele>
        <time>2023-11-05T11:59:45Z</time>
      </trkpt>
      <trkpt lat="47.63604" lon="-2.39163">
        <ele>50</ele>
        <time>2023-11-05T12:00:20Z</time>
      </trkpt>
      <trkpt lat="47.63583" lon="-2.39152">
        <ele>50</ele>
        <time>2023-11-05T12:00:50Z</time>
      </trkpt>
      <trkpt lat="47.63568" lon="-2.3913">
        <ele>52</ele>
        <time>2023-11-05T12:01:18Z</time>
      </trkpt>
      <trkpt lat="47.6356" lon="-2.3911">
        <ele>52</ele>
        <time>2023-11-05T12:01:39Z</time>
      </trkpt>
      <trkpt lat="47.63546" lon="-2.39038">
        <ele>52</ele>
        <time>2023-11-05T12:02:46Z</time>
      </trkpt>
      <trkpt lat="47.63543" lon="-2.39">
        <ele>51</ele>
        <time>2023-11-05T12:03:21Z</time>
      </trkpt>
      <trkpt lat="47.63529" lon="-2.3895">
        <ele>49</ele>
        <time>2023-11-05T12:04:09Z</time>
      </trkpt>
      <trkpt lat="47.63526" lon="-2.38924">
        <ele>47</ele>
        <time>2023-11-05T12:04:33Z</time>
      </trkpt>
      <trkpt lat="47.63506" lon="-2.38845">
        <ele>45</ele>
        <time>2023-11-05T12:05:49Z</time>
      </trkpt>
      <trkpt lat="47.63498" lon="-2.38833">
        <ele>44</ele>
        <time>2023-11-05T12:06:04Z</time>
      </trkpt>
      <trkpt lat="47.6349" lon="-2.38804">
        <ele>46</ele>
        <time>2023-11-05T12:06:32Z</time>
      </trkpt>
      <trkpt lat="47.63482" lon="-2.38785">
        <ele>47</ele>
        <time>2023-11-05T12:06:52Z</time>
      </trkpt>
      <trkpt lat="47.63474" lon="-2.38774">
        <ele>46</ele>
        <time>2023-11-05T12:07:07Z</time>
      </trkpt>
      <trkpt lat="47.63462" lon="-2.38764">
        <ele>45</ele>
        <time>2023-11-05T12:07:25Z</time>
      </trkpt>
      <trkpt lat="47.63445" lon="-2.38757">
        <ele>43</ele>
        <time>2023-11-05T12:07:49Z</time>
      </trkpt>
      <trkpt lat="47.63429" lon="-2.38747">
        <ele>41</ele>
        <time>2023-11-05T12:08:12Z</time>
      </trkpt>
      <trkpt lat="47.63423" lon="-2.38736">
        <ele>40</ele>
        <time>2023-11-05T12:08:25Z</time>
      </trkpt>
      <trkpt lat="47.63426" lon="-2.38714">
        <ele>40</ele>
        <time>2023-11-05T12:08:45Z</time>
      </trkpt>
      <trkpt lat="47.63448" lon="-2.38621">
        <ele>46</ele>
        <time>2023-11-05T12:10:14Z</time>
      </trkpt>
      <trkpt lat="47.63448" lon="-2.38607">
        <ele>46</ele>
        <time>2023-11-05T12:10:26Z</time>
      </trkpt>
      <trkpt lat="47.63444" lon="-2.38594">
        <ele>46</ele>
        <time>2023-11-05T12:10:39Z</time>
      </trkpt>
      <trkpt lat="47.63452" lon="-2.38542">
        <ele>47</ele>
        <time>2023-11-05T12:11:27Z</time>
      </trkpt>
      <trkpt lat="47.63447" lon="-2.3851">
        <ele>46</ele>
        <time>2023-11-05T12:11:57Z</time>
      </trkpt>
      <trkpt lat="47.63448" lon="-2.38452">
        <ele>46</ele>
        <time>2023-11-05T12:12:49Z</time>
      </trkpt>
      <trkpt lat="47.63439" lon="-2.38431">
        <ele>45</ele>
        <time>2023-11-05T12:13:11Z</time>
      </trkpt>
      <trkpt lat="47.63427" lon="-2.38413">
        <ele>45</ele>
        <time>2023-11-05T12:13:34Z</time>
      </trkpt>
      <trkpt lat="47.63427" lon="-2.38406">
        <ele>45</ele>
        <time>2023-11-05T12:13:40Z</time>
      </trkpt>
      <trkpt lat="47.63417" lon="-2.3839">
        <ele>45</ele>
        <time>2023-11-05T12:14:00Z</time>
      </trkpt>
      <trkpt lat="47.63404" lon="-2.38349">
        <ele>43</ele>
        <time>2023-11-05T12:14:41Z</time>
      </trkpt>
      <trkpt lat="47.63395" lon="-2.3834">
        <ele>42</ele>
        <time>2023-11-05T12:14:55Z</time>
      </trkpt>
      <trkpt lat="47.63388" lon="-2.38343">
        <ele>41</ele>
        <time>2023-11-05T12:15:05Z</time>
      </trkpt>
      <trkpt lat="47.63371" lon="-2.3837">
        <ele>40</ele>
        <time>2023-11-05T12:15:38Z</time>
      </trkpt>
      <trkpt lat="47.63356" lon="-2.38366">
        <ele>38</ele>
        <time>2023-11-05T12:15:58Z</time>
      </trkpt>
      <trkpt lat="47.63338" lon="-2.38368">
        <ele>36</ele>
        <time>2023-11-05T12:16:22Z</time>
      </trkpt>
      <trkpt lat="47.63328" lon="-2.38365">
        <ele>36</ele>
        <time>2023-11-05T12:16:36Z</time>
      </trkpt>
      <trkpt lat="47.63324" lon="-2.38355">
        <ele>36</ele>
        <time>2023-11-05T12:16:47Z</time>
      </trkpt>
      <trkpt lat="47.63316" lon="-2.38358">
        <ele>36</ele>
        <time>2023-11-05T12:16:58Z</time>
      </trkpt>
      <trkpt lat="47.63312" lon="-2.38356">
        <ele>37</ele>
        <time>2023-11-05T12:17:03Z</time>
      </trkpt>
      <trkpt lat="47.633" lon="-2.38342">
        <ele>37</ele>
        <time>2023-11-05T12:17:24Z</time>
      </trkpt>
      <trkpt lat="47.63271" lon="-2.38324">
        <ele>39</ele>
        <time>2023-11-05T12:18:05Z</time>
      </trkpt>
      <trkpt lat="47.63266" lon="-2.38322">
        <ele>39</ele>
        <time>2023-11-05T12:18:12Z</time>
      </trkpt>
      <trkpt lat="47.63245" lon="-2.38324">
        <ele>42</ele>
        <time>2023-11-05T12:18:40Z</time>
      </trkpt>
      <trkpt lat="47.63237" lon="-2.38313">
        <ele>43</ele>
        <time>2023-11-05T12:18:55Z</time>
      </trkpt>
      <trkpt lat="47.63224" lon="-2.38279">
        <ele>43</ele>
        <time>2023-11-05T12:19:30Z</time>
      </trkpt>
      <trkpt lat="47.63186" lon="-2.3825">
        <ele>49</ele>
        <time>2023-11-05T12:20:27Z</time>
      </trkpt>
      <trkpt lat="47.6318" lon="-2.38243">
        <ele>50</ele>
        <time>2023-11-05T12:20:37Z</time>
      </trkpt>
      <trkpt lat="47.63177" lon="-2.38228">
        <ele>49</ele>
        <time>2023-11-05T12:20:51Z</time>
      </trkpt>
      <trkpt lat="47.63167" lon="-2.38216">
        <ele>50</ele>
        <time>2023-11-05T12:21:09Z</time>
      </trkpt>
      <trkpt lat="47.63156" lon="-2.38209">
        <ele>51</ele>
        <time>2023-11-05T12:21:25Z</time>
      </trkpt>
      <trkpt lat="47.63148" lon="-2.38207">
        <ele>52</ele>
        <time>2023-11-05T12:21:35Z</time>
      </trkpt>
      <trkpt lat="47.63136" lon="-2.38209">
        <ele>55</ele>
        <time>2023-11-05T12:21:52Z</time>
      </trkpt>
      <trkpt lat="47.63124" lon="-2.38218">
        <ele>57</ele>
        <time>2023-11-05T12:22:09Z</time>
      </trkpt>
      <trkpt lat="47.63119" lon="-2.38247">
        <ele>61</ele>
        <time>2023-11-05T12:22:36Z</time>
      </trkpt>
      <trkpt lat="47.63116" lon="-2.38252">
        <ele>62</ele>
        <time>2023-11-05T12:22:42Z</time>
      </trkpt>
      <trkpt lat="47.63081" lon="-2.3825">
        <ele>67</ele>
        <time>2023-11-05T12:23:29Z</time>
      </trkpt>
      <trkpt lat="47.63071" lon="-2.38253">
        <ele>69</ele>
        <time>2023-11-05T12:23:43Z</time>
      </trkpt>
      <trkpt lat="47.63053" lon="-2.38247">
        <ele>71</ele>
        <time>2023-11-05T12:24:07Z</time>
      </trkpt>
      <trkpt lat="47.63038" lon="-2.3825">
        <ele>72</ele>
        <time>2023-11-05T12:24:28Z</time>
      </trkpt>
      <trkpt lat="47.63028" lon="-2.38256">
        <ele>74</ele>
        <time>2023-11-05T12:24:42Z</time>
      </trkpt>
      <trkpt lat="47.63023" lon="-2.38283">
        <ele>74</ele>
        <time>2023-11-05T12:25:07Z</time>
      </trkpt>
      <trkpt lat="47.63024" lon="-2.38293">
        <ele>74</ele>
        <time>2023-11-05T12:25:16Z</time>
      </trkpt>
      <trkpt lat="47.63038" lon="-2.38337">
        <ele>73</ele>
        <time>2023-11-05T12:26:00Z</time>
      </trkpt>
      <trkpt lat="47.63049" lon="-2.38361">
        <ele>72</ele>
        <time>2023-11-05T12:26:26Z</time>
      </trkpt>
      <trkpt lat="47.63057" lon="-2.38398">
        <ele>72</ele>
        <time>2023-11-05T12:27:01Z</time>
      </trkpt>
      <trkpt lat="47.63056" lon="-2.38413">
        <ele>72</ele>
        <time>2023-11-05T12:27:15Z</time>
      </trkpt>
      <trkpt lat="47.63049" lon="-2.3844">
        <ele>72</ele>
        <time>2023-11-05T12:27:41Z</time>
      </trkpt>
      <trkpt lat="47.63038" lon="-2.38472">
        <ele>73</ele>
        <time>2023-11-05T12:28:13Z</time>
      </trkpt>
      <trkpt lat="47.63017" lon="-2.38501">
        <ele>74</ele>
        <time>2023-11-05T12:28:51Z</time>
      </trkpt>
      <trkpt lat="47.63002" lon="-2.3853">
        <ele>75</ele>
        <time>2023-11-05T12:29:24Z</time>
      </trkpt>
      <trkpt lat="47.62989" lon="-2.38538">
        <ele>75</ele>
        <time>2023-11-05T12:29:43Z</time>
      </trkpt>
      <trkpt lat="47.62979" lon="-2.38538">
        <ele>75</ele>
        <time>2023-11-05T12:29:56Z</time>
      </trkpt>
      <trkpt lat="47.62969" lon="-2.38543">
        <ele>75</ele>
        <time>2023-11-05T12:30:10Z</time>
      </trkpt>
      <trkpt lat="47.62958" lon="-2.38551">
        <ele>76</ele>
        <time>2023-11-05T12:30:27Z</time>
      </trkpt>
      <trkpt lat="47.62945" lon="-2.38565">
        <ele>76</ele>
        <time>2023-11-05T12:30:48Z</time>
      </trkpt>
      <trkpt lat="47.62933" lon="-2.38606">
        <ele>76</ele>
        <time>2023-11-05T12:31:28Z</time>
      </trkpt>
      <trkpt lat="47.62933" lon="-2.38645">
        <ele>76</ele>
        <time>2023-11-05T12:32:03Z</time>
      </trkpt>
      <trkpt lat="47.62923" lon="-2.38749">
        <ele>73</ele>
        <time>2023-11-05T12:33:38Z</time>
      </trkpt>
      <trkpt lat="47.62914" lon="-2.38795">
        <ele>71</ele>
        <time>2023-11-05T12:34:21Z</time>
      </trkpt>
      <trkpt lat="47.62914" lon="-2.3883">
        <ele>70</ele>
        <time>2023-11-05T12:34:52Z</time>
      </trkpt>
      <trkpt lat="47.6292" lon="-2.38903">
        <ele>70</ele>
        <time>2023-11-05T12:35:59Z</time>
      </trkpt>
      <trkpt lat="47.62925" lon="-2.38913">
        <ele>70</ele>
        <time>2023-11-05T12:36:10Z</time>
      </trkpt>
      <trkpt lat="47.62929" lon="-2.3894">
        <ele>70</ele>
        <time>2023-11-05T12:36:35Z</time>
      </trkpt>
      <trkpt lat="47.62941" lon="-2.38972">
        <ele>69</ele>
        <time>2023-11-05T12:37:08Z</time>
      </trkpt>
      <trkpt lat="47.62951" lon="-2.39009">
        <ele>69</ele>
        <time>2023-11-05T12:37:43Z</time>
      </trkpt>
      <trkpt lat="47.62956" lon="-2.39038">
        <ele>69</ele>
        <time>2023-11-05T12:38:10Z</time>
      </trkpt>
      <trkpt lat="47.62955" lon="-2.3905">
        <ele>69</ele>
        <time>2023-11-05T12:38:21Z</time>
      </trkpt>
      <trkpt lat="47.62918" lon="-2.39079">
        <ele>71</ele>
        <time>2023-11-05T12:39:17Z</time>
      </trkpt>
      <trkpt lat="47.62878" lon="-2.39099">
        <ele>73</ele>
        <time>2023-11-05T12:40:13Z</time>
      </trkpt>
      <trkpt lat="47.62862" lon="-2.39122">
        <ele>74</ele>
        <time>2023-11-05T12:40:43Z</time>
      </trkpt>
      <trkpt lat="47.62855" lon="-2.39127">
        <ele>75</ele>
        <time>2023-11-05T12:40:53Z</time>
      </trkpt>
      <trkpt lat="47.62847" lon="-2.39128">
        <ele>75</ele>
        <time>2023-11-05T12:41:04Z</time>
      </trkpt>
      <trkpt lat="47.62843" lon="-2.39126">
        <ele>75</ele>
        <time>2023-11-05T12:41:10Z</time>
      </trkpt>
      <trkpt lat="47.62831" lon="-2.39115">
        <ele>76</ele>
        <time>2023-11-05T12:41:29Z</time>
      </trkpt>
      <trkpt lat="47.62816" lon="-2.39107">
        <ele>78</ele>
        <time>2023-11-05T12:41:50Z</time>
      </trkpt>
      <trkpt lat="47.62801" lon="-2.39121">
        <ele>81</ele>
        <time>2023-11-05T12:42:14Z</time>
      </trkpt>
      <trkpt lat="47.62784" lon="-2.39123">
        <ele>83</ele>
        <time>2023-11-05T12:42:36Z</time>
      </trkpt>
      <trkpt lat="47.62778" lon="-2.39129">
        <ele>85</ele>
        <time>2023-11-05T12:42:46Z</time>
      </trkpt>
      <trkpt lat="47.6276" lon="-2.39137">
        <ele>88</ele>
        <time>2023-11-05T12:43:11Z</time>
      </trkpt>
      <trkpt lat="47.6274" lon="-2.39139">
        <ele>90</ele>
        <time>2023-11-05T12:43:38Z</time>
      </trkpt>
      <trkpt lat="47.62694" lon="-2.39169">
        <ele>95</ele>
        <time>2023-11-05T12:44:45Z</time>
      </trkpt>
      <trkpt lat="47.6268" lon="-2.39169">
        <ele>96</ele>
        <time>2023-11-05T12:45:03Z</time>
      </trkpt>
      <trkpt lat="47.62656" lon="-2.39183">
        <ele>96</ele>
        <time>2023-11-05T12:45:38Z</time>
      </trkpt>
      <trkpt lat="47.6265" lon="-2.39183">
        <ele>96</ele>
        <time>2023-11-05T12:45:46Z</time>
      </trkpt>
      <trkpt lat="47.62642" lon="-2.39177">
        <ele>95</ele>
        <time>2023-11-05T12:45:58Z</time>
      </trkpt>
      <trkpt lat="47.62627" lon="-2.39155">
        <ele>95</ele>
        <time>2023-11-05T12:46:26Z</time>
      </trkpt>
      <trkpt lat="47.62621" lon="-2.39139">
        <ele>95</ele>
        <time>2023-11-05T12:46:42Z</time>
      </trkpt>
      <trkpt lat="47.62602" lon="-2.39105">
        <ele>94</ele>
        <time>2023-11-05T12:47:22Z</time>
      </trkpt>
      <trkpt lat="47.6257" lon="-2.39065">
        <ele>93</ele>
        <time>2023-11-05T12:48:18Z</time>
      </trkpt>
      <trkpt lat="47.62571" lon="-2.39059">
        <ele>94</ele>
        <time>2023-11-05T12:48:24Z</time>
      </trkpt>
      <trkpt lat="47.62577" lon="-2.39051">
        <ele>94</ele>
        <time>2023-11-05T12:48:34Z</time>
      </trkpt>
      <trkpt lat="47.62581" lon="-2.39028">
        <ele>96</ele>
        <time>2023-11-05T12:48:56Z</time>
      </trkpt>
      <trkpt lat="47.62581" lon="-2.39016">
        <ele>96</ele>
        <time>2023-11-05T12:49:07Z</time>
      </trkpt>
      <trkpt lat="47.62574" lon="-2.38987">
        <ele>97</ele>
        <time>2023-11-05T12:49:34Z</time>
      </trkpt>
      <trkpt lat="47.62584" lon="-2.38975">
        <ele>98</ele>
        <time>2023-11-05T12:49:51Z</time>
      </trkpt>
      <trkpt lat="47.62584" lon="-2.38962">
        <ele>99</ele>
        <time>2023-11-05T12:50:03Z</time>
      </trkpt>
      <trkpt lat="47.62575" lon="-2.38955">
        <ele>99</ele>
        <time>2023-11-05T12:50:17Z</time>
      </trkpt>
      <trkpt lat="47.62564" lon="-2.38956">
        <ele>97</ele>
        <time>2023-11-05T12:50:31Z</time>
      </trkpt>
      <trkpt lat="47.62553" lon="-2.38946">
        <ele>97</ele>
        <time>2023-11-05T12:50:49Z</time>
      </trkpt>
      <trkpt lat="47.62538" lon="-2.38943">
        <ele>95</ele>
        <time>2023-11-05T12:51:09Z</time>
      </trkpt>
      <trkpt lat="47.62497" lon="-2.38966">
        <ele>89</ele>
        <time>2023-11-05T12:52:07Z</time>
      </trkpt>
      <trkpt lat="47.62484" lon="-2.38966">
        <ele>87</ele>
        <time>2023-11-05T12:52:25Z</time>
      </trkpt>
      <trkpt lat="47.62482" lon="-2.38962">
        <ele>87</ele>
        <time>2023-11-05T12:52:29Z</time>
      </trkpt>
      <trkpt lat="47.62476" lon="-2.38924">
        <ele>88</ele>
        <time>2023-11-05T12:53:04Z</time>
      </trkpt>
      <trkpt lat="47.62467" lon="-2.38895">
        <ele>87</ele>
        <time>2023-11-05T12:53:33Z</time>
      </trkpt>
      <trkpt lat="47.62466" lon="-2.38831">
        <ele>87</ele>
        <time>2023-11-05T12:54:30Z</time>
      </trkpt>
      <trkpt lat="47.62461" lon="-2.38767">
        <ele>85</ele>
        <time>2023-11-05T12:55:28Z</time>
      </trkpt>
      <trkpt lat="47.62439" lon="-2.38685">
        <ele>81</ele>
        <time>2023-11-05T12:56:48Z</time>
      </trkpt>
      <trkpt lat="47.62426" lon="-2.38615">
        <ele>77</ele>
        <time>2023-11-05T12:57:53Z</time>
      </trkpt>
      <trkpt lat="47.62428" lon="-2.38597">
        <ele>77</ele>
        <time>2023-11-05T12:58:10Z</time>
      </trkpt>
      <trkpt lat="47.62438" lon="-2.38573">
        <ele>75</ele>
        <time>2023-11-05T12:58:35Z</time>
      </trkpt>
      <trkpt lat="47.62415" lon="-2.38527">
        <ele>72</ele>
        <time>2023-11-05T12:59:26Z</time>
      </trkpt>
      <trkpt lat="47.62402" lon="-2.38507">
        <ele>72</ele>
        <time>2023-11-05T12:59:51Z</time>
      </trkpt>
      <trkpt lat="47.62386" lon="-2.3842">
        <ele>68</ele>
        <time>2023-11-05T13:01:13Z</time>
      </trkpt>
      <trkpt lat="47.62356" lon="-2.38307">
        <ele>66</ele>
        <time>2023-11-05T13:03:02Z</time>
      </trkpt>
      <trkpt lat="47.62353" lon="-2.38304">
        <ele>66</ele>
        <time>2023-11-05T13:03:07Z</time>
      </trkpt>
      <trkpt lat="47.62342" lon="-2.38301">
        <ele>67</ele>
        <time>2023-11-05T13:03:21Z</time>
      </trkpt>
      <trkpt lat="47.62321" lon="-2.38282">
        <ele>69</ele>
        <time>2023-11-05T13:03:54Z</time>
      </trkpt>
      <trkpt lat="47.62303" lon="-2.38281">
        <ele>71</ele>
        <time>2023-11-05T13:04:18Z</time>
      </trkpt>
      <trkpt lat="47.62296" lon="-2.38283">
        <ele>73</ele>
        <time>2023-11-05T13:04:28Z</time>
      </trkpt>
      <trkpt lat="47.62277" lon="-2.38295">
        <ele>77</ele>
        <time>2023-11-05T13:04:55Z</time>
      </trkpt>
      <trkpt lat="47.62269" lon="-2.38296">
        <ele>78</ele>
        <time>2023-11-05T13:05:06Z</time>
      </trkpt>
      <trkpt lat="47.62266" lon="-2.38294">
        <ele>78</ele>
        <time>2023-11-05T13:05:11Z</time>
      </trkpt>
      <trkpt lat="47.62263" lon="-2.38284">
        <ele>78</ele>
        <time>2023-11-05T13:05:20Z</time>
      </trkpt>
      <trkpt lat="47.62266" lon="-2.3826">
        <ele>76</ele>
        <time>2023-11-05T13:05:42Z</time>
      </trkpt>
      <trkpt lat="47.62265" lon="-2.3825">
        <ele>75</ele>
        <time>2023-11-05T13:05:51Z</time>
      </trkpt>
      <trkpt lat="47.62262" lon="-2.38246">
        <ele>76</ele>
        <time>2023-11-05T13:05:57Z</time>
      </trkpt>
      <trkpt lat="47.62259" lon="-2.38243">
        <ele>76</ele>
        <time>2023-11-05T13:06:02Z</time>
      </trkpt>
      <trkpt lat="47.6225" lon="-2.38243">
        <ele>77</ele>
        <time>2023-11-05T13:06:14Z</time>
      </trkpt>
      <trkpt lat="47.62232" lon="-2.38247">
        <ele>78</ele>
        <time>2023-11-05T13:06:38Z</time>
      </trkpt>
      <trkpt lat="47.62221" lon="-2.38253">
        <ele>79</ele>
        <time>2023-11-05T13:06:54Z</time>
      </trkpt>
      <trkpt lat="47.62211" lon="-2.38248">
        <ele>78</ele>
        <time>2023-11-05T13:07:08Z</time>
      </trkpt>
      <trkpt lat="47.62204" lon="-2.38238">
        <ele>78</ele>
        <time>2023-11-05T13:07:21Z</time>
      </trkpt>
      <trkpt lat="47.62174" lon="-2.38223">
        <ele>78</ele>
        <time>2023-11-05T13:08:03Z</time>
      </trkpt>
      <trkpt lat="47.62165" lon="-2.38213">
        <ele>78</ele>
        <time>2023-11-05T13:08:18Z</time>
      </trkpt>
      <trkpt lat="47.62151" lon="-2.38172">
        <ele>79</ele>
        <time>2023-11-05T13:08:59Z</time>
      </trkpt>
      <trkpt lat="47.62139" lon="-2.38154">
        <ele>79</ele>
        <time>2023-11-05T13:09:22Z</time>
      </trkpt>
      <trkpt lat="47.62062" lon="-2.37878">
        <ele>75</ele>
        <time>2023-11-05T13:13:51Z</time>
      </trkpt>
      <trkpt lat="47.62043" lon="-2.37723">
        <ele>74</ele>
        <time>2023-11-05T13:16:12Z</time>
      </trkpt>
      <trkpt lat="47.6204" lon="-2.37707">
        <ele>74</ele>
        <time>2023-11-05T13:16:27Z</time>
      </trkpt>
      <trkpt lat="47.62034" lon="-2.37694">
        <ele>75</ele>
        <time>2023-11-05T13:16:41Z</time>
      </trkpt>
      <trkpt lat="47.62021" lon="-2.37582">
        <ele>75</ele>
        <time>2023-11-05T13:18:24Z</time>
      </trkpt>
      <trkpt lat="47.62083" lon="-2.37504">
        <ele>68</ele>
        <time>2023-11-05T13:20:12Z</time>
      </trkpt>
      <trkpt lat="47.62051" lon="-2.37363">
        <ele>66</ele>
        <time>2023-11-05T13:22:26Z</time>
      </trkpt>
      <trkpt lat="47.62108" lon="-2.37284">
        <ele>65</ele>
        <time>2023-11-05T13:24:10Z</time>
      </trkpt>
      <trkpt lat="47.62241" lon="-2.37271">
        <ele>60</ele>
        <time>2023-11-05T13:27:08Z</time>
      </trkpt>
      <trkpt lat="47.6224" lon="-2.36916">
        <ele>72</ele>
        <time>2023-11-05T13:32:27Z</time>
      </trkpt>
      <trkpt lat="47.62275" lon="-2.36564">
        <ele>66</ele>
        <time>2023-11-05T13:37:47Z</time>
      </trkpt>
      <trkpt lat="47.62422" lon="-2.36523">
        <ele>62</ele>
        <time>2023-11-05T13:41:07Z</time>
      </trkpt>
      <trkpt lat="47.62426" lon="-2.36378">
        <ele>58</ele>
        <time>2023-11-05T13:43:17Z</time>
      </trkpt>
      <trkpt lat="47.62472" lon="-2.36344">
        <ele>56</ele>
        <time>2023-11-05T13:44:26Z</time>
      </trkpt>
      <trkpt lat="47.62393" lon="-2.36108">
        <ele>50</ele>
        <time>2023-11-05T13:48:23Z</time>
      </trkpt>
      <trkpt lat="47.62422" lon="-2.35831">
        <ele>50</ele>
        <time>2023-11-05T13:52:35Z</time>
      </trkpt>
      <trkpt lat="47.62405" lon="-2.35768">
        <ele>49</ele>
        <time>2023-11-05T13:53:36Z</time>
      </trkpt>
      <trkpt lat="47.6253" lon="-2.35409">
        <ele>46</ele>
        <time>2023-11-05T13:59:40Z</time>
      </trkpt>
      <trkpt lat="47.62449" lon="-2.35333">
        <ele>43</ele>
        <time>2023-11-05T14:01:47Z</time>
      </trkpt>
      <trkpt lat="47.62445" lon="-2.35204">
        <ele>39</ele>
        <time>2023-11-05T14:03:44Z</time>
      </trkpt>
      <trkpt lat="47.6249" lon="-2.35081">
        <ele>34</ele>
        <time>2023-11-05T14:05:50Z</time>
      </trkpt>
      <trkpt lat="47.6255" lon="-2.3503">
        <ele>33</ele>
        <time>2023-11-05T14:07:22Z</time>
      </trkpt>
      <trkpt lat="47.62554" lon="-2.3503">
        <ele>32</ele>
        <time>2023-11-05T14:07:27Z</time>
      </trkpt>
      <trkpt lat="47.62562" lon="-2.35035">
        <ele>33</ele>
        <time>2023-11-05T14:07:39Z</time>
      </trkpt>
      <trkpt lat="47.6261" lon="-2.35089">
        <ele>31</ele>
        <time>2023-11-05T14:08:59Z</time>
      </trkpt>
      <trkpt lat="47.6262" lon="-2.3509">
        <ele>30</ele>
        <time>2023-11-05T14:09:12Z</time>
      </trkpt>
      <trkpt lat="47.62651" lon="-2.35076">
        <ele>27</ele>
        <time>2023-11-05T14:09:56Z</time>
      </trkpt>
      <trkpt lat="47.62685" lon="-2.35045">
        <ele>25</ele>
        <time>2023-11-05T14:10:49Z</time>
      </trkpt>
      <trkpt lat="47.62733" lon="-2.3502">
        <ele>20</ele>
        <time>2023-11-05T14:11:57Z</time>
      </trkpt>
      <trkpt lat="47.62745" lon="-2.35009">
        <ele>19</ele>
        <time>2023-11-05T14:12:16Z</time>
      </trkpt>
      <trkpt lat="47.62754" lon="-2.34993">
        <ele>18</ele>
        <time>2023-11-05T14:12:34Z</time>
      </trkpt>
      <trkpt lat="47.62757" lon="-2.34993">
        <ele>17</ele>
        <time>2023-11-05T14:12:38Z</time>
      </trkpt>
      <trkpt lat="47.62771" lon="-2.35012">
        <ele>17</ele>
        <time>2023-11-05T14:13:04Z</time>
      </trkpt>
      <trkpt lat="47.62782" lon="-2.35021">
        <ele>16</ele>
        <time>2023-11-05T14:13:21Z</time>
      </trkpt>
      <trkpt lat="47.62791" lon="-2.35023">
        <ele>15</ele>
        <time>2023-11-05T14:13:33Z</time>
      </trkpt>
      <trkpt lat="47.62806" lon="-2.35015">
        <ele>14</ele>
        <time>2023-11-05T14:13:54Z</time>
      </trkpt>
      <trkpt lat="47.62826" lon="-2.35013">
        <ele>13</ele>
        <time>2023-11-05T14:14:21Z</time>
      </trkpt>
      <trkpt lat="47.62836" lon="-2.35017">
        <ele>13</ele>
        <time>2023-11-05T14:14:34Z</time>
      </trkpt>
      <trkpt lat="47.62853" lon="-2.35029">
        <ele>14</ele>
        <time>2023-11-05T14:15:00Z</time>
      </trkpt>
      <trkpt lat="47.62857" lon="-2.35028">
        <ele>14</ele>
        <time>2023-11-05T14:15:05Z</time>
      </trkpt>
      <trkpt lat="47.62861" lon="-2.35016">
        <ele>15</ele>
        <time>2023-11-05T14:15:17Z</time>
      </trkpt>
      <trkpt lat="47.62863" lon="-2.34996">
        <ele>15</ele>
        <time>2023-11-05T14:15:35Z</time>
      </trkpt>
      <trkpt lat="47.6286" lon="-2.34965">
        <ele>14</ele>
        <time>2023-11-05T14:16:03Z</time>
      </trkpt>
      <trkpt lat="47.6286" lon="-2.34929">
        <ele>13</ele>
        <time>2023-11-05T14:16:36Z</time>
      </trkpt>
      <trkpt lat="47.62865" lon="-2.34884">
        <ele>13</ele>
        <time>2023-11-05T14:17:17Z</time>
      </trkpt>
      <trkpt lat="47.62887" lon="-2.34837">
        <ele>12</ele>
        <time>2023-11-05T14:18:08Z</time>
      </trkpt>
      <trkpt lat="47.62906" lon="-2.34786">
        <ele>11</ele>
        <time>2023-11-05T14:19:01Z</time>
      </trkpt>
      <trkpt lat="47.62916" lon="-2.34754">
        <ele>10</ele>
        <time>2023-11-05T14:19:32Z</time>
      </trkpt>
      <trkpt lat="47.62934" lon="-2.34677">
        <ele>11</ele>
        <time>2023-11-05T14:20:46Z</time>
      </trkpt>
      <trkpt lat="47.6294" lon="-2.3467">
        <ele>12</ele>
        <time>2023-11-05T14:20:56Z</time>
      </trkpt>
      <trkpt lat="47.62959" lon="-2.34675">
        <ele>14</ele>
        <time>2023-11-05T14:21:22Z</time>
      </trkpt>
      <trkpt lat="47.62975" lon="-2.34676">
        <ele>15</ele>
        <time>2023-11-05T14:21:43Z</time>
      </trkpt>
      <trkpt lat="47.63009" lon="-2.34687">
        <ele>17</ele>
        <time>2023-11-05T14:22:29Z</time>
      </trkpt>
      <trkpt lat="47.63036" lon="-2.34692">
        <ele>18</ele>
        <time>2023-11-05T14:23:06Z</time>
      </trkpt>
      <trkpt lat="47.63051" lon="-2.34699">
        <ele>19</ele>
        <time>2023-11-05T14:23:27Z</time>
      </trkpt>
      <trkpt lat="47.63063" lon="-2.34711">
        <ele>19</ele>
        <time>2023-11-05T14:23:46Z</time>
      </trkpt>
      <trkpt lat="47.63096" lon="-2.34758">
        <ele>21</ele>
        <time>2023-11-05T14:24:47Z</time>
      </trkpt>
      <trkpt lat="47.63104" lon="-2.34786">
        <ele>22</ele>
        <time>2023-11-05T14:25:14Z</time>
      </trkpt>
      <trkpt lat="47.63104" lon="-2.34815">
        <ele>22</ele>
        <time>2023-11-05T14:25:41Z</time>
      </trkpt>
      <trkpt lat="47.63111" lon="-2.34828">
        <ele>23</ele>
        <time>2023-11-05T14:25:55Z</time>
      </trkpt>
      <trkpt lat="47.63156" lon="-2.34949">
        <ele>25</ele>
        <time>2023-11-05T14:28:00Z</time>
      </trkpt>
      <trkpt lat="47.63162" lon="-2.34954">
        <ele>25</ele>
        <time>2023-11-05T14:28:09Z</time>
      </trkpt>
      <trkpt lat="47.63179" lon="-2.34955">
        <ele>26</ele>
        <time>2023-11-05T14:28:32Z</time>
      </trkpt>
      <trkpt lat="47.6318" lon="-2.34976">
        <ele>27</ele>
        <time>2023-11-05T14:28:51Z</time>
      </trkpt>
      <trkpt lat="47.63184" lon="-2.34982">
        <ele>27</ele>
        <time>2023-11-05T14:28:58Z</time>
      </trkpt>
      <trkpt lat="47.63198" lon="-2.35027">
        <ele>29</ele>
        <time>2023-11-05T14:29:43Z</time>
      </trkpt>
      <trkpt lat="47.63206" lon="-2.35062">
        <ele>30</ele>
        <time>2023-11-05T14:30:16Z</time>
      </trkpt>
      <trkpt lat="47.6321" lon="-2.35073">
        <ele>30</ele>
        <time>2023-11-05T14:30:27Z</time>
      </trkpt>
      <trkpt lat="47.63217" lon="-2.35083">
        <ele>31</ele>
        <time>2023-11-05T14:30:40Z</time>
      </trkpt>
      <trkpt lat="47.63212" lon="-2.351">
        <ele>31</ele>
        <time>2023-11-05T14:30:57Z</time>
      </trkpt>
      <trkpt lat="47.63212" lon="-2.35114">
        <ele>31</ele>
        <time>2023-11-05T14:31:09Z</time>
      </trkpt>
      <trkpt lat="47.63223" lon="-2.35186">
        <ele>33</ele>
        <time>2023-11-05T14:32:16Z</time>
      </trkpt>
      <trkpt lat="47.63222" lon="-2.35192">
        <ele>34</ele>
        <time>2023-11-05T14:32:21Z</time>
      </trkpt>
      <trkpt lat="47.63224" lon="-2.35198">
        <ele>34</ele>
        <time>2023-11-05T14:32:27Z</time>
      </trkpt>
      <trkpt lat="47.63243" lon="-2.35202">
        <ele>34</ele>
        <time>2023-11-05T14:32:53Z</time>
      </trkpt>
      <trkpt lat="47.63246" lon="-2.35255">
        <ele>36</ele>
        <time>2023-11-05T14:33:41Z</time>
      </trkpt>
      <trkpt lat="47.63255" lon="-2.35311">
        <ele>39</ele>
        <time>2023-11-05T14:34:33Z</time>
      </trkpt>
      <trkpt lat="47.63262" lon="-2.35313">
        <ele>39</ele>
        <time>2023-11-05T14:34:42Z</time>
      </trkpt>
      <trkpt lat="47.63275" lon="-2.35308">
        <ele>39</ele>
        <time>2023-11-05T14:35:00Z</time>
      </trkpt>
      <trkpt lat="47.63292" lon="-2.35308">
        <ele>40</ele>
        <time>2023-11-05T14:35:23Z</time>
      </trkpt>
      <trkpt lat="47.63328" lon="-2.35315">
        <ele>41</ele>
        <time>2023-11-05T14:36:11Z</time>
      </trkpt>
      <trkpt lat="47.63358" lon="-2.35316">
        <ele>43</ele>
        <time>2023-11-05T14:36:51Z</time>
      </trkpt>
      <trkpt lat="47.63371" lon="-2.35313">
        <ele>44</ele>
        <time>2023-11-05T14:37:09Z</time>
      </trkpt>
      <trkpt lat="47.63402" lon="-2.35313">
        <ele>46</ele>
        <time>2023-11-05T14:37:50Z</time>
      </trkpt>
      <trkpt lat="47.6343" lon="-2.3531">
        <ele>48</ele>
        <time>2023-11-05T14:38:28Z</time>
      </trkpt>
      <trkpt lat="47.63448" lon="-2.35315">
        <ele>49</ele>
        <time>2023-11-05T14:38:52Z</time>
      </trkpt>
      <trkpt lat="47.63462" lon="-2.35313">
        <ele>50</ele>
        <time>2023-11-05T14:39:11Z</time>
      </trkpt>
      <trkpt lat="47.63477" lon="-2.35315">
        <ele>52</ele>
        <time>2023-11-05T14:39:31Z</time>
      </trkpt>
      <trkpt lat="47.63491" lon="-2.35322">
        <ele>53</ele>
        <time>2023-11-05T14:39:51Z</time>
      </trkpt>
      <trkpt lat="47.63496" lon="-2.35331">
        <ele>54</ele>
        <time>2023-11-05T14:40:01Z</time>
      </trkpt>
      <trkpt lat="47.63511" lon="-2.35386">
        <ele>56</ele>
        <time>2023-11-05T14:40:55Z</time>
      </trkpt>
      <trkpt lat="47.63536" lon="-2.35372">
        <ele>58</ele>
        <time>2023-11-05T14:41:30Z</time>
      </trkpt>
      <trkpt lat="47.63546" lon="-2.35361">
        <ele>58</ele>
        <time>2023-11-05T14:41:47Z</time>
      </trkpt>
      <trkpt lat="47.63549" lon="-2.35361">
        <ele>58</ele>
        <time>2023-11-05T14:41:51Z</time>
      </trkpt>
      <trkpt lat="47.63563" lon="-2.35381">
        <ele>60</ele>
        <time>2023-11-05T14:42:17Z</time>
      </trkpt>
      <trkpt lat="47.63568" lon="-2.35382">
        <ele>61</ele>
        <time>2023-11-05T14:42:23Z</time>
      </trkpt>
      <trkpt lat="47.63572" lon="-2.3538">
        <ele>61</ele>
        <time>2023-11-05T14:42:29Z</time>
      </trkpt>
      <trkpt lat="47.63588" lon="-2.35368">
        <ele>62</ele>
        <time>2023-11-05T14:42:53Z</time>
      </trkpt>
      <trkpt lat="47.63599" lon="-2.35339">
        <ele>61</ele>
        <time>2023-11-05T14:43:23Z</time>
      </trkpt>
      <trkpt lat="47.63607" lon="-2.35331">
        <ele>62</ele>
        <time>2023-11-05T14:43:36Z</time>
      </trkpt>
      <trkpt lat="47.63646" lon="-2.35344">
        <ele>65</ele>
        <time>2023-11-05T14:44:29Z</time>
      </trkpt>
      <trkpt lat="47.6365" lon="-2.35339">
        <ele>65</ele>
        <time>2023-11-05T14:44:36Z</time>
      </trkpt>
      <trkpt lat="47.63662" lon="-2.3534">
        <ele>66</ele>
        <time>2023-11-05T14:44:52Z</time>
      </trkpt>
      <trkpt lat="47.63677" lon="-2.35337">
        <ele>67</ele>
        <time>2023-11-05T14:45:12Z</time>
      </trkpt>
      <trkpt lat="47.63691" lon="-2.35339">
        <ele>68</ele>
        <time>2023-11-05T14:45:31Z</time>
      </trkpt>
      <trkpt lat="47.63702" lon="-2.35336">
        <ele>69</ele>
        <time>2023-11-05T14:45:46Z</time>
      </trkpt>
      <trkpt lat="47.63715" lon="-2.35328">
        <ele>69</ele>
        <time>2023-11-05T14:46:05Z</time>
      </trkpt>
      <trkpt lat="47.63717" lon="-2.35334">
        <ele>70</ele>
        <time>2023-11-05T14:46:11Z</time>
      </trkpt>
      <trkpt lat="47.63716" lon="-2.35328">
        <ele>69</ele>
        <time>2023-11-05T14:46:16Z</time>
      </trkpt>
      <trkpt lat="47.63769" lon="-2.3523">
        <ele>68</ele>
        <time>2023-11-05T14:48:09Z</time>
      </trkpt>
      <trkpt lat="47.63784" lon="-2.35215">
        <ele>66</ele>
        <time>2023-11-05T14:48:34Z</time>
      </trkpt>
      <trkpt lat="47.63805" lon="-2.35206">
        <ele>65</ele>
        <time>2023-11-05T14:49:03Z</time>
      </trkpt>
      <trkpt lat="47.63819" lon="-2.35197">
        <ele>63</ele>
        <time>2023-11-05T14:49:23Z</time>
      </trkpt>
      <trkpt lat="47.6383" lon="-2.35184">
        <ele>62</ele>
        <time>2023-11-05T14:49:42Z</time>
      </trkpt>
      <trkpt lat="47.63853" lon="-2.35145">
        <ele>60</ele>
        <time>2023-11-05T14:50:28Z</time>
      </trkpt>
      <trkpt lat="47.63853" lon="-2.35124">
        <ele>60</ele>
        <time>2023-11-05T14:50:47Z</time>
      </trkpt>
      <trkpt lat="47.63848" lon="-2.35099">
        <ele>59</ele>
        <time>2023-11-05T14:51:11Z</time>
      </trkpt>
      <trkpt lat="47.6384" lon="-2.35091">
        <ele>59</ele>
        <time>2023-11-05T14:51:24Z</time>
      </trkpt>
      <trkpt lat="47.63837" lon="-2.35081">
        <ele>58</ele>
        <time>2023-11-05T14:51:33Z</time>
      </trkpt>
      <trkpt lat="47.63833" lon="-2.35079">
        <ele>58</ele>
        <time>2023-11-05T14:51:39Z</time>
      </trkpt>
      <trkpt lat="47.6383" lon="-2.35066">
        <ele>58</ele>
        <time>2023-11-05T14:51:51Z</time>
      </trkpt>
      <trkpt lat="47.6382" lon="-2.35054">
        <ele>58</ele>
        <time>2023-11-05T14:52:09Z</time>
      </trkpt>
      <trkpt lat="47.63785" lon="-2.35023">
        <ele>58</ele>
        <time>2023-11-05T14:53:03Z</time>
      </trkpt>
      <trkpt lat="47.63772" lon="-2.3499">
        <ele>57</ele>
        <time>2023-11-05T14:53:37Z</time>
      </trkpt>
      <trkpt lat="47.6377" lon="-2.34989">
        <ele>57</ele>
        <time>2023-11-05T14:53:40Z</time>
      </trkpt>
      <trkpt lat="47.63765" lon="-2.34993">
        <ele>57</ele>
        <time>2023-11-05T14:53:48Z</time>
      </trkpt>
      <trkpt lat="47.63762" lon="-2.34992">
        <ele>56</ele>
        <time>2023-11-05T14:53:52Z</time>
      </trkpt>
      <trkpt lat="47.63739" lon="-2.34969">
        <ele>55</ele>
        <time>2023-11-05T14:54:29Z</time>
      </trkpt>
      <trkpt lat="47.63722" lon="-2.34965">
        <ele>53</ele>
        <time>2023-11-05T14:54:52Z</time>
      </trkpt>
      <trkpt lat="47.63715" lon="-2.34955">
        <ele>52</ele>
        <time>2023-11-05T14:55:05Z</time>
      </trkpt>
      <trkpt lat="47.63703" lon="-2.34921">
        <ele>49</ele>
        <time>2023-11-05T14:55:39Z</time>
      </trkpt>
      <trkpt lat="47.63696" lon="-2.34921">
        <ele>48</ele>
        <time>2023-11-05T14:55:49Z</time>
      </trkpt>
      <trkpt lat="47.6369" lon="-2.34918">
        <ele>47</ele>
        <time>2023-11-05T14:55:57Z</time>
      </trkpt>
      <trkpt lat="47.63683" lon="-2.34906">
        <ele>46</ele>
        <time>2023-11-05T14:56:11Z</time>
      </trkpt>
      <trkpt lat="47.63675" lon="-2.34899">
        <ele>45</ele>
        <time>2023-11-05T14:56:24Z</time>
      </trkpt>
      <trkpt lat="47.63668" lon="-2.34878">
        <ele>45</ele>
        <time>2023-11-05T14:56:45Z</time>
      </trkpt>
      <trkpt lat="47.63664" lon="-2.34851">
        <ele>44</ele>
        <time>2023-11-05T14:57:10Z</time>
      </trkpt>
      <trkpt lat="47.63656" lon="-2.3484">
        <ele>43</ele>
        <time>2023-11-05T14:57:24Z</time>
      </trkpt>
      <trkpt lat="47.63645" lon="-2.34835">
        <ele>42</ele>
        <time>2023-11-05T14:57:40Z</time>
      </trkpt>
      <trkpt lat="47.63642" lon="-2.34831">
        <ele>41</ele>
        <time>2023-11-05T14:57:45Z</time>
      </trkpt>
      <trkpt lat="47.6364" lon="-2.3482">
        <ele>41</ele>
        <time>2023-11-05T14:57:55Z</time>
      </trkpt>
      <trkpt lat="47.63645" lon="-2.34797">
        <ele>43</ele>
        <time>2023-11-05T14:58:17Z</time>
      </trkpt>
      <trkpt lat="47.63638" lon="-2.34785">
        <ele>43</ele>
        <time>2023-11-05T14:58:31Z</time>
      </trkpt>
      <trkpt lat="47.63632" lon="-2.34743">
        <ele>43</ele>
        <time>2023-11-05T14:59:10Z</time>
      </trkpt>
      <trkpt lat="47.63639" lon="-2.34691">
        <ele>47</ele>
        <time>2023-11-05T14:59:58Z</time>
      </trkpt>
      <trkpt lat="47.63652" lon="-2.34668">
        <ele>50</ele>
        <time>2023-11-05T15:00:25Z</time>
      </trkpt>
      <trkpt lat="47.63644" lon="-2.34638">
        <ele>50</ele>
        <time>2023-11-05T15:00:54Z</time>
      </trkpt>
      <trkpt lat="47.63607" lon="-2.34538">
        <ele>47</ele>
        <time>2023-11-05T15:02:36Z</time>
      </trkpt>
      <trkpt lat="47.63581" lon="-2.34449">
        <ele>44</ele>
        <time>2023-11-05T15:04:03Z</time>
      </trkpt>
      <trkpt lat="47.63561" lon="-2.34393">
        <ele>40</ele>
        <time>2023-11-05T15:05:00Z</time>
      </trkpt>
      <trkpt lat="47.63524" lon="-2.34241">
        <ele>35</ele>
        <time>2023-11-05T15:07:26Z</time>
      </trkpt>
      <trkpt lat="47.63501" lon="-2.34123">
        <ele>38</ele>
        <time>2023-11-05T15:09:16Z</time>
      </trkpt>
      <trkpt lat="47.63498" lon="-2.34098">
        <ele>39</ele>
        <time>2023-11-05T15:09:39Z</time>
      </trkpt>
      <trkpt lat="47.63481" lon="-2.34032">
        <ele>36</ele>
        <time>2023-11-05T15:10:43Z</time>
      </trkpt>
      <trkpt lat="47.63477" lon="-2.34006">
        <ele>36</ele>
        <time>2023-11-05T15:11:07Z</time>
      </trkpt>
      <trkpt lat="47.63478" lon="-2.33997">
        <ele>36</ele>
        <time>2023-11-05T15:11:15Z</time>
      </trkpt>
      <trkpt lat="47.63479" lon="-2.33989">
        <ele>35</ele>
        <time>2023-11-05T15:11:22Z</time>
      </trkpt>
      <trkpt lat="47.63503" lon="-2.3393">
        <ele>31</ele>
        <time>2023-11-05T15:12:24Z</time>
      </trkpt>
      <trkpt lat="47.63526" lon="-2.33903">
        <ele>35</ele>
        <time>2023-11-05T15:13:03Z</time>
      </trkpt>
      <trkpt lat="47.63595" lon="-2.33848">
        <ele>42</ele>
        <time>2023-11-05T15:14:48Z</time>
      </trkpt>
      <trkpt lat="47.63609" lon="-2.33841">
        <ele>43</ele>
        <time>2023-11-05T15:15:07Z</time>
      </trkpt>
      <trkpt lat="47.63631" lon="-2.33818">
        <ele>44</ele>
        <time>2023-11-05T15:15:43Z</time>
      </trkpt>
      <trkpt lat="47.63644" lon="-2.33812">
        <ele>45</ele>
        <time>2023-11-05T15:16:01Z</time>
      </trkpt>
      <trkpt lat="47.63675" lon="-2.33776">
        <ele>44</ele>
        <time>2023-11-05T15:16:54Z</time>
      </trkpt>
      <trkpt lat="47.63694" lon="-2.33748">
        <ele>42</ele>
        <time>2023-11-05T15:17:30Z</time>
      </trkpt>
      <trkpt lat="47.6372" lon="-2.33719">
        <ele>44</ele>
        <time>2023-11-05T15:18:13Z</time>
      </trkpt>
      <trkpt lat="47.63731" lon="-2.33711">
        <ele>44</ele>
        <time>2023-11-05T15:18:29Z</time>
      </trkpt>
      <trkpt lat="47.63759" lon="-2.33701">
        <ele>45</ele>
        <time>2023-11-05T15:19:08Z</time>
      </trkpt>
      <trkpt lat="47.63766" lon="-2.33694">
        <ele>45</ele>
        <time>2023-11-05T15:19:19Z</time>
      </trkpt>
      <trkpt lat="47.63771" lon="-2.33693">
        <ele>46</ele>
        <time>2023-11-05T15:19:26Z</time>
      </trkpt>
      <trkpt lat="47.63784" lon="-2.33676">
        <ele>45</ele>
        <time>2023-11-05T15:19:49Z</time>
      </trkpt>
      <trkpt lat="47.63792" lon="-2.33671">
        <ele>45</ele>
        <time>2023-11-05T15:20:01Z</time>
      </trkpt>
      <trkpt lat="47.63807" lon="-2.33668">
        <ele>46</ele>
        <time>2023-11-05T15:20:21Z</time>
      </trkpt>
      <trkpt lat="47.63824" lon="-2.3366">
        <ele>47</ele>
        <time>2023-11-05T15:20:45Z</time>
      </trkpt>
      <trkpt lat="47.63838" lon="-2.3366">
        <ele>47</ele>
        <time>2023-11-05T15:21:03Z</time>
      </trkpt>
      <trkpt lat="47.63851" lon="-2.33652">
        <ele>48</ele>
        <time>2023-11-05T15:21:22Z</time>
      </trkpt>
      <trkpt lat="47.63869" lon="-2.33646">
        <ele>49</ele>
        <time>2023-11-05T15:21:47Z</time>
      </trkpt>
      <trkpt lat="47.6389" lon="-2.33633">
        <ele>49</ele>
        <time>2023-11-05T15:22:17Z</time>
      </trkpt>
      <trkpt lat="47.63903" lon="-2.3363">
        <ele>48</ele>
        <time>2023-11-05T15:22:35Z</time>
      </trkpt>
      <trkpt lat="47.6393" lon="-2.33616">
        <ele>47</ele>
        <time>2023-11-05T15:23:13Z</time>
      </trkpt>
      <trkpt lat="47.63943" lon="-2.33613">
        <ele>47</ele>
        <time>2023-11-05T15:23:30Z</time>
      </trkpt>
      <trkpt lat="47.63957" lon="-2.33616">
        <ele>47</ele>
        <time>2023-11-05T15:23:49Z</time>
      </trkpt>
      <trkpt lat="47.63975" lon="-2.33629">
        <ele>48</ele>
        <time>2023-11-05T15:24:16Z</time>
      </trkpt>
      <trkpt lat="47.63988" lon="-2.33642">
        <ele>49</ele>
        <time>2023-11-05T15:24:37Z</time>
      </trkpt>
      <trkpt lat="47.64029" lon="-2.33667">
        <ele>51</ele>
        <time>2023-11-05T15:25:36Z</time>
      </trkpt>
      <trkpt lat="47.64054" lon="-2.33677">
        <ele>51</ele>
        <time>2023-11-05T15:26:11Z</time>
      </trkpt>
      <trkpt lat="47.64061" lon="-2.33676">
        <ele>51</ele>
        <time>2023-11-05T15:26:20Z</time>
      </trkpt>
      <trkpt lat="47.64107" lon="-2.33683">
        <ele>50</ele>
        <time>2023-11-05T15:27:22Z</time>
      </trkpt>
      <trkpt lat="47.64119" lon="-2.33679">
        <ele>49</ele>
        <time>2023-11-05T15:27:38Z</time>
      </trkpt>
      <trkpt lat="47.64133" lon="-2.33662">
        <ele>48</ele>
        <time>2023-11-05T15:28:02Z</time>
      </trkpt>
      <trkpt lat="47.64148" lon="-2.33663">
        <ele>48</ele>
        <time>2023-11-05T15:28:22Z</time>
      </trkpt>
      <trkpt lat="47.64157" lon="-2.33669">
        <ele>48</ele>
        <time>2023-11-05T15:28:35Z</time>
      </trkpt>
      <trkpt lat="47.64168" lon="-2.33698">
        <ele>50</ele>
        <time>2023-11-05T15:29:05Z</time>
      </trkpt>
      <trkpt lat="47.64172" lon="-2.33717">
        <ele>52</ele>
        <time>2023-11-05T15:29:23Z</time>
      </trkpt>
      <trkpt lat="47.6418" lon="-2.33721">
        <ele>52</ele>
        <time>2023-11-05T15:29:34Z</time>
      </trkpt>
      <trkpt lat="47.64184" lon="-2.33754">
        <ele>54</ele>
        <time>2023-11-05T15:30:05Z</time>
      </trkpt>
      <trkpt lat="47.64183" lon="-2.33798">
        <ele>54</ele>
        <time>2023-11-05T15:30:44Z</time>
      </trkpt>
      <trkpt lat="47.64177" lon="-2.33829">
        <ele>55</ele>
        <time>2023-11-05T15:31:13Z</time>
      </trkpt>
      <trkpt lat="47.64165" lon="-2.33864">
        <ele>58</ele>
        <time>2023-11-05T15:31:48Z</time>
      </trkpt>
      <trkpt lat="47.64138" lon="-2.33928">
        <ele>62</ele>
        <time>2023-11-05T15:32:56Z</time>
      </trkpt>
      <trkpt lat="47.64138" lon="-2.33937">
        <ele>63</ele>
        <time>2023-11-05T15:33:04Z</time>
      </trkpt>
      <trkpt lat="47.64141" lon="-2.33942">
        <ele>63</ele>
        <time>2023-11-05T15:33:10Z</time>
      </trkpt>
      <trkpt lat="47.64146" lon="-2.33943">
        <ele>63</ele>
        <time>2023-11-05T15:33:17Z</time>
      </trkpt>
      <trkpt lat="47.64156" lon="-2.33936">
        <ele>62</ele>
        <time>2023-11-05T15:33:32Z</time>
      </trkpt>
      <trkpt lat="47.64163" lon="-2.33934">
        <ele>62</ele>
        <time>2023-11-05T15:33:41Z</time>
      </trkpt>
      <trkpt lat="47.64185" lon="-2.33916">
        <ele>60</ele>
        <time>2023-11-05T15:34:15Z</time>
      </trkpt>
      <trkpt lat="47.64201" lon="-2.33892">
        <ele>58</ele>
        <time>2023-11-05T15:34:45Z</time>
      </trkpt>
      <trkpt lat="47.64224" lon="-2.33884">
        <ele>57</ele>
        <time>2023-11-05T15:35:17Z</time>
      </trkpt>
      <trkpt lat="47.64235" lon="-2.33874">
        <ele>56</ele>
        <time>2023-11-05T15:35:34Z</time>
      </trkpt>
      <trkpt lat="47.64237" lon="-2.33898">
        <ele>59</ele>
        <time>2023-11-05T15:35:56Z</time>
      </trkpt>
      <trkpt lat="47.64241" lon="-2.33902">
        <ele>59</ele>
        <time>2023-11-05T15:36:02Z</time>
      </trkpt>
      <trkpt lat="47.64251" lon="-2.33889">
        <ele>57</ele>
        <time>2023-11-05T15:36:20Z</time>
      </trkpt>
      <trkpt lat="47.64276" lon="-2.33888">
        <ele>57</ele>
        <time>2023-11-05T15:36:53Z</time>
      </trkpt>
      <trkpt lat="47.64292" lon="-2.33884">
        <ele>56</ele>
        <time>2023-11-05T15:37:15Z</time>
      </trkpt>
      <trkpt lat="47.64301" lon="-2.33887">
        <ele>57</ele>
        <time>2023-11-05T15:37:27Z</time>
      </trkpt>
      <trkpt lat="47.64304" lon="-2.33891">
        <ele>57</ele>
        <time>2023-11-05T15:37:33Z</time>
      </trkpt>
      <trkpt lat="47.64332" lon="-2.33965">
        <ele>62</ele>
        <time>2023-11-05T15:38:49Z</time>
      </trkpt>
      <trkpt lat="47.64354" lon="-2.3399">
        <ele>63</ele>
        <time>2023-11-05T15:39:26Z</time>
      </trkpt>
      <trkpt lat="47.64363" lon="-2.34013">
        <ele>64</ele>
        <time>2023-11-05T15:39:50Z</time>
      </trkpt>
      <trkpt lat="47.64374" lon="-2.34031">
        <ele>64</ele>
        <time>2023-11-05T15:40:12Z</time>
      </trkpt>
      <trkpt lat="47.64383" lon="-2.34043">
        <ele>64</ele>
        <time>2023-11-05T15:40:28Z</time>
      </trkpt>
      <trkpt lat="47.64401" lon="-2.34052">
        <ele>64</ele>
        <time>2023-11-05T15:40:53Z</time>
      </trkpt>
      <trkpt lat="47.64412" lon="-2.34051">
        <ele>63</ele>
        <time>2023-11-05T15:41:08Z</time>
      </trkpt>
      <trkpt lat="47.64453" lon="-2.34031">
        <ele>64</ele>
        <time>2023-11-05T15:42:06Z</time>
      </trkpt>
      <trkpt lat="47.64474" lon="-2.34017">
        <ele>63</ele>
        <time>2023-11-05T15:42:36Z</time>
      </trkpt>
      <trkpt lat="47.64499" lon="-2.33993">
        <ele>63</ele>
        <time>2023-11-05T15:43:16Z</time>
      </trkpt>
      <trkpt lat="47.64506" lon="-2.33989">
        <ele>63</ele>
        <time>2023-11-05T15:43:26Z</time>
      </trkpt>
      <trkpt lat="47.64527" lon="-2.33985">
        <ele>62</ele>
        <time>2023-11-05T15:43:54Z</time>
      </trkpt>
      <trkpt lat="47.64553" lon="-2.33999">
        <ele>62</ele>
        <time>2023-11-05T15:44:31Z</time>
      </trkpt>
      <trkpt lat="47.64575" lon="-2.34021">
        <ele>63</ele>
        <time>2023-11-05T15:45:07Z</time>
      </trkpt>
      <trkpt lat="47.64581" lon="-2.34031">
        <ele>63</ele>
        <time>2023-11-05T15:45:19Z</time>
      </trkpt>
      <trkpt lat="47.64591" lon="-2.34092">
        <ele>67</ele>
        <time>2023-11-05T15:46:15Z</time>
      </trkpt>
      <trkpt lat="47.64594" lon="-2.34097">
        <ele>67</ele>
        <time>2023-11-05T15:46:21Z</time>
      </trkpt>
      <trkpt lat="47.64601" lon="-2.341">
        <ele>67</ele>
        <time>2023-11-05T15:46:31Z</time>
      </trkpt>
      <trkpt lat="47.64609" lon="-2.34101">
        <ele>67</ele>
        <time>2023-11-05T15:46:42Z</time>
      </trkpt>
      <trkpt lat="47.64613" lon="-2.34098">
        <ele>67</ele>
        <time>2023-11-05T15:46:48Z</time>
      </trkpt>
      <trkpt lat="47.64619" lon="-2.34053">
        <ele>64</ele>
        <time>2023-11-05T15:47:29Z</time>
      </trkpt>
      <trkpt lat="47.64626" lon="-2.34043">
        <ele>64</ele>
        <time>2023-11-05T15:47:42Z</time>
      </trkpt>
      <trkpt lat="47.64643" lon="-2.34048">
        <ele>64</ele>
        <time>2023-11-05T15:48:05Z</time>
      </trkpt>
      <trkpt lat="47.64671" lon="-2.34061">
        <ele>64</ele>
        <time>2023-11-05T15:48:44Z</time>
      </trkpt>
      <trkpt lat="47.6468" lon="-2.34061">
        <ele>64</ele>
        <time>2023-11-05T15:48:56Z</time>
      </trkpt>
      <trkpt lat="47.64689" lon="-2.34067">
        <ele>64</ele>
        <time>2023-11-05T15:49:09Z</time>
      </trkpt>
      <trkpt lat="47.6471" lon="-2.34075">
        <ele>65</ele>
        <time>2023-11-05T15:49:38Z</time>
      </trkpt>
      <trkpt lat="47.64735" lon="-2.3408">
        <ele>65</ele>
        <time>2023-11-05T15:50:12Z</time>
      </trkpt>
      <trkpt lat="47.64758" lon="-2.34081">
        <ele>65</ele>
        <time>2023-11-05T15:50:42Z</time>
      </trkpt>
      <trkpt lat="47.64766" lon="-2.34078">
        <ele>66</ele>
        <time>2023-11-05T15:50:53Z</time>
      </trkpt>
      <trkpt lat="47.64768" lon="-2.34075">
        <ele>66</ele>
        <time>2023-11-05T15:50:57Z</time>
      </trkpt>
      <trkpt lat="47.64782" lon="-2.34036">
        <ele>65</ele>
        <time>2023-11-05T15:51:37Z</time>
      </trkpt>
      <trkpt lat="47.64792" lon="-2.34031">
        <ele>66</ele>
        <time>2023-11-05T15:51:51Z</time>
      </trkpt>
      <trkpt lat="47.64812" lon="-2.34037">
        <ele>67</ele>
        <time>2023-11-05T15:52:18Z</time>
      </trkpt>
      <trkpt lat="47.64841" lon="-2.34061">
        <ele>70</ele>
        <time>2023-11-05T15:53:03Z</time>
      </trkpt>
      <trkpt lat="47.64855" lon="-2.34068">
        <ele>69</ele>
        <time>2023-11-05T15:53:22Z</time>
      </trkpt>
      <trkpt lat="47.64907" lon="-2.34116">
        <ele>70</ele>
        <time>2023-11-05T15:54:44Z</time>
      </trkpt>
      <trkpt lat="47.64932" lon="-2.34134">
        <ele>69</ele>
        <time>2023-11-05T15:55:21Z</time>
      </trkpt>
      <trkpt lat="47.64952" lon="-2.34158">
        <ele>68</ele>
        <time>2023-11-05T15:55:55Z</time>
      </trkpt>
      <trkpt lat="47.64955" lon="-2.34168">
        <ele>68</ele>
        <time>2023-11-05T15:56:05Z</time>
      </trkpt>
      <trkpt lat="47.64957" lon="-2.34192">
        <ele>69</ele>
        <time>2023-11-05T15:56:27Z</time>
      </trkpt>
      <trkpt lat="47.64964" lon="-2.34219">
        <ele>69</ele>
        <time>2023-11-05T15:56:53Z</time>
      </trkpt>
      <trkpt lat="47.64967" lon="-2.34278">
        <ele>70</ele>
        <time>2023-11-05T15:57:46Z</time>
      </trkpt>
      <trkpt lat="47.64966" lon="-2.34312">
        <ele>70</ele>
        <time>2023-11-05T15:58:17Z</time>
      </trkpt>
      <trkpt lat="47.64969" lon="-2.34326">
        <ele>70</ele>
        <time>2023-11-05T15:58:30Z</time>
      </trkpt>
      <trkpt lat="47.64973" lon="-2.34332">
        <ele>70</ele>
        <time>2023-11-05T15:58:38Z</time>
      </trkpt>
      <trkpt lat="47.6498" lon="-2.34337">
        <ele>70</ele>
        <time>2023-11-05T15:58:48Z</time>
      </trkpt>
      <trkpt lat="47.64989" lon="-2.34339">
        <ele>70</ele>
        <time>2023-11-05T15:59:00Z</time>
      </trkpt>
      <trkpt lat="47.65078" lon="-2.34338">
        <ele>68</ele>
        <time>2023-11-05T16:00:59Z</time>
      </trkpt>
      <trkpt lat="47.65088" lon="-2.34348">
        <ele>67</ele>
        <time>2023-11-05T16:01:15Z</time>
      </trkpt>
      <trkpt lat="47.65092" lon="-2.34357">
        <ele>67</ele>
        <time>2023-11-05T16:01:25Z</time>
      </trkpt>
      <trkpt lat="47.65099" lon="-2.34398">
        <ele>67</ele>
        <time>2023-11-05T16:02:03Z</time>
      </trkpt>
      <trkpt lat="47.65108" lon="-2.34486">
        <ele>67</ele>
        <time>2023-11-05T16:03:23Z</time>
      </trkpt>
      <trkpt lat="47.65119" lon="-2.34521">
        <ele>68</ele>
        <time>2023-11-05T16:03:57Z</time>
      </trkpt>
      <trkpt lat="47.65142" lon="-2.34622">
        <ele>70</ele>
        <time>2023-11-05T16:05:33Z</time>
      </trkpt>
      <trkpt lat="47.65147" lon="-2.34633">
        <ele>70</ele>
        <time>2023-11-05T16:05:45Z</time>
      </trkpt>
      <trkpt lat="47.65156" lon="-2.34638">
        <ele>70</ele>
        <time>2023-11-05T16:05:58Z</time>
      </trkpt>
      <trkpt lat="47.65215" lon="-2.34645">
        <ele>66</ele>
        <time>2023-11-05T16:07:17Z</time>
      </trkpt>
      <trkpt lat="47.6523" lon="-2.34645">
        <ele>65</ele>
        <time>2023-11-05T16:07:37Z</time>
      </trkpt>
      <trkpt lat="47.65246" lon="-2.3464">
        <ele>63</ele>
        <time>2023-11-05T16:07:59Z</time>
      </trkpt>
      <trkpt lat="47.65253" lon="-2.34635">
        <ele>63</ele>
        <time>2023-11-05T16:08:09Z</time>
      </trkpt>
      <trkpt lat="47.65258" lon="-2.34627">
        <ele>62</ele>
        <time>2023-11-05T16:08:19Z</time>
      </trkpt>
      <trkpt lat="47.65292" lon="-2.34559">
        <ele>61</ele>
        <time>2023-11-05T16:09:35Z</time>
      </trkpt>
      <trkpt lat="47.65294" lon="-2.34542">
        <ele>61</ele>
        <time>2023-11-05T16:09:51Z</time>
      </trkpt>
      <trkpt lat="47.65286" lon="-2.34473">
        <ele>61</ele>
        <time>2023-11-05T16:10:54Z</time>
      </trkpt>
      <trkpt lat="47.65288" lon="-2.3444">
        <ele>61</ele>
        <time>2023-11-05T16:11:23Z</time>
      </trkpt>
      <trkpt lat="47.65299" lon="-2.34398">
        <ele>61</ele>
        <time>2023-11-05T16:12:04Z</time>
      </trkpt>
      <trkpt lat="47.65321" lon="-2.34339">
        <ele>62</ele>
        <time>2023-11-05T16:13:05Z</time>
      </trkpt>
      <trkpt lat="47.65334" lon="-2.34255">
        <ele>63</ele>
        <time>2023-11-05T16:14:22Z</time>
      </trkpt>
      <trkpt lat="47.6534" lon="-2.34246">
        <ele>63</ele>
        <time>2023-11-05T16:14:33Z</time>
      </trkpt>
      <trkpt lat="47.65348" lon="-2.34244">
        <ele>63</ele>
        <time>2023-11-05T16:14:44Z</time>
      </trkpt>
      <trkpt lat="47.65373" lon="-2.34256">
        <ele>64</ele>
        <time>2023-11-05T16:15:19Z</time>
      </trkpt>
      <trkpt lat="47.65416" lon="-2.34272">
        <ele>66</ele>
        <time>2023-11-05T16:16:18Z</time>
      </trkpt>
      <trkpt lat="47.65425" lon="-2.3427">
        <ele>67</ele>
        <time>2023-11-05T16:16:31Z</time>
      </trkpt>
      <trkpt lat="47.65436" lon="-2.34249">
        <ele>67</ele>
        <time>2023-11-05T16:16:54Z</time>
      </trkpt>
      <trkpt lat="47.65439" lon="-2.34246">
        <ele>67</ele>
        <time>2023-11-05T16:16:59Z</time>
      </trkpt>
      <trkpt lat="47.65446" lon="-2.34245">
        <ele>68</ele>
        <time>2023-11-05T16:17:09Z</time>
      </trkpt>
      <trkpt lat="47.65605" lon="-2.3428">
        <ele>74</ele>
        <time>2023-11-05T16:20:43Z</time>
      </trkpt>
      <trkpt lat="47.65637" lon="-2.34284">
        <ele>75</ele>
        <time>2023-11-05T16:21:26Z</time>
      </trkpt>
      <trkpt lat="47.65658" lon="-2.34279">
        <ele>76</ele>
        <time>2023-11-05T16:21:54Z</time>
      </trkpt>
      <trkpt lat="47.65715" lon="-2.34256">
        <ele>77</ele>
        <time>2023-11-05T16:23:13Z</time>
      </trkpt>
      <trkpt lat="47.65783" lon="-2.34235">
        <ele>78</ele>
        <time>2023-11-05T16:24:46Z</time>
      </trkpt>
      <trkpt lat="47.65835" lon="-2.34215">
        <ele>79</ele>
        <time>2023-11-05T16:25:58Z</time>
      </trkpt>
      <trkpt lat="47.65852" lon="-2.34212">
        <ele>80</ele>
        <time>2023-11-05T16:26:20Z</time>
      </trkpt>
      <trkpt lat="47.65856" lon="-2.34214">
        <ele>80</ele>
        <time>2023-11-05T16:26:26Z</time>
      </trkpt>
      <trkpt lat="47.65906" lon="-2.34165">
        <ele>82</ele>
        <time>2023-11-05T16:27:46Z</time>
      </trkpt>
      <trkpt lat="47.65925" lon="-2.34153">
        <ele>82</ele>
        <time>2023-11-05T16:28:14Z</time>
      </trkpt>
      <trkpt lat="47.65935" lon="-2.34151">
        <ele>83</ele>
        <time>2023-11-05T16:28:27Z</time>
      </trkpt>
      <trkpt lat="47.65971" lon="-2.34152">
        <ele>83</ele>
        <time>2023-11-05T16:29:15Z</time>
      </trkpt>
      <trkpt lat="47.66033" lon="-2.34162">
        <ele>84</ele>
        <time>2023-11-05T16:30:38Z</time>
      </trkpt>
      <trkpt lat="47.66045" lon="-2.34195">
        <ele>85</ele>
        <time>2023-11-05T16:31:12Z</time>
      </trkpt>
      <trkpt lat="47.66047" lon="-2.34212">
        <ele>85</ele>
        <time>2023-11-05T16:31:28Z</time>
      </trkpt>
      <trkpt lat="47.66024" lon="-2.34365">
        <ele>85</ele>
        <time>2023-11-05T16:33:48Z</time>
      </trkpt>
      <trkpt lat="47.66014" lon="-2.34464">
        <ele>82</ele>
        <time>2023-11-05T16:35:18Z</time>
      </trkpt>
      <trkpt lat="47.65995" lon="-2.34597">
        <ele>78</ele>
        <time>2023-11-05T16:37:21Z</time>
      </trkpt>
      <trkpt lat="47.65987" lon="-2.34681">
        <ele>77</ele>
        <time>2023-11-05T16:38:37Z</time>
      </trkpt>
      <trkpt lat="47.65992" lon="-2.34712">
        <ele>76</ele>
        <time>2023-11-05T16:39:06Z</time>
      </trkpt>
      <trkpt lat="47.66003" lon="-2.34727">
        <ele>76</ele>
        <time>2023-11-05T16:39:25Z</time>
      </trkpt>
      <trkpt lat="47.66037" lon="-2.34745">
        <ele>76</ele>
        <time>2023-11-05T16:40:14Z</time>
      </trkpt>
      <trkpt lat="47.6607" lon="-2.34759">
        <ele>76</ele>
        <time>2023-11-05T16:40:59Z</time>
      </trkpt>
      <trkpt lat="47.66081" lon="-2.3477">
        <ele>76</ele>
        <time>2023-11-05T16:41:17Z</time>
      </trkpt>
      <trkpt lat="47.66088" lon="-2.34788">
        <ele>77</ele>
        <time>2023-11-05T16:41:36Z</time>
      </trkpt>
      <trkpt lat="47.66088" lon="-2.34808">
        <ele>77</ele>
        <time>2023-11-05T16:41:54Z</time>
      </trkpt>
      <trkpt lat="47.66084" lon="-2.34823">
        <ele>78</ele>
        <time>2023-11-05T16:42:08Z</time>
      </trkpt>
      <trkpt lat="47.6606" lon="-2.34876">
        <ele>78</ele>
        <time>2023-11-05T16:43:06Z</time>
      </trkpt>
      <trkpt lat="47.66062" lon="-2.34967">
        <ele>80</ele>
        <time>2023-11-05T16:44:28Z</time>
      </trkpt>
      <trkpt lat="47.66058" lon="-2.34985">
        <ele>80</ele>
        <time>2023-11-05T16:44:45Z</time>
      </trkpt>
      <trkpt lat="47.6605" lon="-2.34997">
        <ele>81</ele>
        <time>2023-11-05T16:45:00Z</time>
      </trkpt>
      <trkpt lat="47.66021" lon="-2.35058">
        <ele>81</ele>
        <time>2023-11-05T16:46:07Z</time>
      </trkpt>
      <trkpt lat="47.66005" lon="-2.35077">
        <ele>81</ele>
        <time>2023-11-05T16:46:34Z</time>
      </trkpt>
      <trkpt lat="47.65959" lon="-2.3512">
        <ele>81</ele>
        <time>2023-11-05T16:47:47Z</time>
      </trkpt>
      <trkpt lat="47.6595" lon="-2.35133">
        <ele>81</ele>
        <time>2023-11-05T16:48:03Z</time>
      </trkpt>
      <trkpt lat="47.65947" lon="-2.35147">
        <ele>82</ele>
        <time>2023-11-05T16:48:17Z</time>
      </trkpt>
      <trkpt lat="47.65952" lon="-2.35186">
        <ele>83</ele>
        <time>2023-11-05T16:48:52Z</time>
      </trkpt>
      <trkpt lat="47.6595" lon="-2.35226">
        <ele>84</ele>
        <time>2023-11-05T16:49:28Z</time>
      </trkpt>
      <trkpt lat="47.65941" lon="-2.35246">
        <ele>85</ele>
        <time>2023-11-05T16:49:50Z</time>
      </trkpt>
      <trkpt lat="47.65916" lon="-2.3527">
        <ele>85</ele>
        <time>2023-11-05T16:50:30Z</time>
      </trkpt>
      <trkpt lat="47.6591" lon="-2.35291">
        <ele>85</ele>
        <time>2023-11-05T16:50:50Z</time>
      </trkpt>
      <trkpt lat="47.65907" lon="-2.3538">
        <ele>86</ele>
        <time>2023-11-05T16:52:10Z</time>
      </trkpt>
      <trkpt lat="47.65902" lon="-2.35423">
        <ele>86</ele>
        <time>2023-11-05T16:52:50Z</time>
      </trkpt>
      <trkpt lat="47.65905" lon="-2.35486">
        <ele>85</ele>
        <time>2023-11-05T16:53:46Z</time>
      </trkpt>
      <trkpt lat="47.65902" lon="-2.35508">
        <ele>85</ele>
        <time>2023-11-05T16:54:07Z</time>
      </trkpt>
      <trkpt lat="47.65897" lon="-2.3552">
        <ele>84</ele>
        <time>2023-11-05T16:54:19Z</time>
      </trkpt>
      <trkpt lat="47.65889" lon="-2.35527">
        <ele>84</ele>
        <time>2023-11-05T16:54:32Z</time>
      </trkpt>
      <trkpt lat="47.6588" lon="-2.35528">
        <ele>84</ele>
        <time>2023-11-05T16:54:44Z</time>
      </trkpt>
      <trkpt lat="47.65809" lon="-2.35492">
        <ele>83</ele>
        <time>2023-11-05T16:56:24Z</time>
      </trkpt>
      <trkpt lat="47.65776" lon="-2.35485">
        <ele>84</ele>
        <time>2023-11-05T16:57:08Z</time>
      </trkpt>
      <trkpt lat="47.65741" lon="-2.35484">
        <ele>84</ele>
        <time>2023-11-05T16:57:55Z</time>
      </trkpt>
      <trkpt lat="47.65721" lon="-2.35486">
        <ele>84</ele>
        <time>2023-11-05T16:58:22Z</time>
      </trkpt>
      <trkpt lat="47.6569" lon="-2.35492">
        <ele>84</ele>
        <time>2023-11-05T16:59:03Z</time>
      </trkpt>
      <trkpt lat="47.65586" lon="-2.35551">
        <ele>82</ele>
        <time>2023-11-05T17:01:32Z</time>
      </trkpt>
      <trkpt lat="47.65535" lon="-2.35564">
        <ele>81</ele>
        <time>2023-11-05T17:02:41Z</time>
      </trkpt>
      <trkpt lat="47.65525" lon="-2.35563">
        <ele>81</ele>
        <time>2023-11-05T17:02:54Z</time>
      </trkpt>
      <trkpt lat="47.6549" lon="-2.35567">
        <ele>79</ele>
        <time>2023-11-05T17:03:41Z</time>
      </trkpt>
      <trkpt lat="47.65444" lon="-2.35581">
        <ele>73</ele>
        <time>2023-11-05T17:04:44Z</time>
      </trkpt>
      <trkpt lat="47.65435" lon="-2.3558">
        <ele>72</ele>
        <time>2023-11-05T17:04:56Z</time>
      </trkpt>
      <trkpt lat="47.65415" lon="-2.35571">
        <ele>70</ele>
        <time>2023-11-05T17:05:24Z</time>
      </trkpt>
      <trkpt lat="47.65403" lon="-2.35561">
        <ele>70</ele>
        <time>2023-11-05T17:05:42Z</time>
      </trkpt>
      <trkpt lat="47.65392" lon="-2.35545">
        <ele>69</ele>
        <time>2023-11-05T17:06:03Z</time>
      </trkpt>
      <trkpt lat="47.65352" lon="-2.35522">
        <ele>66</ele>
        <time>2023-11-05T17:07:00Z</time>
      </trkpt>
      <trkpt lat="47.65338" lon="-2.35522">
        <ele>64</ele>
        <time>2023-11-05T17:07:19Z</time>
      </trkpt>
      <trkpt lat="47.65315" lon="-2.35528">
        <ele>65</ele>
        <time>2023-11-05T17:07:50Z</time>
      </trkpt>
      <trkpt lat="47.65296" lon="-2.35539">
        <ele>66</ele>
        <time>2023-11-05T17:08:17Z</time>
      </trkpt>
      <trkpt lat="47.6529" lon="-2.35548">
        <ele>66</ele>
        <time>2023-11-05T17:08:28Z</time>
      </trkpt>
      <trkpt lat="47.65282" lon="-2.35593">
        <ele>65</ele>
        <time>2023-11-05T17:09:10Z</time>
      </trkpt>
      <trkpt lat="47.65278" lon="-2.35604">
        <ele>66</ele>
        <time>2023-11-05T17:09:22Z</time>
      </trkpt>
      <trkpt lat="47.65273" lon="-2.35612">
        <ele>66</ele>
        <time>2023-11-05T17:09:31Z</time>
      </trkpt>
      <trkpt lat="47.65255" lon="-2.35623">
        <ele>68</ele>
        <time>2023-11-05T17:09:57Z</time>
      </trkpt>
      <trkpt lat="47.65213" lon="-2.35626">
        <ele>73</ele>
        <time>2023-11-05T17:10:53Z</time>
      </trkpt>
      <trkpt lat="47.6519" lon="-2.35625">
        <ele>76</ele>
        <time>2023-11-05T17:11:24Z</time>
      </trkpt>
      <trkpt lat="47.65156" lon="-2.35619">
        <ele>79</ele>
        <time>2023-11-05T17:12:10Z</time>
      </trkpt>
      <trkpt lat="47.65142" lon="-2.35614">
        <ele>79</ele>
        <time>2023-11-05T17:12:29Z</time>
      </trkpt>
      <trkpt lat="47.65121" lon="-2.35612">
        <ele>80</ele>
        <time>2023-11-05T17:12:57Z</time>
      </trkpt>
      <trkpt lat="47.65098" lon="-2.35616">
        <ele>81</ele>
        <time>2023-11-05T17:13:28Z</time>
      </trkpt>
      <trkpt lat="47.65092" lon="-2.35622">
        <ele>81</ele>
        <time>2023-11-05T17:13:38Z</time>
      </trkpt>
      <trkpt lat="47.65084" lon="-2.35625">
        <ele>81</ele>
        <time>2023-11-05T17:13:49Z</time>
      </trkpt>
      <trkpt lat="47.65043" lon="-2.35621">
        <ele>83</ele>
        <time>2023-11-05T17:14:44Z</time>
      </trkpt>
      <trkpt lat="47.65038" lon="-2.35625">
        <ele>83</ele>
        <time>2023-11-05T17:14:51Z</time>
      </trkpt>
      <trkpt lat="47.65035" lon="-2.35635">
        <ele>83</ele>
        <time>2023-11-05T17:15:01Z</time>
      </trkpt>
      <trkpt lat="47.6504" lon="-2.35723">
        <ele>83</ele>
        <time>2023-11-05T17:16:20Z</time>
      </trkpt>
      <trkpt lat="47.65044" lon="-2.35768">
        <ele>83</ele>
        <time>2023-11-05T17:17:01Z</time>
      </trkpt>
      <trkpt lat="47.65048" lon="-2.35788">
        <ele>84</ele>
        <time>2023-11-05T17:17:20Z</time>
      </trkpt>
      <trkpt lat="47.65054" lon="-2.35801">
        <ele>84</ele>
        <time>2023-11-05T17:17:34Z</time>
      </trkpt>
      <trkpt lat="47.65071" lon="-2.35825">
        <ele>85</ele>
        <time>2023-11-05T17:18:05Z</time>
      </trkpt>
      <trkpt lat="47.65077" lon="-2.35839">
        <ele>85</ele>
        <time>2023-11-05T17:18:20Z</time>
      </trkpt>
      <trkpt lat="47.65084" lon="-2.35872">
        <ele>85</ele>
        <time>2023-11-05T17:18:51Z</time>
      </trkpt>
      <trkpt lat="47.65093" lon="-2.36011">
        <ele>85</ele>
        <time>2023-11-05T17:20:57Z</time>
      </trkpt>
      <trkpt lat="47.65092" lon="-2.36032">
        <ele>85</ele>
        <time>2023-11-05T17:21:16Z</time>
      </trkpt>
      <trkpt lat="47.65094" lon="-2.36038">
        <ele>85</ele>
        <time>2023-11-05T17:21:22Z</time>
      </trkpt>
      <trkpt lat="47.65099" lon="-2.36045">
        <ele>85</ele>
        <time>2023-11-05T17:21:31Z</time>
      </trkpt>
      <trkpt lat="47.65112" lon="-2.36049">
        <ele>85</ele>
        <time>2023-11-05T17:21:49Z</time>
      </trkpt>
      <trkpt lat="47.65129" lon="-2.3605">
        <ele>85</ele>
        <time>2023-11-05T17:22:11Z</time>
      </trkpt>
      <trkpt lat="47.65175" lon="-2.36045">
        <ele>83</ele>
        <time>2023-11-05T17:23:13Z</time>
      </trkpt>
      <trkpt lat="47.65184" lon="-2.36048">
        <ele>81</ele>
        <time>2023-11-05T17:23:25Z</time>
      </trkpt>
      <trkpt lat="47.65191" lon="-2.36055">
        <ele>80</ele>
        <time>2023-11-05T17:23:37Z</time>
      </trkpt>
      <trkpt lat="47.6521" lon="-2.36134">
        <ele>76</ele>
        <time>2023-11-05T17:24:52Z</time>
      </trkpt>
      <trkpt lat="47.65213" lon="-2.36161">
        <ele>75</ele>
        <time>2023-11-05T17:25:17Z</time>
      </trkpt>
      <trkpt lat="47.65235" lon="-2.36266">
        <ele>74</ele>
        <time>2023-11-05T17:26:55Z</time>
      </trkpt>
      <trkpt lat="47.65251" lon="-2.36306">
        <ele>74</ele>
        <time>2023-11-05T17:27:37Z</time>
      </trkpt>
      <trkpt lat="47.65277" lon="-2.36359">
        <ele>72</ele>
        <time>2023-11-05T17:28:36Z</time>
      </trkpt>
      <trkpt lat="47.65304" lon="-2.36404">
        <ele>69</ele>
        <time>2023-11-05T17:29:30Z</time>
      </trkpt>
      <trkpt lat="47.65322" lon="-2.36446">
        <ele>66</ele>
        <time>2023-11-05T17:30:15Z</time>
      </trkpt>
      <trkpt lat="47.65355" lon="-2.36559">
        <ele>66</ele>
        <time>2023-11-05T17:32:06Z</time>
      </trkpt>
      <trkpt lat="47.65357" lon="-2.36569">
        <ele>66</ele>
        <time>2023-11-05T17:32:15Z</time>
      </trkpt>
      <trkpt lat="47.65354" lon="-2.36577">
        <ele>66</ele>
        <time>2023-11-05T17:32:23Z</time>
      </trkpt>
      <trkpt lat="47.65349" lon="-2.36577">
        <ele>67</ele>
        <time>2023-11-05T17:32:30Z</time>
      </trkpt>
      <trkpt lat="47.65351" lon="-2.36588">
        <ele>67</ele>
        <time>2023-11-05T17:32:40Z</time>
      </trkpt>
      <trkpt lat="47.6537" lon="-2.36631">
        <ele>67</ele>
        <time>2023-11-05T17:33:27Z</time>
      </trkpt>
      <trkpt lat="47.65386" lon="-2.36692">
        <ele>68</ele>
        <time>2023-11-05T17:34:25Z</time>
      </trkpt>
      <trkpt lat="47.65391" lon="-2.36703">
        <ele>68</ele>
        <time>2023-11-05T17:34:37Z</time>
      </trkpt>
      <trkpt lat="47.65406" lon="-2.3672">
        <ele>67</ele>
        <time>2023-11-05T17:35:03Z</time>
      </trkpt>
      <trkpt lat="47.65437" lon="-2.36813">
        <ele>69</ele>
        <time>2023-11-05T17:36:36Z</time>
      </trkpt>
      <trkpt lat="47.65448" lon="-2.36854">
        <ele>70</ele>
        <time>2023-11-05T17:37:15Z</time>
      </trkpt>
      <trkpt lat="47.6545" lon="-2.3687">
        <ele>71</ele>
        <time>2023-11-05T17:37:30Z</time>
      </trkpt>
      <trkpt lat="47.65457" lon="-2.36887">
        <ele>72</ele>
        <time>2023-11-05T17:37:48Z</time>
      </trkpt>
      <trkpt lat="47.65467" lon="-2.36899">
        <ele>73</ele>
        <time>2023-11-05T17:38:05Z</time>
      </trkpt>
      <trkpt lat="47.65471" lon="-2.36911">
        <ele>74</ele>
        <time>2023-11-05T17:38:17Z</time>
      </trkpt>
      <trkpt lat="47.65469" lon="-2.36933">
        <ele>75</ele>
        <time>2023-11-05T17:38:37Z</time>
      </trkpt>
      <trkpt lat="47.6546" lon="-2.36972">
        <ele>76</ele>
        <time>2023-11-05T17:39:14Z</time>
      </trkpt>
      <trkpt lat="47.65444" lon="-2.36999">
        <ele>77</ele>
        <time>2023-11-05T17:39:47Z</time>
      </trkpt>
      <trkpt lat="47.65429" lon="-2.37019">
        <ele>78</ele>
        <time>2023-11-05T17:40:13Z</time>
      </trkpt>
      <trkpt lat="47.65413" lon="-2.37034">
        <ele>79</ele>
        <time>2023-11-05T17:40:39Z</time>
      </trkpt>
      <trkpt lat="47.65378" lon="-2.37055">
        <ele>80</ele>
        <time>2023-11-05T17:41:29Z</time>
      </trkpt>
      <trkpt lat="47.65323" lon="-2.371">
        <ele>82</ele>
        <time>2023-11-05T17:42:53Z</time>
      </trkpt>
      <trkpt lat="47.65313" lon="-2.37107">
        <ele>83</ele>
        <time>2023-11-05T17:43:08Z</time>
      </trkpt>
      <trkpt lat="47.65279" lon="-2.37123">
        <ele>83</ele>
        <time>2023-11-05T17:43:55Z</time>
      </trkpt>
      <trkpt lat="47.65273" lon="-2.37129">
        <ele>83</ele>
        <time>2023-11-05T17:44:05Z</time>
      </trkpt>
      <trkpt lat="47.65267" lon="-2.3713">
        <ele>83</ele>
        <time>2023-11-05T17:44:13Z</time>
      </trkpt>
      <trkpt lat="47.6526" lon="-2.37121">
        <ele>83</ele>
        <time>2023-11-05T17:44:25Z</time>
      </trkpt>
      <trkpt lat="47.65253" lon="-2.37079">
        <ele>83</ele>
        <time>2023-11-05T17:45:04Z</time>
      </trkpt>
      <trkpt lat="47.65249" lon="-2.37067">
        <ele>83</ele>
        <time>2023-11-05T17:45:16Z</time>
      </trkpt>
      <trkpt lat="47.65242" lon="-2.37062">
        <ele>83</ele>
        <time>2023-11-05T17:45:27Z</time>
      </trkpt>
      <trkpt lat="47.65231" lon="-2.37064">
        <ele>84</ele>
        <time>2023-11-05T17:45:41Z</time>
      </trkpt>
      <trkpt lat="47.65216" lon="-2.37073">
        <ele>85</ele>
        <time>2023-11-05T17:46:03Z</time>
      </trkpt>
      <trkpt lat="47.65202" lon="-2.37097">
        <ele>86</ele>
        <time>2023-11-05T17:46:32Z</time>
      </trkpt>
      <trkpt lat="47.65174" lon="-2.37118">
        <ele>88</ele>
        <time>2023-11-05T17:47:13Z</time>
      </trkpt>
      <trkpt lat="47.65164" lon="-2.37122">
        <ele>88</ele>
        <time>2023-11-05T17:47:27Z</time>
      </trkpt>
      <trkpt lat="47.65147" lon="-2.37115">
        <ele>88</ele>
        <time>2023-11-05T17:47:51Z</time>
      </trkpt>
      <trkpt lat="47.65133" lon="-2.37098">
        <ele>87</ele>
        <time>2023-11-05T17:48:15Z</time>
      </trkpt>
      <trkpt lat="47.65105" lon="-2.37039">
        <ele>86</ele>
        <time>2023-11-05T17:49:20Z</time>
      </trkpt>
      <trkpt lat="47.65091" lon="-2.37001">
        <ele>85</ele>
        <time>2023-11-05T17:49:59Z</time>
      </trkpt>
      <trkpt lat="47.65076" lon="-2.36945">
        <ele>86</ele>
        <time>2023-11-05T17:50:53Z</time>
      </trkpt>
      <trkpt lat="47.65067" lon="-2.36901">
        <ele>86</ele>
        <time>2023-11-05T17:51:34Z</time>
      </trkpt>
      <trkpt lat="47.65067" lon="-2.36835">
        <ele>87</ele>
        <time>2023-11-05T17:52:34Z</time>
      </trkpt>
      <trkpt lat="47.65063" lon="-2.36825">
        <ele>87</ele>
        <time>2023-11-05T17:52:44Z</time>
      </trkpt>
      <trkpt lat="47.65057" lon="-2.36819">
        <ele>87</ele>
        <time>2023-11-05T17:52:54Z</time>
      </trkpt>
      <trkpt lat="47.65049" lon="-2.36815">
        <ele>87</ele>
        <time>2023-11-05T17:53:05Z</time>
      </trkpt>
      <trkpt lat="47.65023" lon="-2.36813">
        <ele>87</ele>
        <time>2023-11-05T17:53:40Z</time>
      </trkpt>
      <trkpt lat="47.64921" lon="-2.36813">
        <ele>86</ele>
        <time>2023-11-05T17:55:56Z</time>
      </trkpt>
      <trkpt lat="47.64846" lon="-2.36809">
        <ele>85</ele>
        <time>2023-11-05T17:57:36Z</time>
      </trkpt>
      <trkpt lat="47.6482" lon="-2.36802">
        <ele>85</ele>
        <time>2023-11-05T17:58:11Z</time>
      </trkpt>
      <trkpt lat="47.64798" lon="-2.3679">
        <ele>85</ele>
        <time>2023-11-05T17:58:42Z</time>
      </trkpt>
      <trkpt lat="47.6477" lon="-2.36779">
        <ele>85</ele>
        <time>2023-11-05T17:59:21Z</time>
      </trkpt>
      <trkpt lat="47.64735" lon="-2.36772">
        <ele>84</ele>
        <time>2023-11-05T18:00:08Z</time>
      </trkpt>
      <trkpt lat="47.64679" lon="-2.36756">
        <ele>84</ele>
        <time>2023-11-05T18:01:24Z</time>
      </trkpt>
      <trkpt lat="47.6467" lon="-2.36746">
        <ele>84</ele>
        <time>2023-11-05T18:01:39Z</time>
      </trkpt>
      <trkpt lat="47.64657" lon="-2.36737">
        <ele>84</ele>
        <time>2023-11-05T18:01:59Z</time>
      </trkpt>
      <trkpt lat="47.64637" lon="-2.36715">
        <ele>83</ele>
        <time>2023-11-05T18:02:32Z</time>
      </trkpt>
      <trkpt lat="47.64434" lon="-2.3646">
        <ele>81</ele>
        <time>2023-11-05T18:08:27Z</time>
      </trkpt>
      <trkpt lat="47.64416" lon="-2.3644">
        <ele>80</ele>
        <time>2023-11-05T18:08:57Z</time>
      </trkpt>
      <trkpt lat="47.64396" lon="-2.36423">
        <ele>79</ele>
        <time>2023-11-05T18:09:27Z</time>
      </trkpt>
      <trkpt lat="47.64374" lon="-2.36409">
        <ele>79</ele>
        <time>2023-11-05T18:09:59Z</time>
      </trkpt>
      <trkpt lat="47.64322" lon="-2.36384">
        <ele>78</ele>
        <time>2023-11-05T18:11:12Z</time>
      </trkpt>
      <trkpt lat="47.64312" lon="-2.36358">
        <ele>78</ele>
        <time>2023-11-05T18:11:39Z</time>
      </trkpt>
      <trkpt lat="47.64302" lon="-2.36288">
        <ele>79</ele>
        <time>2023-11-05T18:12:44Z</time>
      </trkpt>
      <trkpt lat="47.64298" lon="-2.36277">
        <ele>79</ele>
        <time>2023-11-05T18:12:55Z</time>
      </trkpt>
      <trkpt lat="47.64294" lon="-2.36273">
        <ele>79</ele>
        <time>2023-11-05T18:13:01Z</time>
      </trkpt>
      <trkpt lat="47.64285" lon="-2.3627">
        <ele>79</ele>
        <time>2023-11-05T18:13:13Z</time>
      </trkpt>
      <trkpt lat="47.64228" lon="-2.36273">
        <ele>79</ele>
        <time>2023-11-05T18:14:30Z</time>
      </trkpt>
      <trkpt lat="47.64186" lon="-2.36265">
        <ele>78</ele>
        <time>2023-11-05T18:15:26Z</time>
      </trkpt>
      <trkpt lat="47.64127" lon="-2.36267">
        <ele>76</ele>
        <time>2023-11-05T18:16:45Z</time>
      </trkpt>
      <trkpt lat="47.64097" lon="-2.36271">
        <ele>76</ele>
        <time>2023-11-05T18:17:25Z</time>
      </trkpt>
      <trkpt lat="47.64086" lon="-2.36271">
        <ele>76</ele>
        <time>2023-11-05T18:17:40Z</time>
      </trkpt>
      <trkpt lat="47.64083" lon="-2.36269">
        <ele>75</ele>
        <time>2023-11-05T18:17:44Z</time>
      </trkpt>
    </trkseg>
  </trk>
  <trk>
    <name><![CDATA[Limerzel_SillonTrevelo_20km-9744769]]></name>
    <extensions>
      <line xmlns="http://www.topografix.com/GPX/gpx_style/0/2">
        <color>FF0000</color>
        <width>4</width>
      </line>
    </extensions>
    <trkseg>
      <trkpt lat="47.63603" lon="-2.35371">
        <ele>63</ele>
        <time>2023-11-05T10:43:19Z</time>
      </trkpt>
      <trkpt lat="47.63594" lon="-2.35397">
        <ele>63</ele>
        <time>2023-11-05T10:43:45Z</time>
      </trkpt>
      <trkpt lat="47.63556" lon="-2.35411">
        <ele>61</ele>
        <time>2023-11-05T10:44:38Z</time>
      </trkpt>
      <trkpt lat="47.63548" lon="-2.35468">
        <ele>59</ele>
        <time>2023-11-05T10:45:30Z</time>
      </trkpt>
      <trkpt lat="47.63558" lon="-2.35493">
        <ele>59</ele>
        <time>2023-11-05T10:45:56Z</time>
      </trkpt>
      <trkpt lat="47.63565" lon="-2.35524">
        <ele>59</ele>
        <time>2023-11-05T10:46:25Z</time>
      </trkpt>
      <trkpt lat="47.63565" lon="-2.35554">
        <ele>59</ele>
        <time>2023-11-05T10:46:52Z</time>
      </trkpt>
      <trkpt lat="47.6356" lon="-2.35612">
        <ele>57</ele>
        <time>2023-11-05T10:47:45Z</time>
      </trkpt>
      <trkpt lat="47.6355" lon="-2.35639">
        <ele>55</ele>
        <time>2023-11-05T10:48:13Z</time>
      </trkpt>
      <trkpt lat="47.63537" lon="-2.35664">
        <ele>54</ele>
        <time>2023-11-05T10:48:41Z</time>
      </trkpt>
      <trkpt lat="47.63532" lon="-2.35697">
        <ele>52</ele>
        <time>2023-11-05T10:49:12Z</time>
      </trkpt>
      <trkpt lat="47.63536" lon="-2.35762">
        <ele>49</ele>
        <time>2023-11-05T10:50:10Z</time>
      </trkpt>
      <trkpt lat="47.63532" lon="-2.35791">
        <ele>47</ele>
        <time>2023-11-05T10:50:37Z</time>
      </trkpt>
      <trkpt lat="47.63534" lon="-2.35819">
        <ele>45</ele>
        <time>2023-11-05T10:51:02Z</time>
      </trkpt>
      <trkpt lat="47.63533" lon="-2.35853">
        <ele>43</ele>
        <time>2023-11-05T10:51:33Z</time>
      </trkpt>
      <trkpt lat="47.63548" lon="-2.35873">
        <ele>43</ele>
        <time>2023-11-05T10:52:00Z</time>
      </trkpt>
      <trkpt lat="47.63589" lon="-2.3588">
        <ele>45</ele>
        <time>2023-11-05T10:52:55Z</time>
      </trkpt>
      <trkpt lat="47.63608" lon="-2.35893">
        <ele>48</ele>
        <time>2023-11-05T10:53:23Z</time>
      </trkpt>
      <trkpt lat="47.63622" lon="-2.35913">
        <ele>49</ele>
        <time>2023-11-05T10:53:49Z</time>
      </trkpt>
      <trkpt lat="47.63619" lon="-2.35941">
        <ele>50</ele>
        <time>2023-11-05T10:54:14Z</time>
      </trkpt>
      <trkpt lat="47.63583" lon="-2.35969">
        <ele>47</ele>
        <time>2023-11-05T10:55:08Z</time>
      </trkpt>
      <trkpt lat="47.63564" lon="-2.35978">
        <ele>46</ele>
        <time>2023-11-05T10:55:35Z</time>
      </trkpt>
      <trkpt lat="47.63489" lon="-2.36024">
        <ele>40</ele>
        <time>2023-11-05T10:57:23Z</time>
      </trkpt>
      <trkpt lat="47.63439" lon="-2.36083">
        <ele>39</ele>
        <time>2023-11-05T10:58:48Z</time>
      </trkpt>
      <trkpt lat="47.63397" lon="-2.36145">
        <ele>39</ele>
        <time>2023-11-05T11:00:08Z</time>
      </trkpt>
      <trkpt lat="47.63385" lon="-2.36169">
        <ele>39</ele>
        <time>2023-11-05T11:00:34Z</time>
      </trkpt>
      <trkpt lat="47.6335" lon="-2.36246">
        <ele>40</ele>
        <time>2023-11-05T11:01:58Z</time>
      </trkpt>
      <trkpt lat="47.63333" lon="-2.36304">
        <ele>40</ele>
        <time>2023-11-05T11:02:55Z</time>
      </trkpt>
      <trkpt lat="47.6328" lon="-2.36583">
        <ele>32</ele>
        <time>2023-11-05T11:07:15Z</time>
      </trkpt>
      <trkpt lat="47.63266" lon="-2.36634">
        <ele>30</ele>
        <time>2023-11-05T11:08:05Z</time>
      </trkpt>
      <trkpt lat="47.63256" lon="-2.3666">
        <ele>29</ele>
        <time>2023-11-05T11:08:32Z</time>
      </trkpt>
      <trkpt lat="47.63237" lon="-2.36685">
        <ele>28</ele>
        <time>2023-11-05T11:09:06Z</time>
      </trkpt>
      <trkpt lat="47.63222" lon="-2.36714">
        <ele>28</ele>
        <time>2023-11-05T11:09:39Z</time>
      </trkpt>
      <trkpt lat="47.6319" lon="-2.36756">
        <ele>26</ele>
        <time>2023-11-05T11:10:36Z</time>
      </trkpt>
      <trkpt lat="47.63179" lon="-2.36779">
        <ele>25</ele>
        <time>2023-11-05T11:11:01Z</time>
      </trkpt>
      <trkpt lat="47.63158" lon="-2.36834">
        <ele>25</ele>
        <time>2023-11-05T11:11:58Z</time>
      </trkpt>
      <trkpt lat="47.63141" lon="-2.36898">
        <ele>28</ele>
        <time>2023-11-05T11:13:00Z</time>
      </trkpt>
      <trkpt lat="47.63135" lon="-2.36933">
        <ele>28</ele>
        <time>2023-11-05T11:13:32Z</time>
      </trkpt>
      <trkpt lat="47.63126" lon="-2.36958">
        <ele>28</ele>
        <time>2023-11-05T11:13:58Z</time>
      </trkpt>
      <trkpt lat="47.63103" lon="-2.36963">
        <ele>27</ele>
        <time>2023-11-05T11:14:29Z</time>
      </trkpt>
      <trkpt lat="47.63086" lon="-2.36956">
        <ele>28</ele>
        <time>2023-11-05T11:14:52Z</time>
      </trkpt>
      <trkpt lat="47.63079" lon="-2.36897">
        <ele>31</ele>
        <time>2023-11-05T11:15:46Z</time>
      </trkpt>
      <trkpt lat="47.63087" lon="-2.36871">
        <ele>31</ele>
        <time>2023-11-05T11:16:12Z</time>
      </trkpt>
      <trkpt lat="47.6309" lon="-2.36844">
        <ele>31</ele>
        <time>2023-11-05T11:16:36Z</time>
      </trkpt>
      <trkpt lat="47.6309" lon="-2.36813">
        <ele>31</ele>
        <time>2023-11-05T11:17:04Z</time>
      </trkpt>
      <trkpt lat="47.63085" lon="-2.36724">
        <ele>28</ele>
        <time>2023-11-05T11:18:25Z</time>
      </trkpt>
      <trkpt lat="47.6308" lon="-2.36696">
        <ele>26</ele>
        <time>2023-11-05T11:18:51Z</time>
      </trkpt>
      <trkpt lat="47.63078" lon="-2.36664">
        <ele>25</ele>
        <time>2023-11-05T11:19:20Z</time>
      </trkpt>
      <trkpt lat="47.63055" lon="-2.36581">
        <ele>25</ele>
        <time>2023-11-05T11:20:40Z</time>
      </trkpt>
      <trkpt lat="47.63053" lon="-2.36554">
        <ele>24</ele>
        <time>2023-11-05T11:21:05Z</time>
      </trkpt>
      <trkpt lat="47.63044" lon="-2.36529">
        <ele>25</ele>
        <time>2023-11-05T11:21:30Z</time>
      </trkpt>
      <trkpt lat="47.63018" lon="-2.36477">
        <ele>27</ele>
        <time>2023-11-05T11:22:28Z</time>
      </trkpt>
      <trkpt lat="47.63011" lon="-2.36451">
        <ele>26</ele>
        <time>2023-11-05T11:22:54Z</time>
      </trkpt>
      <trkpt lat="47.62999" lon="-2.36431">
        <ele>26</ele>
        <time>2023-11-05T11:23:18Z</time>
      </trkpt>
      <trkpt lat="47.62981" lon="-2.36426">
        <ele>29</ele>
        <time>2023-11-05T11:23:42Z</time>
      </trkpt>
      <trkpt lat="47.62961" lon="-2.36425">
        <ele>32</ele>
        <time>2023-11-05T11:24:09Z</time>
      </trkpt>
      <trkpt lat="47.62901" lon="-2.36428">
        <ele>38</ele>
        <time>2023-11-05T11:25:29Z</time>
      </trkpt>
      <trkpt lat="47.62879" lon="-2.36434">
        <ele>39</ele>
        <time>2023-11-05T11:25:59Z</time>
      </trkpt>
      <trkpt lat="47.62836" lon="-2.36433">
        <ele>40</ele>
        <time>2023-11-05T11:26:56Z</time>
      </trkpt>
      <trkpt lat="47.62817" lon="-2.36429">
        <ele>41</ele>
        <time>2023-11-05T11:27:22Z</time>
      </trkpt>
      <trkpt lat="47.62795" lon="-2.3643">
        <ele>43</ele>
        <time>2023-11-05T11:27:51Z</time>
      </trkpt>
      <trkpt lat="47.62756" lon="-2.36438">
        <ele>45</ele>
        <time>2023-11-05T11:28:44Z</time>
      </trkpt>
      <trkpt lat="47.62712" lon="-2.36452">
        <ele>48</ele>
        <time>2023-11-05T11:29:44Z</time>
      </trkpt>
      <trkpt lat="47.6267" lon="-2.36461">
        <ele>50</ele>
        <time>2023-11-05T11:30:40Z</time>
      </trkpt>
      <trkpt lat="47.62613" lon="-2.36494">
        <ele>55</ele>
        <time>2023-11-05T11:32:02Z</time>
      </trkpt>
      <trkpt lat="47.62571" lon="-2.36495">
        <ele>58</ele>
        <time>2023-11-05T11:32:58Z</time>
      </trkpt>
      <trkpt lat="47.62552" lon="-2.36502">
        <ele>59</ele>
        <time>2023-11-05T11:33:24Z</time>
      </trkpt>
      <trkpt lat="47.6251" lon="-2.36505">
        <ele>61</ele>
        <time>2023-11-05T11:34:20Z</time>
      </trkpt>
      <trkpt lat="47.62471" lon="-2.36521">
        <ele>61</ele>
        <time>2023-11-05T11:35:14Z</time>
      </trkpt>
      <trkpt lat="47.62452" lon="-2.36534">
        <ele>62</ele>
        <time>2023-11-05T11:35:42Z</time>
      </trkpt>
      <trkpt lat="47.6243" lon="-2.36538">
        <ele>62</ele>
        <time>2023-11-05T11:36:12Z</time>
      </trkpt>
      <trkpt lat="47.62392" lon="-2.3655">
        <ele>64</ele>
        <time>2023-11-05T11:37:04Z</time>
      </trkpt>
      <trkpt lat="47.6237" lon="-2.36553">
        <ele>64</ele>
        <time>2023-11-05T11:37:33Z</time>
      </trkpt>
      <trkpt lat="47.62328" lon="-2.36566">
        <ele>66</ele>
        <time>2023-11-05T11:38:30Z</time>
      </trkpt>
      <trkpt lat="47.62306" lon="-2.36569">
        <ele>66</ele>
        <time>2023-11-05T11:39:00Z</time>
      </trkpt>
      <trkpt lat="47.62288" lon="-2.36576">
        <ele>66</ele>
        <time>2023-11-05T11:39:25Z</time>
      </trkpt>
      <trkpt lat="47.62275" lon="-2.36599">
        <ele>66</ele>
        <time>2023-11-05T11:39:52Z</time>
      </trkpt>
      <trkpt lat="47.62275" lon="-2.3663">
        <ele>67</ele>
        <time>2023-11-05T11:40:20Z</time>
      </trkpt>
      <trkpt lat="47.62264" lon="-2.36657">
        <ele>68</ele>
        <time>2023-11-05T11:40:48Z</time>
      </trkpt>
      <trkpt lat="47.62257" lon="-2.36713">
        <ele>70</ele>
        <time>2023-11-05T11:41:39Z</time>
      </trkpt>
      <trkpt lat="47.62254" lon="-2.36743">
        <ele>72</ele>
        <time>2023-11-05T11:42:07Z</time>
      </trkpt>
      <trkpt lat="47.62256" lon="-2.36772">
        <ele>71</ele>
        <time>2023-11-05T11:42:33Z</time>
      </trkpt>
      <trkpt lat="47.62254" lon="-2.36832">
        <ele>70</ele>
        <time>2023-11-05T11:43:27Z</time>
      </trkpt>
      <trkpt lat="47.62249" lon="-2.36887">
        <ele>71</ele>
        <time>2023-11-05T11:44:17Z</time>
      </trkpt>
      <trkpt lat="47.6225" lon="-2.36859">
        <ele>71</ele>
        <time>2023-11-05T11:44:42Z</time>
      </trkpt>
      <trkpt lat="47.62254" lon="-2.36886">
        <ele>71</ele>
        <time>2023-11-05T11:45:07Z</time>
      </trkpt>
      <trkpt lat="47.62242" lon="-2.3695">
        <ele>72</ele>
        <time>2023-11-05T11:46:07Z</time>
      </trkpt>
      <trkpt lat="47.62239" lon="-2.36979">
        <ele>73</ele>
        <time>2023-11-05T11:46:33Z</time>
      </trkpt>
      <trkpt lat="47.62244" lon="-2.37009">
        <ele>73</ele>
        <time>2023-11-05T11:47:01Z</time>
      </trkpt>
      <trkpt lat="47.62258" lon="-2.37035">
        <ele>72</ele>
        <time>2023-11-05T11:47:31Z</time>
      </trkpt>
      <trkpt lat="47.62246" lon="-2.37059">
        <ele>72</ele>
        <time>2023-11-05T11:47:58Z</time>
      </trkpt>
      <trkpt lat="47.62245" lon="-2.37092">
        <ele>72</ele>
        <time>2023-11-05T11:48:27Z</time>
      </trkpt>
      <trkpt lat="47.62254" lon="-2.37117">
        <ele>70</ele>
        <time>2023-11-05T11:48:53Z</time>
      </trkpt>
      <trkpt lat="47.62259" lon="-2.37147">
        <ele>69</ele>
        <time>2023-11-05T11:49:21Z</time>
      </trkpt>
      <trkpt lat="47.6226" lon="-2.37178">
        <ele>67</ele>
        <time>2023-11-05T11:49:48Z</time>
      </trkpt>
      <trkpt lat="47.62258" lon="-2.37208">
        <ele>64</ele>
        <time>2023-11-05T11:50:16Z</time>
      </trkpt>
      <trkpt lat="47.62253" lon="-2.37234">
        <ele>61</ele>
        <time>2023-11-05T11:50:40Z</time>
      </trkpt>
      <trkpt lat="47.62253" lon="-2.37261">
        <ele>59</ele>
        <time>2023-11-05T11:51:04Z</time>
      </trkpt>
      <trkpt lat="47.62242" lon="-2.37282">
        <ele>59</ele>
        <time>2023-11-05T11:51:28Z</time>
      </trkpt>
      <trkpt lat="47.62202" lon="-2.37279">
        <ele>61</ele>
        <time>2023-11-05T11:52:22Z</time>
      </trkpt>
      <trkpt lat="47.62143" lon="-2.37286">
        <ele>64</ele>
        <time>2023-11-05T11:53:41Z</time>
      </trkpt>
      <trkpt lat="47.62084" lon="-2.37312">
        <ele>66</ele>
        <time>2023-11-05T11:55:03Z</time>
      </trkpt>
      <trkpt lat="47.62067" lon="-2.37334">
        <ele>66</ele>
        <time>2023-11-05T11:55:33Z</time>
      </trkpt>
      <trkpt lat="47.62054" lon="-2.37358">
        <ele>66</ele>
        <time>2023-11-05T11:56:00Z</time>
      </trkpt>
      <trkpt lat="47.62057" lon="-2.37389">
        <ele>66</ele>
        <time>2023-11-05T11:56:29Z</time>
      </trkpt>
      <trkpt lat="47.6208" lon="-2.37471">
        <ele>67</ele>
        <time>2023-11-05T11:57:48Z</time>
      </trkpt>
      <trkpt lat="47.62081" lon="-2.37499">
        <ele>68</ele>
        <time>2023-11-05T11:58:14Z</time>
      </trkpt>
      <trkpt lat="47.62068" lon="-2.37525">
        <ele>70</ele>
        <time>2023-11-05T11:58:43Z</time>
      </trkpt>
      <trkpt lat="47.6205" lon="-2.37533">
        <ele>71</ele>
        <time>2023-11-05T11:59:08Z</time>
      </trkpt>
      <trkpt lat="47.62031" lon="-2.37545">
        <ele>73</ele>
        <time>2023-11-05T11:59:35Z</time>
      </trkpt>
      <trkpt lat="47.62021" lon="-2.37569">
        <ele>75</ele>
        <time>2023-11-05T12:00:01Z</time>
      </trkpt>
      <trkpt lat="47.6202" lon="-2.37597">
        <ele>75</ele>
        <time>2023-11-05T12:00:26Z</time>
      </trkpt>
      <trkpt lat="47.62024" lon="-2.37624">
        <ele>75</ele>
        <time>2023-11-05T12:00:51Z</time>
      </trkpt>
      <trkpt lat="47.62039" lon="-2.37685">
        <ele>74</ele>
        <time>2023-11-05T12:01:49Z</time>
      </trkpt>
      <trkpt lat="47.62054" lon="-2.37811">
        <ele>74</ele>
        <time>2023-11-05T12:03:44Z</time>
      </trkpt>
      <trkpt lat="47.62071" lon="-2.379">
        <ele>75</ele>
        <time>2023-11-05T12:05:08Z</time>
      </trkpt>
      <trkpt lat="47.62139" lon="-2.38131">
        <ele>78</ele>
        <time>2023-11-05T12:08:54Z</time>
      </trkpt>
      <trkpt lat="47.6215" lon="-2.38157">
        <ele>78</ele>
        <time>2023-11-05T12:09:22Z</time>
      </trkpt>
      <trkpt lat="47.62164" lon="-2.38212">
        <ele>78</ele>
        <time>2023-11-05T12:10:15Z</time>
      </trkpt>
      <trkpt lat="47.62202" lon="-2.38238">
        <ele>78</ele>
        <time>2023-11-05T12:11:11Z</time>
      </trkpt>
      <trkpt lat="47.62222" lon="-2.38244">
        <ele>78</ele>
        <time>2023-11-05T12:11:38Z</time>
      </trkpt>
      <trkpt lat="47.62241" lon="-2.38236">
        <ele>77</ele>
        <time>2023-11-05T12:12:04Z</time>
      </trkpt>
      <trkpt lat="47.62252" lon="-2.38258">
        <ele>78</ele>
        <time>2023-11-05T12:12:29Z</time>
      </trkpt>
      <trkpt lat="47.62253" lon="-2.38288">
        <ele>80</ele>
        <time>2023-11-05T12:12:56Z</time>
      </trkpt>
      <trkpt lat="47.62272" lon="-2.38287">
        <ele>77</ele>
        <time>2023-11-05T12:13:21Z</time>
      </trkpt>
      <trkpt lat="47.62312" lon="-2.38272">
        <ele>69</ele>
        <time>2023-11-05T12:14:16Z</time>
      </trkpt>
      <trkpt lat="47.62331" lon="-2.38275">
        <ele>66</ele>
        <time>2023-11-05T12:14:42Z</time>
      </trkpt>
      <trkpt lat="47.6235" lon="-2.38289">
        <ele>66</ele>
        <time>2023-11-05T12:15:10Z</time>
      </trkpt>
      <trkpt lat="47.62367" lon="-2.38344">
        <ele>67</ele>
        <time>2023-11-05T12:16:05Z</time>
      </trkpt>
      <trkpt lat="47.62389" lon="-2.38459">
        <ele>70</ele>
        <time>2023-11-05T12:17:52Z</time>
      </trkpt>
      <trkpt lat="47.62399" lon="-2.38484">
        <ele>71</ele>
        <time>2023-11-05T12:18:18Z</time>
      </trkpt>
      <trkpt lat="47.62423" lon="-2.38525">
        <ele>72</ele>
        <time>2023-11-05T12:19:07Z</time>
      </trkpt>
      <trkpt lat="47.62422" lon="-2.38554">
        <ele>74</ele>
        <time>2023-11-05T12:19:33Z</time>
      </trkpt>
      <trkpt lat="47.62417" lon="-2.38582">
        <ele>76</ele>
        <time>2023-11-05T12:19:59Z</time>
      </trkpt>
      <trkpt lat="47.62428" lon="-2.38644">
        <ele>79</ele>
        <time>2023-11-05T12:20:57Z</time>
      </trkpt>
      <trkpt lat="47.62456" lon="-2.38758">
        <ele>84</ele>
        <time>2023-11-05T12:22:46Z</time>
      </trkpt>
      <trkpt lat="47.62466" lon="-2.38816">
        <ele>87</ele>
        <time>2023-11-05T12:23:40Z</time>
      </trkpt>
      <trkpt lat="47.62466" lon="-2.38849">
        <ele>87</ele>
        <time>2023-11-05T12:24:10Z</time>
      </trkpt>
      <trkpt lat="47.6247" lon="-2.38876">
        <ele>87</ele>
        <time>2023-11-05T12:24:34Z</time>
      </trkpt>
      <trkpt lat="47.62454" lon="-2.3889">
        <ele>85</ele>
        <time>2023-11-05T12:24:59Z</time>
      </trkpt>
      <trkpt lat="47.62472" lon="-2.38897">
        <ele>87</ele>
        <time>2023-11-05T12:25:24Z</time>
      </trkpt>
      <trkpt lat="47.62487" lon="-2.38951">
        <ele>88</ele>
        <time>2023-11-05T12:26:17Z</time>
      </trkpt>
      <trkpt lat="47.62502" lon="-2.38977">
        <ele>89</ele>
        <time>2023-11-05T12:26:47Z</time>
      </trkpt>
      <trkpt lat="47.62523" lon="-2.3897">
        <ele>92</ele>
        <time>2023-11-05T12:27:16Z</time>
      </trkpt>
      <trkpt lat="47.6254" lon="-2.3895">
        <ele>95</ele>
        <time>2023-11-05T12:27:45Z</time>
      </trkpt>
      <trkpt lat="47.62581" lon="-2.38949">
        <ele>100</ele>
        <time>2023-11-05T12:28:40Z</time>
      </trkpt>
      <trkpt lat="47.62595" lon="-2.38968">
        <ele>98</ele>
        <time>2023-11-05T12:29:05Z</time>
      </trkpt>
      <trkpt lat="47.62585" lon="-2.38992">
        <ele>97</ele>
        <time>2023-11-05T12:29:30Z</time>
      </trkpt>
      <trkpt lat="47.62574" lon="-2.39046">
        <ele>94</ele>
        <time>2023-11-05T12:30:21Z</time>
      </trkpt>
      <trkpt lat="47.62574" lon="-2.39073">
        <ele>93</ele>
        <time>2023-11-05T12:30:46Z</time>
      </trkpt>
      <trkpt lat="47.62604" lon="-2.39117">
        <ele>94</ele>
        <time>2023-11-05T12:31:42Z</time>
      </trkpt>
      <trkpt lat="47.62616" lon="-2.39143">
        <ele>95</ele>
        <time>2023-11-05T12:32:10Z</time>
      </trkpt>
      <trkpt lat="47.62624" lon="-2.39168">
        <ele>95</ele>
        <time>2023-11-05T12:32:35Z</time>
      </trkpt>
      <trkpt lat="47.62636" lon="-2.39189">
        <ele>95</ele>
        <time>2023-11-05T12:33:00Z</time>
      </trkpt>
      <trkpt lat="47.62651" lon="-2.39176">
        <ele>96</ele>
        <time>2023-11-05T12:33:23Z</time>
      </trkpt>
      <trkpt lat="47.6267" lon="-2.39171">
        <ele>97</ele>
        <time>2023-11-05T12:33:49Z</time>
      </trkpt>
      <trkpt lat="47.6271" lon="-2.39153">
        <ele>93</ele>
        <time>2023-11-05T12:34:44Z</time>
      </trkpt>
      <trkpt lat="47.62728" lon="-2.39135">
        <ele>91</ele>
        <time>2023-11-05T12:35:13Z</time>
      </trkpt>
      <trkpt lat="47.62747" lon="-2.39134">
        <ele>89</ele>
        <time>2023-11-05T12:35:39Z</time>
      </trkpt>
      <trkpt lat="47.62786" lon="-2.39117">
        <ele>83</ele>
        <time>2023-11-05T12:36:33Z</time>
      </trkpt>
      <trkpt lat="47.62801" lon="-2.39103">
        <ele>80</ele>
        <time>2023-11-05T12:36:57Z</time>
      </trkpt>
      <trkpt lat="47.62818" lon="-2.39117">
        <ele>78</ele>
        <time>2023-11-05T12:37:23Z</time>
      </trkpt>
      <trkpt lat="47.62833" lon="-2.39138">
        <ele>77</ele>
        <time>2023-11-05T12:37:50Z</time>
      </trkpt>
      <trkpt lat="47.62853" lon="-2.39134">
        <ele>75</ele>
        <time>2023-11-05T12:38:17Z</time>
      </trkpt>
      <trkpt lat="47.62886" lon="-2.39099">
        <ele>72</ele>
        <time>2023-11-05T12:39:11Z</time>
      </trkpt>
      <trkpt lat="47.6296" lon="-2.39063">
        <ele>70</ele>
        <time>2023-11-05T12:40:55Z</time>
      </trkpt>
      <trkpt lat="47.62959" lon="-2.39034">
        <ele>69</ele>
        <time>2023-11-05T12:41:21Z</time>
      </trkpt>
      <trkpt lat="47.62952" lon="-2.39009">
        <ele>69</ele>
        <time>2023-11-05T12:41:46Z</time>
      </trkpt>
      <trkpt lat="47.62932" lon="-2.38962">
        <ele>69</ele>
        <time>2023-11-05T12:42:36Z</time>
      </trkpt>
      <trkpt lat="47.62931" lon="-2.38929">
        <ele>70</ele>
        <time>2023-11-05T12:43:05Z</time>
      </trkpt>
      <trkpt lat="47.62917" lon="-2.38874">
        <ele>70</ele>
        <time>2023-11-05T12:43:58Z</time>
      </trkpt>
      <trkpt lat="47.62917" lon="-2.38841">
        <ele>70</ele>
        <time>2023-11-05T12:44:28Z</time>
      </trkpt>
      <trkpt lat="47.62931" lon="-2.38692">
        <ele>75</ele>
        <time>2023-11-05T12:46:43Z</time>
      </trkpt>
      <trkpt lat="47.62944" lon="-2.38605">
        <ele>76</ele>
        <time>2023-11-05T12:48:03Z</time>
      </trkpt>
      <trkpt lat="47.62946" lon="-2.38576">
        <ele>76</ele>
        <time>2023-11-05T12:48:30Z</time>
      </trkpt>
      <trkpt lat="47.62959" lon="-2.38552">
        <ele>76</ele>
        <time>2023-11-05T12:48:57Z</time>
      </trkpt>
      <trkpt lat="47.6298" lon="-2.38556">
        <ele>75</ele>
        <time>2023-11-05T12:49:25Z</time>
      </trkpt>
      <trkpt lat="47.62972" lon="-2.38526">
        <ele>75</ele>
        <time>2023-11-05T12:49:55Z</time>
      </trkpt>
      <trkpt lat="47.62959" lon="-2.385">
        <ele>76</ele>
        <time>2023-11-05T12:50:24Z</time>
      </trkpt>
      <trkpt lat="47.62915" lon="-2.38431">
        <ele>76</ele>
        <time>2023-11-05T12:51:49Z</time>
      </trkpt>
      <trkpt lat="47.62888" lon="-2.38382">
        <ele>76</ele>
        <time>2023-11-05T12:52:46Z</time>
      </trkpt>
      <trkpt lat="47.62876" lon="-2.38354">
        <ele>77</ele>
        <time>2023-11-05T12:53:16Z</time>
      </trkpt>
      <trkpt lat="47.62861" lon="-2.38334">
        <ele>77</ele>
        <time>2023-11-05T12:53:43Z</time>
      </trkpt>
      <trkpt lat="47.6285" lon="-2.38312">
        <ele>76</ele>
        <time>2023-11-05T12:54:07Z</time>
      </trkpt>
      <trkpt lat="47.62893" lon="-2.38378">
        <ele>76</ele>
        <time>2023-11-05T12:55:30Z</time>
      </trkpt>
      <trkpt lat="47.62919" lon="-2.38424">
        <ele>76</ele>
        <time>2023-11-05T12:56:24Z</time>
      </trkpt>
      <trkpt lat="47.62935" lon="-2.38442">
        <ele>76</ele>
        <time>2023-11-05T12:56:51Z</time>
      </trkpt>
      <trkpt lat="47.62959" lon="-2.3849">
        <ele>76</ele>
        <time>2023-11-05T12:57:44Z</time>
      </trkpt>
      <trkpt lat="47.62998" lon="-2.38549">
        <ele>74</ele>
        <time>2023-11-05T12:58:59Z</time>
      </trkpt>
      <trkpt lat="47.63055" lon="-2.38463">
        <ele>72</ele>
        <time>2023-11-05T13:00:47Z</time>
      </trkpt>
      <trkpt lat="47.63067" lon="-2.3844">
        <ele>71</ele>
        <time>2023-11-05T13:01:13Z</time>
      </trkpt>
      <trkpt lat="47.63072" lon="-2.3841">
        <ele>71</ele>
        <time>2023-11-05T13:01:41Z</time>
      </trkpt>
      <trkpt lat="47.63069" lon="-2.38383">
        <ele>71</ele>
        <time>2023-11-05T13:02:06Z</time>
      </trkpt>
      <trkpt lat="47.63037" lon="-2.38344">
        <ele>73</ele>
        <time>2023-11-05T13:03:01Z</time>
      </trkpt>
      <trkpt lat="47.63025" lon="-2.38323">
        <ele>74</ele>
        <time>2023-11-05T13:03:26Z</time>
      </trkpt>
      <trkpt lat="47.63013" lon="-2.38269">
        <ele>75</ele>
        <time>2023-11-05T13:04:17Z</time>
      </trkpt>
      <trkpt lat="47.63025" lon="-2.38246">
        <ele>74</ele>
        <time>2023-11-05T13:04:43Z</time>
      </trkpt>
      <trkpt lat="47.63045" lon="-2.38245">
        <ele>71</ele>
        <time>2023-11-05T13:05:10Z</time>
      </trkpt>
      <trkpt lat="47.63065" lon="-2.38248">
        <ele>69</ele>
        <time>2023-11-05T13:05:37Z</time>
      </trkpt>
      <trkpt lat="47.63084" lon="-2.38241">
        <ele>66</ele>
        <time>2023-11-05T13:06:03Z</time>
      </trkpt>
      <trkpt lat="47.63105" lon="-2.38238">
        <ele>62</ele>
        <time>2023-11-05T13:06:31Z</time>
      </trkpt>
      <trkpt lat="47.63123" lon="-2.38239">
        <ele>59</ele>
        <time>2023-11-05T13:06:55Z</time>
      </trkpt>
      <trkpt lat="47.63132" lon="-2.38212">
        <ele>56</ele>
        <time>2023-11-05T13:07:22Z</time>
      </trkpt>
      <trkpt lat="47.63144" lon="-2.38191">
        <ele>52</ele>
        <time>2023-11-05T13:07:47Z</time>
      </trkpt>
      <trkpt lat="47.63159" lon="-2.38214">
        <ele>51</ele>
        <time>2023-11-05T13:08:16Z</time>
      </trkpt>
      <trkpt lat="47.6317" lon="-2.38237">
        <ele>51</ele>
        <time>2023-11-05T13:08:41Z</time>
      </trkpt>
      <trkpt lat="47.63208" lon="-2.38263">
        <ele>46</ele>
        <time>2023-11-05T13:09:37Z</time>
      </trkpt>
      <trkpt lat="47.63227" lon="-2.38312">
        <ele>45</ele>
        <time>2023-11-05T13:10:28Z</time>
      </trkpt>
      <trkpt lat="47.63265" lon="-2.38316">
        <ele>39</ele>
        <time>2023-11-05T13:11:18Z</time>
      </trkpt>
      <trkpt lat="47.63288" lon="-2.38329">
        <ele>38</ele>
        <time>2023-11-05T13:11:51Z</time>
      </trkpt>
      <trkpt lat="47.63304" lon="-2.38345">
        <ele>37</ele>
        <time>2023-11-05T13:12:17Z</time>
      </trkpt>
      <trkpt lat="47.63316" lon="-2.38369">
        <ele>37</ele>
        <time>2023-11-05T13:12:44Z</time>
      </trkpt>
      <trkpt lat="47.63333" lon="-2.38375">
        <ele>36</ele>
        <time>2023-11-05T13:13:07Z</time>
      </trkpt>
      <trkpt lat="47.63352" lon="-2.38376">
        <ele>38</ele>
        <time>2023-11-05T13:13:33Z</time>
      </trkpt>
      <trkpt lat="47.63366" lon="-2.38356">
        <ele>39</ele>
        <time>2023-11-05T13:13:59Z</time>
      </trkpt>
      <trkpt lat="47.63374" lon="-2.38329">
        <ele>39</ele>
        <time>2023-11-05T13:14:25Z</time>
      </trkpt>
      <trkpt lat="47.63393" lon="-2.38331">
        <ele>42</ele>
        <time>2023-11-05T13:14:51Z</time>
      </trkpt>
      <trkpt lat="47.63436" lon="-2.38401">
        <ele>45</ele>
        <time>2023-11-05T13:16:16Z</time>
      </trkpt>
      <trkpt lat="47.63438" lon="-2.38461">
        <ele>46</ele>
        <time>2023-11-05T13:17:10Z</time>
      </trkpt>
      <trkpt lat="47.63444" lon="-2.38487">
        <ele>46</ele>
        <time>2023-11-05T13:17:34Z</time>
      </trkpt>
      <trkpt lat="47.63453" lon="-2.38512">
        <ele>47</ele>
        <time>2023-11-05T13:18:00Z</time>
      </trkpt>
      <trkpt lat="47.63454" lon="-2.38539">
        <ele>47</ele>
        <time>2023-11-05T13:18:24Z</time>
      </trkpt>
      <trkpt lat="47.63441" lon="-2.3866">
        <ele>43</ele>
        <time>2023-11-05T13:20:14Z</time>
      </trkpt>
      <trkpt lat="47.63433" lon="-2.38689">
        <ele>41</ele>
        <time>2023-11-05T13:20:43Z</time>
      </trkpt>
      <trkpt lat="47.63428" lon="-2.3872">
        <ele>40</ele>
        <time>2023-11-05T13:21:11Z</time>
      </trkpt>
      <trkpt lat="47.63465" lon="-2.38748">
        <ele>45</ele>
        <time>2023-11-05T13:22:07Z</time>
      </trkpt>
      <trkpt lat="47.63479" lon="-2.38769">
        <ele>47</ele>
        <time>2023-11-05T13:22:33Z</time>
      </trkpt>
      <trkpt lat="47.63489" lon="-2.38793">
        <ele>47</ele>
        <time>2023-11-05T13:22:59Z</time>
      </trkpt>
      <trkpt lat="47.63501" lon="-2.38814">
        <ele>46</ele>
        <time>2023-11-05T13:23:23Z</time>
      </trkpt>
      <trkpt lat="47.63512" lon="-2.38903">
        <ele>45</ele>
        <time>2023-11-05T13:24:45Z</time>
      </trkpt>
      <trkpt lat="47.6352" lon="-2.38933">
        <ele>47</ele>
        <time>2023-11-05T13:25:14Z</time>
      </trkpt>
      <trkpt lat="47.63531" lon="-2.38958">
        <ele>49</ele>
        <time>2023-11-05T13:25:41Z</time>
      </trkpt>
      <trkpt lat="47.63531" lon="-2.38987">
        <ele>50</ele>
        <time>2023-11-05T13:26:07Z</time>
      </trkpt>
      <trkpt lat="47.63543" lon="-2.39042">
        <ele>52</ele>
        <time>2023-11-05T13:26:59Z</time>
      </trkpt>
      <trkpt lat="47.63546" lon="-2.39073">
        <ele>52</ele>
        <time>2023-11-05T13:27:27Z</time>
      </trkpt>
      <trkpt lat="47.63561" lon="-2.39128">
        <ele>52</ele>
        <time>2023-11-05T13:28:20Z</time>
      </trkpt>
      <trkpt lat="47.63578" lon="-2.39146">
        <ele>51</ele>
        <time>2023-11-05T13:28:48Z</time>
      </trkpt>
      <trkpt lat="47.63595" lon="-2.39158">
        <ele>50</ele>
        <time>2023-11-05T13:29:13Z</time>
      </trkpt>
      <trkpt lat="47.63613" lon="-2.39164">
        <ele>50</ele>
        <time>2023-11-05T13:29:38Z</time>
      </trkpt>
      <trkpt lat="47.63628" lon="-2.39151">
        <ele>51</ele>
        <time>2023-11-05T13:30:01Z</time>
      </trkpt>
      <trkpt lat="47.63649" lon="-2.39157">
        <ele>51</ele>
        <time>2023-11-05T13:30:30Z</time>
      </trkpt>
      <trkpt lat="47.63663" lon="-2.39175">
        <ele>51</ele>
        <time>2023-11-05T13:30:54Z</time>
      </trkpt>
      <trkpt lat="47.63687" lon="-2.39219">
        <ele>50</ele>
        <time>2023-11-05T13:31:45Z</time>
      </trkpt>
      <trkpt lat="47.63696" lon="-2.39247">
        <ele>50</ele>
        <time>2023-11-05T13:32:13Z</time>
      </trkpt>
      <trkpt lat="47.63702" lon="-2.39276">
        <ele>50</ele>
        <time>2023-11-05T13:32:40Z</time>
      </trkpt>
      <trkpt lat="47.6371" lon="-2.39341">
        <ele>49</ele>
        <time>2023-11-05T13:33:40Z</time>
      </trkpt>
      <trkpt lat="47.6371" lon="-2.39372">
        <ele>48</ele>
        <time>2023-11-05T13:34:08Z</time>
      </trkpt>
      <trkpt lat="47.63718" lon="-2.39399">
        <ele>48</ele>
        <time>2023-11-05T13:34:34Z</time>
      </trkpt>
      <trkpt lat="47.63733" lon="-2.39416">
        <ele>47</ele>
        <time>2023-11-05T13:34:59Z</time>
      </trkpt>
      <trkpt lat="47.63755" lon="-2.39427">
        <ele>47</ele>
        <time>2023-11-05T13:35:30Z</time>
      </trkpt>
      <trkpt lat="47.63767" lon="-2.3945">
        <ele>47</ele>
        <time>2023-11-05T13:35:56Z</time>
      </trkpt>
      <trkpt lat="47.63801" lon="-2.39482">
        <ele>46</ele>
        <time>2023-11-05T13:36:50Z</time>
      </trkpt>
      <trkpt lat="47.63818" lon="-2.39473">
        <ele>47</ele>
        <time>2023-11-05T13:37:14Z</time>
      </trkpt>
      <trkpt lat="47.63834" lon="-2.39458">
        <ele>48</ele>
        <time>2023-11-05T13:37:40Z</time>
      </trkpt>
      <trkpt lat="47.63856" lon="-2.39407">
        <ele>51</ele>
        <time>2023-11-05T13:38:34Z</time>
      </trkpt>
      <trkpt lat="47.63892" lon="-2.39298">
        <ele>58</ele>
        <time>2023-11-05T13:40:23Z</time>
      </trkpt>
      <trkpt lat="47.63889" lon="-2.39271">
        <ele>59</ele>
        <time>2023-11-05T13:40:48Z</time>
      </trkpt>
      <trkpt lat="47.63897" lon="-2.39241">
        <ele>60</ele>
        <time>2023-11-05T13:41:17Z</time>
      </trkpt>
      <trkpt lat="47.63903" lon="-2.39098">
        <ele>68</ele>
        <time>2023-11-05T13:43:26Z</time>
      </trkpt>
      <trkpt lat="47.63906" lon="-2.3907">
        <ele>69</ele>
        <time>2023-11-05T13:43:51Z</time>
      </trkpt>
      <trkpt lat="47.63918" lon="-2.39012">
        <ele>70</ele>
        <time>2023-11-05T13:44:46Z</time>
      </trkpt>
      <trkpt lat="47.63928" lon="-2.38983">
        <ele>72</ele>
        <time>2023-11-05T13:45:15Z</time>
      </trkpt>
      <trkpt lat="47.63941" lon="-2.38932">
        <ele>74</ele>
        <time>2023-11-05T13:46:04Z</time>
      </trkpt>
      <trkpt lat="47.63953" lon="-2.38908">
        <ele>76</ele>
        <time>2023-11-05T13:46:31Z</time>
      </trkpt>
      <trkpt lat="47.63962" lon="-2.3888">
        <ele>76</ele>
        <time>2023-11-05T13:46:59Z</time>
      </trkpt>
      <trkpt lat="47.63966" lon="-2.38849">
        <ele>76</ele>
        <time>2023-11-05T13:47:27Z</time>
      </trkpt>
      <trkpt lat="47.63965" lon="-2.38821">
        <ele>75</ele>
        <time>2023-11-05T13:47:52Z</time>
      </trkpt>
      <trkpt lat="47.63926" lon="-2.38718">
        <ele>69</ele>
        <time>2023-11-05T13:49:39Z</time>
      </trkpt>
      <trkpt lat="47.63916" lon="-2.38659">
        <ele>69</ele>
        <time>2023-11-05T13:50:33Z</time>
      </trkpt>
      <trkpt lat="47.63916" lon="-2.38601">
        <ele>70</ele>
        <time>2023-11-05T13:51:25Z</time>
      </trkpt>
      <trkpt lat="47.63907" lon="-2.38541">
        <ele>68</ele>
        <time>2023-11-05T13:52:21Z</time>
      </trkpt>
      <trkpt lat="47.63898" lon="-2.3845">
        <ele>65</ele>
        <time>2023-11-05T13:53:43Z</time>
      </trkpt>
      <trkpt lat="47.63888" lon="-2.38423">
        <ele>62</ele>
        <time>2023-11-05T13:54:11Z</time>
      </trkpt>
      <trkpt lat="47.63891" lon="-2.38396">
        <ele>63</ele>
        <time>2023-11-05T13:54:36Z</time>
      </trkpt>
      <trkpt lat="47.639" lon="-2.38373">
        <ele>65</ele>
        <time>2023-11-05T13:55:00Z</time>
      </trkpt>
      <trkpt lat="47.63893" lon="-2.38324">
        <ele>65</ele>
        <time>2023-11-05T13:55:45Z</time>
      </trkpt>
      <trkpt lat="47.63877" lon="-2.38306">
        <ele>64</ele>
        <time>2023-11-05T13:56:11Z</time>
      </trkpt>
      <trkpt lat="47.63865" lon="-2.38285">
        <ele>63</ele>
        <time>2023-11-05T13:56:36Z</time>
      </trkpt>
      <trkpt lat="47.63886" lon="-2.38284">
        <ele>67</ele>
        <time>2023-11-05T13:57:04Z</time>
      </trkpt>
      <trkpt lat="47.63903" lon="-2.38296">
        <ele>69</ele>
        <time>2023-11-05T13:57:29Z</time>
      </trkpt>
      <trkpt lat="47.6394" lon="-2.38315">
        <ele>73</ele>
        <time>2023-11-05T13:58:22Z</time>
      </trkpt>
      <trkpt lat="47.63959" lon="-2.38304">
        <ele>75</ele>
        <time>2023-11-05T13:58:49Z</time>
      </trkpt>
      <trkpt lat="47.63977" lon="-2.38313">
        <ele>77</ele>
        <time>2023-11-05T13:59:14Z</time>
      </trkpt>
      <trkpt lat="47.63999" lon="-2.383">
        <ele>80</ele>
        <time>2023-11-05T13:59:46Z</time>
      </trkpt>
      <trkpt lat="47.64014" lon="-2.38286">
        <ele>81</ele>
        <time>2023-11-05T14:00:09Z</time>
      </trkpt>
      <trkpt lat="47.64004" lon="-2.38262">
        <ele>81</ele>
        <time>2023-11-05T14:00:35Z</time>
      </trkpt>
      <trkpt lat="47.64" lon="-2.38232">
        <ele>81</ele>
        <time>2023-11-05T14:01:02Z</time>
      </trkpt>
      <trkpt lat="47.63975" lon="-2.38149">
        <ele>82</ele>
        <time>2023-11-05T14:02:24Z</time>
      </trkpt>
      <trkpt lat="47.63963" lon="-2.38119">
        <ele>82</ele>
        <time>2023-11-05T14:02:55Z</time>
      </trkpt>
      <trkpt lat="47.63958" lon="-2.38088">
        <ele>82</ele>
        <time>2023-11-05T14:03:24Z</time>
      </trkpt>
      <trkpt lat="47.63949" lon="-2.38059">
        <ele>82</ele>
        <time>2023-11-05T14:03:53Z</time>
      </trkpt>
      <trkpt lat="47.63913" lon="-2.3803">
        <ele>83</ele>
        <time>2023-11-05T14:04:47Z</time>
      </trkpt>
      <trkpt lat="47.63904" lon="-2.38">
        <ele>84</ele>
        <time>2023-11-05T14:05:17Z</time>
      </trkpt>
      <trkpt lat="47.63893" lon="-2.37977">
        <ele>84</ele>
        <time>2023-11-05T14:05:42Z</time>
      </trkpt>
      <trkpt lat="47.63874" lon="-2.37925">
        <ele>83</ele>
        <time>2023-11-05T14:06:35Z</time>
      </trkpt>
      <trkpt lat="47.63862" lon="-2.37903">
        <ele>82</ele>
        <time>2023-11-05T14:07:01Z</time>
      </trkpt>
      <trkpt lat="47.63855" lon="-2.37875">
        <ele>82</ele>
        <time>2023-11-05T14:07:28Z</time>
      </trkpt>
      <trkpt lat="47.6385" lon="-2.37816">
        <ele>81</ele>
        <time>2023-11-05T14:08:21Z</time>
      </trkpt>
      <trkpt lat="47.63854" lon="-2.37727">
        <ele>82</ele>
        <time>2023-11-05T14:09:41Z</time>
      </trkpt>
      <trkpt lat="47.63851" lon="-2.37668">
        <ele>81</ele>
        <time>2023-11-05T14:10:35Z</time>
      </trkpt>
      <trkpt lat="47.63827" lon="-2.37613">
        <ele>80</ele>
        <time>2023-11-05T14:11:34Z</time>
      </trkpt>
      <trkpt lat="47.63812" lon="-2.37554">
        <ele>80</ele>
        <time>2023-11-05T14:12:30Z</time>
      </trkpt>
      <trkpt lat="47.638" lon="-2.37528">
        <ele>80</ele>
        <time>2023-11-05T14:12:59Z</time>
      </trkpt>
      <trkpt lat="47.63787" lon="-2.3747">
        <ele>81</ele>
        <time>2023-11-05T14:13:54Z</time>
      </trkpt>
      <trkpt lat="47.63771" lon="-2.37413">
        <ele>83</ele>
        <time>2023-11-05T14:14:49Z</time>
      </trkpt>
      <trkpt lat="47.6375" lon="-2.37362">
        <ele>83</ele>
        <time>2023-11-05T14:15:43Z</time>
      </trkpt>
      <trkpt lat="47.63733" lon="-2.37347">
        <ele>81</ele>
        <time>2023-11-05T14:16:09Z</time>
      </trkpt>
      <trkpt lat="47.6372" lon="-2.37327">
        <ele>79</ele>
        <time>2023-11-05T14:16:34Z</time>
      </trkpt>
      <trkpt lat="47.63682" lon="-2.37296">
        <ele>76</ele>
        <time>2023-11-05T14:17:32Z</time>
      </trkpt>
      <trkpt lat="47.63667" lon="-2.3728">
        <ele>75</ele>
        <time>2023-11-05T14:17:57Z</time>
      </trkpt>
      <trkpt lat="47.63652" lon="-2.37255">
        <ele>73</ele>
        <time>2023-11-05T14:18:27Z</time>
      </trkpt>
      <trkpt lat="47.63619" lon="-2.37179">
        <ele>69</ele>
        <time>2023-11-05T14:19:48Z</time>
      </trkpt>
      <trkpt lat="47.63605" lon="-2.37156">
        <ele>67</ele>
        <time>2023-11-05T14:20:16Z</time>
      </trkpt>
      <trkpt lat="47.63599" lon="-2.37128">
        <ele>66</ele>
        <time>2023-11-05T14:20:42Z</time>
      </trkpt>
      <trkpt lat="47.63587" lon="-2.37104">
        <ele>65</ele>
        <time>2023-11-05T14:21:09Z</time>
      </trkpt>
      <trkpt lat="47.63546" lon="-2.37038">
        <ele>61</ele>
        <time>2023-11-05T14:22:30Z</time>
      </trkpt>
      <trkpt lat="47.63535" lon="-2.37011">
        <ele>61</ele>
        <time>2023-11-05T14:22:58Z</time>
      </trkpt>
      <trkpt lat="47.63535" lon="-2.3698">
        <ele>62</ele>
        <time>2023-11-05T14:23:26Z</time>
      </trkpt>
      <trkpt lat="47.6354" lon="-2.3692">
        <ele>66</ele>
        <time>2023-11-05T14:24:21Z</time>
      </trkpt>
      <trkpt lat="47.63539" lon="-2.36888">
        <ele>67</ele>
        <time>2023-11-05T14:24:49Z</time>
      </trkpt>
      <trkpt lat="47.63504" lon="-2.36717">
        <ele>72</ele>
        <time>2023-11-05T14:27:30Z</time>
      </trkpt>
      <trkpt lat="47.63497" lon="-2.36659">
        <ele>74</ele>
        <time>2023-11-05T14:28:23Z</time>
      </trkpt>
      <trkpt lat="47.63494" lon="-2.36569">
        <ele>77</ele>
        <time>2023-11-05T14:29:44Z</time>
      </trkpt>
      <trkpt lat="47.63496" lon="-2.3654">
        <ele>79</ele>
        <time>2023-11-05T14:30:10Z</time>
      </trkpt>
      <trkpt lat="47.6349" lon="-2.36484">
        <ele>80</ele>
        <time>2023-11-05T14:31:01Z</time>
      </trkpt>
      <trkpt lat="47.6349" lon="-2.36452">
        <ele>79</ele>
        <time>2023-11-05T14:31:30Z</time>
      </trkpt>
      <trkpt lat="47.63512" lon="-2.364">
        <ele>80</ele>
        <time>2023-11-05T14:32:25Z</time>
      </trkpt>
      <trkpt lat="47.63523" lon="-2.3638">
        <ele>79</ele>
        <time>2023-11-05T14:32:49Z</time>
      </trkpt>
      <trkpt lat="47.63543" lon="-2.36363">
        <ele>80</ele>
        <time>2023-11-05T14:33:19Z</time>
      </trkpt>
      <trkpt lat="47.63549" lon="-2.36336">
        <ele>80</ele>
        <time>2023-11-05T14:33:45Z</time>
      </trkpt>
      <trkpt lat="47.63535" lon="-2.3631">
        <ele>77</ele>
        <time>2023-11-05T14:34:15Z</time>
      </trkpt>
      <trkpt lat="47.63532" lon="-2.36283">
        <ele>74</ele>
        <time>2023-11-05T14:34:39Z</time>
      </trkpt>
      <trkpt lat="47.63552" lon="-2.36228">
        <ele>73</ele>
        <time>2023-11-05T14:35:36Z</time>
      </trkpt>
      <trkpt lat="47.63589" lon="-2.36162">
        <ele>73</ele>
        <time>2023-11-05T14:36:53Z</time>
      </trkpt>
      <trkpt lat="47.63607" lon="-2.36111">
        <ele>67</ele>
        <time>2023-11-05T14:37:45Z</time>
      </trkpt>
      <trkpt lat="47.63628" lon="-2.36112">
        <ele>69</ele>
        <time>2023-11-05T14:38:13Z</time>
      </trkpt>
      <trkpt lat="47.63644" lon="-2.36097">
        <ele>70</ele>
        <time>2023-11-05T14:38:38Z</time>
      </trkpt>
      <trkpt lat="47.63662" lon="-2.36102">
        <ele>72</ele>
        <time>2023-11-05T14:39:02Z</time>
      </trkpt>
      <trkpt lat="47.63682" lon="-2.36101">
        <ele>73</ele>
        <time>2023-11-05T14:39:29Z</time>
      </trkpt>
      <trkpt lat="47.63701" lon="-2.36114">
        <ele>76</ele>
        <time>2023-11-05T14:39:57Z</time>
      </trkpt>
      <trkpt lat="47.63717" lon="-2.36099">
        <ele>75</ele>
        <time>2023-11-05T14:40:22Z</time>
      </trkpt>
      <trkpt lat="47.63736" lon="-2.36098">
        <ele>76</ele>
        <time>2023-11-05T14:40:48Z</time>
      </trkpt>
      <trkpt lat="47.63754" lon="-2.36088">
        <ele>76</ele>
        <time>2023-11-05T14:41:13Z</time>
      </trkpt>
      <trkpt lat="47.63773" lon="-2.36073">
        <ele>75</ele>
        <time>2023-11-05T14:41:42Z</time>
      </trkpt>
      <trkpt lat="47.63794" lon="-2.3607">
        <ele>75</ele>
        <time>2023-11-05T14:42:10Z</time>
      </trkpt>
      <trkpt lat="47.63813" lon="-2.36063">
        <ele>75</ele>
        <time>2023-11-05T14:42:36Z</time>
      </trkpt>
      <trkpt lat="47.63828" lon="-2.36041">
        <ele>76</ele>
        <time>2023-11-05T14:43:04Z</time>
      </trkpt>
      <trkpt lat="47.63815" lon="-2.3602">
        <ele>76</ele>
        <time>2023-11-05T14:43:30Z</time>
      </trkpt>
      <trkpt lat="47.63797" lon="-2.36032">
        <ele>75</ele>
        <time>2023-11-05T14:43:56Z</time>
      </trkpt>
      <trkpt lat="47.6376" lon="-2.36044">
        <ele>74</ele>
        <time>2023-11-05T14:44:47Z</time>
      </trkpt>
      <trkpt lat="47.63741" lon="-2.36029">
        <ele>72</ele>
        <time>2023-11-05T14:45:16Z</time>
      </trkpt>
      <trkpt lat="47.63728" lon="-2.36009">
        <ele>68</ele>
        <time>2023-11-05T14:45:41Z</time>
      </trkpt>
      <trkpt lat="47.63707" lon="-2.35997">
        <ele>64</ele>
        <time>2023-11-05T14:46:11Z</time>
      </trkpt>
      <trkpt lat="47.63696" lon="-2.35972">
        <ele>62</ele>
        <time>2023-11-05T14:46:37Z</time>
      </trkpt>
      <trkpt lat="47.63683" lon="-2.3595">
        <ele>60</ele>
        <time>2023-11-05T14:47:04Z</time>
      </trkpt>
      <trkpt lat="47.6361" lon="-2.359">
        <ele>48</ele>
        <time>2023-11-05T14:48:51Z</time>
      </trkpt>
      <trkpt lat="47.63592" lon="-2.35891">
        <ele>45</ele>
        <time>2023-11-05T14:49:16Z</time>
      </trkpt>
      <trkpt lat="47.6355" lon="-2.3588">
        <ele>43</ele>
        <time>2023-11-05T14:50:13Z</time>
      </trkpt>
      <trkpt lat="47.63537" lon="-2.35861">
        <ele>43</ele>
        <time>2023-11-05T14:50:38Z</time>
      </trkpt>
      <trkpt lat="47.63535" lon="-2.35707">
        <ele>52</ele>
        <time>2023-11-05T14:52:56Z</time>
      </trkpt>
      <trkpt lat="47.63537" lon="-2.35647">
        <ele>55</ele>
        <time>2023-11-05T14:53:50Z</time>
      </trkpt>
      <trkpt lat="47.63552" lon="-2.35624">
        <ele>56</ele>
        <time>2023-11-05T14:54:19Z</time>
      </trkpt>
      <trkpt lat="47.6356" lon="-2.35598">
        <ele>58</ele>
        <time>2023-11-05T14:54:45Z</time>
      </trkpt>
      <trkpt lat="47.6356" lon="-2.35502">
        <ele>59</ele>
        <time>2023-11-05T14:56:11Z</time>
      </trkpt>
      <trkpt lat="47.63545" lon="-2.35483">
        <ele>58</ele>
        <time>2023-11-05T14:56:37Z</time>
      </trkpt>
      <trkpt lat="47.63544" lon="-2.35452">
        <ele>59</ele>
        <time>2023-11-05T14:57:05Z</time>
      </trkpt>
      <trkpt lat="47.63549" lon="-2.35422">
        <ele>60</ele>
        <time>2023-11-05T14:57:33Z</time>
      </trkpt>
      <trkpt lat="47.63564" lon="-2.35404">
        <ele>61</ele>
        <time>2023-11-05T14:57:59Z</time>
      </trkpt>
      <trkpt lat="47.63583" lon="-2.35395">
        <ele>62</ele>
        <time>2023-11-05T14:58:25Z</time>
      </trkpt>
      <trkpt lat="47.63605" lon="-2.35396">
        <ele>64</ele>
        <time>2023-11-05T14:58:55Z</time>
      </trkpt>
      <trkpt lat="47.63624" lon="-2.35402">
        <ele>66</ele>
        <time>2023-11-05T14:59:21Z</time>
      </trkpt>
      <trkpt lat="47.63639" lon="-2.35421">
        <ele>68</ele>
        <time>2023-11-05T14:59:47Z</time>
      </trkpt>
      <trkpt lat="47.63658" lon="-2.35431">
        <ele>69</ele>
        <time>2023-11-05T15:00:14Z</time>
      </trkpt>
      <trkpt lat="47.63675" lon="-2.35423">
        <ele>71</ele>
        <time>2023-11-05T15:00:38Z</time>
      </trkpt>
      <trkpt lat="47.63691" lon="-2.35444">
        <ele>72</ele>
        <time>2023-11-05T15:01:06Z</time>
      </trkpt>
      <trkpt lat="47.63701" lon="-2.35469">
        <ele>73</ele>
        <time>2023-11-05T15:01:32Z</time>
      </trkpt>
      <trkpt lat="47.6374" lon="-2.35487">
        <ele>78</ele>
        <time>2023-11-05T15:02:27Z</time>
      </trkpt>
      <trkpt lat="47.63761" lon="-2.35487">
        <ele>79</ele>
        <time>2023-11-05T15:02:55Z</time>
      </trkpt>
      <trkpt lat="47.63771" lon="-2.35513">
        <ele>79</ele>
        <time>2023-11-05T15:03:22Z</time>
      </trkpt>
      <trkpt lat="47.63785" lon="-2.35536">
        <ele>78</ele>
        <time>2023-11-05T15:03:50Z</time>
      </trkpt>
      <trkpt lat="47.63803" lon="-2.35554">
        <ele>78</ele>
        <time>2023-11-05T15:04:19Z</time>
      </trkpt>
      <trkpt lat="47.63827" lon="-2.35557">
        <ele>79</ele>
        <time>2023-11-05T15:04:51Z</time>
      </trkpt>
      <trkpt lat="47.63848" lon="-2.35564">
        <ele>78</ele>
        <time>2023-11-05T15:05:19Z</time>
      </trkpt>
      <trkpt lat="47.63923" lon="-2.35611">
        <ele>75</ele>
        <time>2023-11-05T15:07:08Z</time>
      </trkpt>
      <trkpt lat="47.63944" lon="-2.3562">
        <ele>75</ele>
        <time>2023-11-05T15:07:37Z</time>
      </trkpt>
      <trkpt lat="47.63962" lon="-2.35624">
        <ele>74</ele>
        <time>2023-11-05T15:08:02Z</time>
      </trkpt>
      <trkpt lat="47.6398" lon="-2.35622">
        <ele>73</ele>
        <time>2023-11-05T15:08:26Z</time>
      </trkpt>
      <trkpt lat="47.64" lon="-2.35624">
        <ele>72</ele>
        <time>2023-11-05T15:08:52Z</time>
      </trkpt>
      <trkpt lat="47.64037" lon="-2.35616">
        <ele>73</ele>
        <time>2023-11-05T15:09:42Z</time>
      </trkpt>
      <trkpt lat="47.64092" lon="-2.3558">
        <ele>74</ele>
        <time>2023-11-05T15:11:03Z</time>
      </trkpt>
      <trkpt lat="47.64109" lon="-2.35564">
        <ele>74</ele>
        <time>2023-11-05T15:11:29Z</time>
      </trkpt>
      <trkpt lat="47.64129" lon="-2.35555">
        <ele>74</ele>
        <time>2023-11-05T15:11:57Z</time>
      </trkpt>
      <trkpt lat="47.64147" lon="-2.35571">
        <ele>75</ele>
        <time>2023-11-05T15:12:25Z</time>
      </trkpt>
      <trkpt lat="47.64165" lon="-2.35579">
        <ele>76</ele>
        <time>2023-11-05T15:12:50Z</time>
      </trkpt>
      <trkpt lat="47.64201" lon="-2.35604">
        <ele>77</ele>
        <time>2023-11-05T15:13:43Z</time>
      </trkpt>
      <trkpt lat="47.64221" lon="-2.35613">
        <ele>77</ele>
        <time>2023-11-05T15:14:11Z</time>
      </trkpt>
      <trkpt lat="47.64244" lon="-2.35612">
        <ele>77</ele>
        <time>2023-11-05T15:14:42Z</time>
      </trkpt>
      <trkpt lat="47.64264" lon="-2.35608">
        <ele>78</ele>
        <time>2023-11-05T15:15:09Z</time>
      </trkpt>
      <trkpt lat="47.64282" lon="-2.35601">
        <ele>78</ele>
        <time>2023-11-05T15:15:34Z</time>
      </trkpt>
      <trkpt lat="47.64354" lon="-2.35561">
        <ele>79</ele>
        <time>2023-11-05T15:17:16Z</time>
      </trkpt>
      <trkpt lat="47.64374" lon="-2.35563">
        <ele>79</ele>
        <time>2023-11-05T15:17:43Z</time>
      </trkpt>
      <trkpt lat="47.64429" lon="-2.35586">
        <ele>81</ele>
        <time>2023-11-05T15:18:59Z</time>
      </trkpt>
      <trkpt lat="47.64471" lon="-2.35598">
        <ele>81</ele>
        <time>2023-11-05T15:19:56Z</time>
      </trkpt>
      <trkpt lat="47.64489" lon="-2.35606">
        <ele>81</ele>
        <time>2023-11-05T15:20:21Z</time>
      </trkpt>
      <trkpt lat="47.6451" lon="-2.35609">
        <ele>81</ele>
        <time>2023-11-05T15:20:50Z</time>
      </trkpt>
      <trkpt lat="47.6453" lon="-2.35608">
        <ele>81</ele>
        <time>2023-11-05T15:21:16Z</time>
      </trkpt>
      <trkpt lat="47.64568" lon="-2.356">
        <ele>82</ele>
        <time>2023-11-05T15:22:08Z</time>
      </trkpt>
      <trkpt lat="47.64604" lon="-2.35587">
        <ele>82</ele>
        <time>2023-11-05T15:22:57Z</time>
      </trkpt>
      <trkpt lat="47.64625" lon="-2.35584">
        <ele>82</ele>
        <time>2023-11-05T15:23:25Z</time>
      </trkpt>
      <trkpt lat="47.64685" lon="-2.35585">
        <ele>82</ele>
        <time>2023-11-05T15:24:45Z</time>
      </trkpt>
      <trkpt lat="47.64705" lon="-2.35583">
        <ele>83</ele>
        <time>2023-11-05T15:25:12Z</time>
      </trkpt>
      <trkpt lat="47.64765" lon="-2.35589">
        <ele>84</ele>
        <time>2023-11-05T15:26:32Z</time>
      </trkpt>
      <trkpt lat="47.6481" lon="-2.35587">
        <ele>85</ele>
        <time>2023-11-05T15:27:32Z</time>
      </trkpt>
      <trkpt lat="47.64831" lon="-2.35592">
        <ele>85</ele>
        <time>2023-11-05T15:28:01Z</time>
      </trkpt>
      <trkpt lat="47.64853" lon="-2.35592">
        <ele>85</ele>
        <time>2023-11-05T15:28:30Z</time>
      </trkpt>
      <trkpt lat="47.64874" lon="-2.35595">
        <ele>85</ele>
        <time>2023-11-05T15:28:58Z</time>
      </trkpt>
      <trkpt lat="47.64913" lon="-2.35604">
        <ele>85</ele>
        <time>2023-11-05T15:29:51Z</time>
      </trkpt>
      <trkpt lat="47.64932" lon="-2.35611">
        <ele>85</ele>
        <time>2023-11-05T15:30:17Z</time>
      </trkpt>
      <trkpt lat="47.64955" lon="-2.35608">
        <ele>85</ele>
        <time>2023-11-05T15:30:48Z</time>
      </trkpt>
      <trkpt lat="47.64996" lon="-2.35607">
        <ele>84</ele>
        <time>2023-11-05T15:31:43Z</time>
      </trkpt>
      <trkpt lat="47.65059" lon="-2.35621">
        <ele>82</ele>
        <time>2023-11-05T15:33:08Z</time>
      </trkpt>
      <trkpt lat="47.65078" lon="-2.35623">
        <ele>81</ele>
        <time>2023-11-05T15:33:33Z</time>
      </trkpt>
      <trkpt lat="47.65096" lon="-2.35613">
        <ele>81</ele>
        <time>2023-11-05T15:33:59Z</time>
      </trkpt>
      <trkpt lat="47.65139" lon="-2.35617">
        <ele>80</ele>
        <time>2023-11-05T15:34:56Z</time>
      </trkpt>
      <trkpt lat="47.65179" lon="-2.35627">
        <ele>77</ele>
        <time>2023-11-05T15:35:50Z</time>
      </trkpt>
      <trkpt lat="47.65195" lon="-2.35615">
        <ele>75</ele>
        <time>2023-11-05T15:36:14Z</time>
      </trkpt>
      <trkpt lat="47.65217" lon="-2.35628">
        <ele>72</ele>
        <time>2023-11-05T15:36:46Z</time>
      </trkpt>
      <trkpt lat="47.65239" lon="-2.35631">
        <ele>70</ele>
        <time>2023-11-05T15:37:15Z</time>
      </trkpt>
      <trkpt lat="47.65263" lon="-2.35625">
        <ele>67</ele>
        <time>2023-11-05T15:37:48Z</time>
      </trkpt>
      <trkpt lat="47.65279" lon="-2.3561">
        <ele>66</ele>
        <time>2023-11-05T15:38:13Z</time>
      </trkpt>
      <trkpt lat="47.65281" lon="-2.35575">
        <ele>66</ele>
        <time>2023-11-05T15:38:45Z</time>
      </trkpt>
      <trkpt lat="47.65287" lon="-2.35545">
        <ele>67</ele>
        <time>2023-11-05T15:39:13Z</time>
      </trkpt>
      <trkpt lat="47.65304" lon="-2.35531">
        <ele>66</ele>
        <time>2023-11-05T15:39:39Z</time>
      </trkpt>
      <trkpt lat="47.65325" lon="-2.35521">
        <ele>64</ele>
        <time>2023-11-05T15:40:08Z</time>
      </trkpt>
      <trkpt lat="47.65345" lon="-2.35517">
        <ele>65</ele>
        <time>2023-11-05T15:40:35Z</time>
      </trkpt>
      <trkpt lat="47.65363" lon="-2.35535">
        <ele>66</ele>
        <time>2023-11-05T15:41:04Z</time>
      </trkpt>
      <trkpt lat="47.65373" lon="-2.3556">
        <ele>67</ele>
        <time>2023-11-05T15:41:30Z</time>
      </trkpt>
      <trkpt lat="47.65364" lon="-2.35534">
        <ele>67</ele>
        <time>2023-11-05T15:41:56Z</time>
      </trkpt>
      <trkpt lat="47.65343" lon="-2.35525">
        <ele>64</ele>
        <time>2023-11-05T15:42:25Z</time>
      </trkpt>
      <trkpt lat="47.65303" lon="-2.35535">
        <ele>66</ele>
        <time>2023-11-05T15:43:20Z</time>
      </trkpt>
      <trkpt lat="47.65293" lon="-2.35508">
        <ele>68</ele>
        <time>2023-11-05T15:43:47Z</time>
      </trkpt>
      <trkpt lat="47.65296" lon="-2.35446">
        <ele>70</ele>
        <time>2023-11-05T15:44:43Z</time>
      </trkpt>
      <trkpt lat="47.65287" lon="-2.35384">
        <ele>71</ele>
        <time>2023-11-05T15:45:40Z</time>
      </trkpt>
      <trkpt lat="47.65287" lon="-2.35354">
        <ele>71</ele>
        <time>2023-11-05T15:46:07Z</time>
      </trkpt>
      <trkpt lat="47.65284" lon="-2.35326">
        <ele>71</ele>
        <time>2023-11-05T15:46:33Z</time>
      </trkpt>
      <trkpt lat="47.65274" lon="-2.35269">
        <ele>71</ele>
        <time>2023-11-05T15:47:26Z</time>
      </trkpt>
      <trkpt lat="47.65248" lon="-2.35226">
        <ele>72</ele>
        <time>2023-11-05T15:48:18Z</time>
      </trkpt>
      <trkpt lat="47.65251" lon="-2.35168">
        <ele>69</ele>
        <time>2023-11-05T15:49:10Z</time>
      </trkpt>
      <trkpt lat="47.65245" lon="-2.3508">
        <ele>64</ele>
        <time>2023-11-05T15:50:29Z</time>
      </trkpt>
      <trkpt lat="47.65249" lon="-2.35015">
        <ele>62</ele>
        <time>2023-11-05T15:51:28Z</time>
      </trkpt>
      <trkpt lat="47.65241" lon="-2.34983">
        <ele>62</ele>
        <time>2023-11-05T15:51:59Z</time>
      </trkpt>
      <trkpt lat="47.65226" lon="-2.34962">
        <ele>64</ele>
        <time>2023-11-05T15:52:26Z</time>
      </trkpt>
      <trkpt lat="47.65208" lon="-2.34945">
        <ele>65</ele>
        <time>2023-11-05T15:52:55Z</time>
      </trkpt>
      <trkpt lat="47.65189" lon="-2.34942">
        <ele>66</ele>
        <time>2023-11-05T15:53:20Z</time>
      </trkpt>
      <trkpt lat="47.65181" lon="-2.3491">
        <ele>67</ele>
        <time>2023-11-05T15:53:51Z</time>
      </trkpt>
      <trkpt lat="47.65175" lon="-2.34845">
        <ele>69</ele>
        <time>2023-11-05T15:54:50Z</time>
      </trkpt>
      <trkpt lat="47.65165" lon="-2.3479">
        <ele>72</ele>
        <time>2023-11-05T15:55:41Z</time>
      </trkpt>
      <trkpt lat="47.65154" lon="-2.34672">
        <ele>71</ele>
        <time>2023-11-05T15:57:28Z</time>
      </trkpt>
      <trkpt lat="47.65149" lon="-2.3464">
        <ele>70</ele>
        <time>2023-11-05T15:57:58Z</time>
      </trkpt>
      <trkpt lat="47.65107" lon="-2.34477">
        <ele>67</ele>
        <time>2023-11-05T16:00:35Z</time>
      </trkpt>
      <trkpt lat="47.65092" lon="-2.34358">
        <ele>67</ele>
        <time>2023-11-05T16:02:23Z</time>
      </trkpt>
      <trkpt lat="47.65075" lon="-2.34346">
        <ele>68</ele>
        <time>2023-11-05T16:02:49Z</time>
      </trkpt>
      <trkpt lat="47.65034" lon="-2.34346">
        <ele>69</ele>
        <time>2023-11-05T16:03:43Z</time>
      </trkpt>
      <trkpt lat="47.64994" lon="-2.34349">
        <ele>70</ele>
        <time>2023-11-05T16:04:37Z</time>
      </trkpt>
      <trkpt lat="47.64975" lon="-2.34339">
        <ele>70</ele>
        <time>2023-11-05T16:05:04Z</time>
      </trkpt>
      <trkpt lat="47.64971" lon="-2.34313">
        <ele>70</ele>
        <time>2023-11-05T16:05:28Z</time>
      </trkpt>
      <trkpt lat="47.6497" lon="-2.34253">
        <ele>70</ele>
        <time>2023-11-05T16:06:22Z</time>
      </trkpt>
      <trkpt lat="47.64963" lon="-2.34166">
        <ele>68</ele>
        <time>2023-11-05T16:07:40Z</time>
      </trkpt>
      <trkpt lat="47.6495" lon="-2.34146">
        <ele>68</ele>
        <time>2023-11-05T16:08:05Z</time>
      </trkpt>
      <trkpt lat="47.64935" lon="-2.3413">
        <ele>69</ele>
        <time>2023-11-05T16:08:30Z</time>
      </trkpt>
      <trkpt lat="47.64917" lon="-2.34119">
        <ele>69</ele>
        <time>2023-11-05T16:08:56Z</time>
      </trkpt>
      <trkpt lat="47.64902" lon="-2.34099">
        <ele>69</ele>
        <time>2023-11-05T16:09:23Z</time>
      </trkpt>
      <trkpt lat="47.64884" lon="-2.34087">
        <ele>69</ele>
        <time>2023-11-05T16:09:49Z</time>
      </trkpt>
      <trkpt lat="47.64832" lon="-2.3404">
        <ele>68</ele>
        <time>2023-11-05T16:11:10Z</time>
      </trkpt>
      <trkpt lat="47.64813" lon="-2.34032">
        <ele>67</ele>
        <time>2023-11-05T16:11:37Z</time>
      </trkpt>
      <trkpt lat="47.64798" lon="-2.34047">
        <ele>67</ele>
        <time>2023-11-05T16:12:01Z</time>
      </trkpt>
      <trkpt lat="47.64791" lon="-2.34075">
        <ele>68</ele>
        <time>2023-11-05T16:12:28Z</time>
      </trkpt>
      <trkpt lat="47.64779" lon="-2.34095">
        <ele>68</ele>
        <time>2023-11-05T16:12:52Z</time>
      </trkpt>
      <trkpt lat="47.64756" lon="-2.34098">
        <ele>66</ele>
        <time>2023-11-05T16:13:23Z</time>
      </trkpt>
      <trkpt lat="47.64737" lon="-2.34092">
        <ele>65</ele>
        <time>2023-11-05T16:13:49Z</time>
      </trkpt>
      <trkpt lat="47.64718" lon="-2.34081">
        <ele>65</ele>
        <time>2023-11-05T16:14:16Z</time>
      </trkpt>
      <trkpt lat="47.64678" lon="-2.34065">
        <ele>64</ele>
        <time>2023-11-05T16:15:11Z</time>
      </trkpt>
      <trkpt lat="47.64658" lon="-2.3405">
        <ele>64</ele>
        <time>2023-11-05T16:15:41Z</time>
      </trkpt>
      <trkpt lat="47.64638" lon="-2.34045">
        <ele>64</ele>
        <time>2023-11-05T16:16:08Z</time>
      </trkpt>
      <trkpt lat="47.64628" lon="-2.34068">
        <ele>65</ele>
        <time>2023-11-05T16:16:33Z</time>
      </trkpt>
      <trkpt lat="47.64621" lon="-2.34126">
        <ele>67</ele>
        <time>2023-11-05T16:17:26Z</time>
      </trkpt>
      <trkpt lat="47.64603" lon="-2.34128">
        <ele>67</ele>
        <time>2023-11-05T16:17:50Z</time>
      </trkpt>
      <trkpt lat="47.64596" lon="-2.34094">
        <ele>67</ele>
        <time>2023-11-05T16:18:22Z</time>
      </trkpt>
      <trkpt lat="47.64595" lon="-2.34037">
        <ele>64</ele>
        <time>2023-11-05T16:19:13Z</time>
      </trkpt>
      <trkpt lat="47.64579" lon="-2.34016">
        <ele>62</ele>
        <time>2023-11-05T16:19:41Z</time>
      </trkpt>
      <trkpt lat="47.6454" lon="-2.33989">
        <ele>62</ele>
        <time>2023-11-05T16:20:39Z</time>
      </trkpt>
      <trkpt lat="47.64518" lon="-2.33994">
        <ele>63</ele>
        <time>2023-11-05T16:21:09Z</time>
      </trkpt>
      <trkpt lat="47.64469" lon="-2.34041">
        <ele>66</ele>
        <time>2023-11-05T16:22:26Z</time>
      </trkpt>
      <trkpt lat="47.6445" lon="-2.34053">
        <ele>66</ele>
        <time>2023-11-05T16:22:54Z</time>
      </trkpt>
      <trkpt lat="47.64435" lon="-2.34068">
        <ele>66</ele>
        <time>2023-11-05T16:23:18Z</time>
      </trkpt>
      <trkpt lat="47.64415" lon="-2.34071">
        <ele>65</ele>
        <time>2023-11-05T16:23:45Z</time>
      </trkpt>
      <trkpt lat="47.64395" lon="-2.34066">
        <ele>65</ele>
        <time>2023-11-05T16:24:12Z</time>
      </trkpt>
      <trkpt lat="47.64365" lon="-2.34023">
        <ele>64</ele>
        <time>2023-11-05T16:25:08Z</time>
      </trkpt>
      <trkpt lat="47.64354" lon="-2.34">
        <ele>64</ele>
        <time>2023-11-05T16:25:33Z</time>
      </trkpt>
      <trkpt lat="47.64336" lon="-2.33981">
        <ele>63</ele>
        <time>2023-11-05T16:26:02Z</time>
      </trkpt>
      <trkpt lat="47.64328" lon="-2.3395">
        <ele>61</ele>
        <time>2023-11-05T16:26:32Z</time>
      </trkpt>
      <trkpt lat="47.64321" lon="-2.3389">
        <ele>57</ele>
        <time>2023-11-05T16:27:27Z</time>
      </trkpt>
      <trkpt lat="47.64302" lon="-2.33884">
        <ele>56</ele>
        <time>2023-11-05T16:27:53Z</time>
      </trkpt>
      <trkpt lat="47.64278" lon="-2.33891">
        <ele>57</ele>
        <time>2023-11-05T16:28:26Z</time>
      </trkpt>
      <trkpt lat="47.64258" lon="-2.3389">
        <ele>57</ele>
        <time>2023-11-05T16:28:52Z</time>
      </trkpt>
      <trkpt lat="47.64238" lon="-2.33881">
        <ele>57</ele>
        <time>2023-11-05T16:29:20Z</time>
      </trkpt>
      <trkpt lat="47.64218" lon="-2.33888">
        <ele>58</ele>
        <time>2023-11-05T16:29:48Z</time>
      </trkpt>
      <trkpt lat="47.64197" lon="-2.33903">
        <ele>59</ele>
        <time>2023-11-05T16:30:19Z</time>
      </trkpt>
      <trkpt lat="47.64185" lon="-2.33923">
        <ele>61</ele>
        <time>2023-11-05T16:30:43Z</time>
      </trkpt>
      <trkpt lat="47.64151" lon="-2.33953">
        <ele>64</ele>
        <time>2023-11-05T16:31:36Z</time>
      </trkpt>
      <trkpt lat="47.64133" lon="-2.33944">
        <ele>64</ele>
        <time>2023-11-05T16:32:01Z</time>
      </trkpt>
      <trkpt lat="47.64167" lon="-2.33865">
        <ele>58</ele>
        <time>2023-11-05T16:33:25Z</time>
      </trkpt>
      <trkpt lat="47.64185" lon="-2.33812">
        <ele>54</ele>
        <time>2023-11-05T16:34:19Z</time>
      </trkpt>
      <trkpt lat="47.64185" lon="-2.33784">
        <ele>54</ele>
        <time>2023-11-05T16:34:44Z</time>
      </trkpt>
      <trkpt lat="47.64193" lon="-2.33723">
        <ele>53</ele>
        <time>2023-11-05T16:35:40Z</time>
      </trkpt>
      <trkpt lat="47.64179" lon="-2.3367">
        <ele>50</ele>
        <time>2023-11-05T16:36:31Z</time>
      </trkpt>
      <trkpt lat="47.64161" lon="-2.3367">
        <ele>48</ele>
        <time>2023-11-05T16:36:55Z</time>
      </trkpt>
      <trkpt lat="47.64147" lon="-2.33693">
        <ele>50</ele>
        <time>2023-11-05T16:37:23Z</time>
      </trkpt>
      <trkpt lat="47.64129" lon="-2.33697">
        <ele>51</ele>
        <time>2023-11-05T16:37:47Z</time>
      </trkpt>
      <trkpt lat="47.64087" lon="-2.337">
        <ele>53</ele>
        <time>2023-11-05T16:38:43Z</time>
      </trkpt>
      <trkpt lat="47.64064" lon="-2.33691">
        <ele>53</ele>
        <time>2023-11-05T16:39:15Z</time>
      </trkpt>
      <trkpt lat="47.64046" lon="-2.33679">
        <ele>52</ele>
        <time>2023-11-05T16:39:41Z</time>
      </trkpt>
      <trkpt lat="47.64028" lon="-2.33665">
        <ele>51</ele>
        <time>2023-11-05T16:40:08Z</time>
      </trkpt>
      <trkpt lat="47.63997" lon="-2.33629">
        <ele>48</ele>
        <time>2023-11-05T16:41:01Z</time>
      </trkpt>
      <trkpt lat="47.63956" lon="-2.33606">
        <ele>46</ele>
        <time>2023-11-05T16:41:59Z</time>
      </trkpt>
      <trkpt lat="47.6394" lon="-2.3362">
        <ele>47</ele>
        <time>2023-11-05T16:42:24Z</time>
      </trkpt>
      <trkpt lat="47.6392" lon="-2.33628">
        <ele>48</ele>
        <time>2023-11-05T16:42:52Z</time>
      </trkpt>
      <trkpt lat="47.63902" lon="-2.33639">
        <ele>49</ele>
        <time>2023-11-05T16:43:18Z</time>
      </trkpt>
      <trkpt lat="47.63887" lon="-2.33655">
        <ele>49</ele>
        <time>2023-11-05T16:43:42Z</time>
      </trkpt>
      <trkpt lat="47.63865" lon="-2.33663">
        <ele>49</ele>
        <time>2023-11-05T16:44:13Z</time>
      </trkpt>
      <trkpt lat="47.63821" lon="-2.33663">
        <ele>46</ele>
        <time>2023-11-05T16:45:11Z</time>
      </trkpt>
      <trkpt lat="47.63802" lon="-2.33669">
        <ele>45</ele>
        <time>2023-11-05T16:45:37Z</time>
      </trkpt>
      <trkpt lat="47.63789" lon="-2.33692">
        <ele>47</ele>
        <time>2023-11-05T16:46:04Z</time>
      </trkpt>
      <trkpt lat="47.63768" lon="-2.337">
        <ele>46</ele>
        <time>2023-11-05T16:46:33Z</time>
      </trkpt>
      <trkpt lat="47.6375" lon="-2.337">
        <ele>44</ele>
        <time>2023-11-05T16:46:57Z</time>
      </trkpt>
      <trkpt lat="47.63732" lon="-2.33715">
        <ele>45</ele>
        <time>2023-11-05T16:47:25Z</time>
      </trkpt>
      <trkpt lat="47.63696" lon="-2.33781">
        <ele>47</ele>
        <time>2023-11-05T16:48:41Z</time>
      </trkpt>
      <trkpt lat="47.63627" lon="-2.33834">
        <ele>44</ele>
        <time>2023-11-05T16:50:25Z</time>
      </trkpt>
      <trkpt lat="47.63588" lon="-2.33853">
        <ele>42</ele>
        <time>2023-11-05T16:51:20Z</time>
      </trkpt>
      <trkpt lat="47.63569" lon="-2.33869">
        <ele>41</ele>
        <time>2023-11-05T16:51:49Z</time>
      </trkpt>
      <trkpt lat="47.63548" lon="-2.33879">
        <ele>37</ele>
        <time>2023-11-05T16:52:18Z</time>
      </trkpt>
      <trkpt lat="47.6351" lon="-2.33908">
        <ele>30</ele>
        <time>2023-11-05T16:53:15Z</time>
      </trkpt>
      <trkpt lat="47.63499" lon="-2.33933">
        <ele>30</ele>
        <time>2023-11-05T16:53:42Z</time>
      </trkpt>
      <trkpt lat="47.63486" lon="-2.33955">
        <ele>31</ele>
        <time>2023-11-05T16:54:08Z</time>
      </trkpt>
      <trkpt lat="47.63478" lon="-2.33978">
        <ele>33</ele>
        <time>2023-11-05T16:54:32Z</time>
      </trkpt>
      <trkpt lat="47.63478" lon="-2.34006">
        <ele>36</ele>
        <time>2023-11-05T16:54:57Z</time>
      </trkpt>
      <trkpt lat="47.63486" lon="-2.34036">
        <ele>38</ele>
        <time>2023-11-05T16:55:26Z</time>
      </trkpt>
      <trkpt lat="47.63497" lon="-2.34065">
        <ele>40</ele>
        <time>2023-11-05T16:55:56Z</time>
      </trkpt>
      <trkpt lat="47.63502" lon="-2.34097">
        <ele>40</ele>
        <time>2023-11-05T16:56:25Z</time>
      </trkpt>
      <trkpt lat="47.63516" lon="-2.34155">
        <ele>39</ele>
        <time>2023-11-05T16:57:21Z</time>
      </trkpt>
      <trkpt lat="47.63518" lon="-2.34185">
        <ele>38</ele>
        <time>2023-11-05T16:57:48Z</time>
      </trkpt>
      <trkpt lat="47.63548" lon="-2.34308">
        <ele>38</ele>
        <time>2023-11-05T16:59:45Z</time>
      </trkpt>
      <trkpt lat="47.63552" lon="-2.34335">
        <ele>38</ele>
        <time>2023-11-05T17:00:10Z</time>
      </trkpt>
      <trkpt lat="47.63597" lon="-2.3448">
        <ele>47</ele>
        <time>2023-11-05T17:02:34Z</time>
      </trkpt>
      <trkpt lat="47.63607" lon="-2.34503">
        <ele>49</ele>
        <time>2023-11-05T17:02:58Z</time>
      </trkpt>
      <trkpt lat="47.63649" lon="-2.3463">
        <ele>52</ele>
        <time>2023-11-05T17:05:06Z</time>
      </trkpt>
      <trkpt lat="47.63659" lon="-2.34654">
        <ele>52</ele>
        <time>2023-11-05T17:05:31Z</time>
      </trkpt>
      <trkpt lat="47.63642" lon="-2.34676">
        <ele>48</ele>
        <time>2023-11-05T17:06:01Z</time>
      </trkpt>
      <trkpt lat="47.63634" lon="-2.34706">
        <ele>45</ele>
        <time>2023-11-05T17:06:30Z</time>
      </trkpt>
      <trkpt lat="47.63632" lon="-2.34739">
        <ele>44</ele>
        <time>2023-11-05T17:07:00Z</time>
      </trkpt>
      <trkpt lat="47.6364" lon="-2.34767">
        <ele>44</ele>
        <time>2023-11-05T17:07:27Z</time>
      </trkpt>
      <trkpt lat="47.63639" lon="-2.34797">
        <ele>42</ele>
        <time>2023-11-05T17:07:54Z</time>
      </trkpt>
      <trkpt lat="47.63645" lon="-2.34823">
        <ele>42</ele>
        <time>2023-11-05T17:08:19Z</time>
      </trkpt>
      <trkpt lat="47.63662" lon="-2.3484">
        <ele>44</ele>
        <time>2023-11-05T17:08:46Z</time>
      </trkpt>
      <trkpt lat="47.63659" lon="-2.34871">
        <ele>44</ele>
        <time>2023-11-05T17:09:14Z</time>
      </trkpt>
      <trkpt lat="47.63669" lon="-2.34899">
        <ele>45</ele>
        <time>2023-11-05T17:09:43Z</time>
      </trkpt>
      <trkpt lat="47.63684" lon="-2.3492">
        <ele>47</ele>
        <time>2023-11-05T17:10:10Z</time>
      </trkpt>
      <trkpt lat="47.63703" lon="-2.3493">
        <ele>50</ele>
        <time>2023-11-05T17:10:37Z</time>
      </trkpt>
      <trkpt lat="47.63712" lon="-2.34959">
        <ele>52</ele>
        <time>2023-11-05T17:11:06Z</time>
      </trkpt>
      <trkpt lat="47.63744" lon="-2.34994">
        <ele>56</ele>
        <time>2023-11-05T17:11:59Z</time>
      </trkpt>
      <trkpt lat="47.63758" lon="-2.35018">
        <ele>57</ele>
        <time>2023-11-05T17:12:28Z</time>
      </trkpt>
      <trkpt lat="47.63774" lon="-2.35034">
        <ele>58</ele>
        <time>2023-11-05T17:12:53Z</time>
      </trkpt>
      <trkpt lat="47.63794" lon="-2.35045">
        <ele>59</ele>
        <time>2023-11-05T17:13:22Z</time>
      </trkpt>
      <trkpt lat="47.63812" lon="-2.35066">
        <ele>59</ele>
        <time>2023-11-05T17:13:52Z</time>
      </trkpt>
      <trkpt lat="47.63826" lon="-2.3509">
        <ele>58</ele>
        <time>2023-11-05T17:14:21Z</time>
      </trkpt>
      <trkpt lat="47.63833" lon="-2.35116">
        <ele>59</ele>
        <time>2023-11-05T17:14:46Z</time>
      </trkpt>
      <trkpt lat="47.63845" lon="-2.35139">
        <ele>60</ele>
        <time>2023-11-05T17:15:12Z</time>
      </trkpt>
      <trkpt lat="47.63848" lon="-2.35171">
        <ele>61</ele>
        <time>2023-11-05T17:15:41Z</time>
      </trkpt>
      <trkpt lat="47.63832" lon="-2.35191">
        <ele>62</ele>
        <time>2023-11-05T17:16:09Z</time>
      </trkpt>
      <trkpt lat="47.63795" lon="-2.35213">
        <ele>66</ele>
        <time>2023-11-05T17:17:02Z</time>
      </trkpt>
      <trkpt lat="47.63778" lon="-2.35228">
        <ele>67</ele>
        <time>2023-11-05T17:17:29Z</time>
      </trkpt>
      <trkpt lat="47.6375" lon="-2.35278">
        <ele>70</ele>
        <time>2023-11-05T17:18:27Z</time>
      </trkpt>
      <trkpt lat="47.63735" lon="-2.35296">
        <ele>69</ele>
        <time>2023-11-05T17:18:53Z</time>
      </trkpt>
      <trkpt lat="47.63721" lon="-2.3532">
        <ele>69</ele>
        <time>2023-11-05T17:19:22Z</time>
      </trkpt>
      <trkpt lat="47.63703" lon="-2.35336">
        <ele>69</ele>
        <time>2023-11-05T17:19:50Z</time>
      </trkpt>
      <trkpt lat="47.63664" lon="-2.35339">
        <ele>66</ele>
        <time>2023-11-05T17:20:42Z</time>
      </trkpt>
      <trkpt lat="47.63643" lon="-2.35345">
        <ele>65</ele>
        <time>2023-11-05T17:21:10Z</time>
      </trkpt>
      <trkpt lat="47.63621" lon="-2.35358">
        <ele>64</ele>
        <time>2023-11-05T17:21:42Z</time>
      </trkpt>
      <trkpt lat="47.63615" lon="-2.3533">
        <ele>62</ele>
        <time>2023-11-05T17:22:08Z</time>
      </trkpt>
    </trkseg>
  </trk>
</gpx>